<?xml version="1.0" encoding="UTF-8" standalone="no" ?>
<gpx xmlns="http://www.topografix.com/GPX/1/1" xmlns:xsi="http://www.w3.org/2001/XMLSchema-instance" xsi:schemaLocation="http://www.topografix.com/GPX/1/1 http://www.topografix.com/GPX/1/1/gpx.xsd" version="1.1" creator="VisuGPX - https://www.visugpx.com">
  <metadata>
    <name>Sommet de Chateau Jouan</name>
    <desc><![CDATA[Monginevro - Sommet de Chateau Jouan]]></desc>
  </metadata>
  <trk>
    <name><![CDATA[Le_Janus_Top_2017-04-15]]></name>
    <trkseg>
      <trkpt lat="44.92746" lon="6.72025">
        <ele>1884.8</ele>
        <time>2017-04-15T06:38:33Z</time>
      </trkpt>
      <trkpt lat="44.92745" lon="6.72025">
        <ele>1884.8</ele>
        <time>2017-04-15T06:38:34Z</time>
      </trkpt>
      <trkpt lat="44.92745" lon="6.72016">
        <ele>1883.36</ele>
        <time>2017-04-15T06:39:00Z</time>
      </trkpt>
      <trkpt lat="44.92745" lon="6.72019">
        <ele>1882.88</ele>
        <time>2017-04-15T06:39:24Z</time>
      </trkpt>
      <trkpt lat="44.92742" lon="6.72017">
        <ele>1882.88</ele>
        <time>2017-04-15T06:39:46Z</time>
      </trkpt>
      <trkpt lat="44.92742" lon="6.7202">
        <ele>1882.88</ele>
        <time>2017-04-15T06:40:10Z</time>
      </trkpt>
      <trkpt lat="44.92741" lon="6.7202">
        <ele>1882.88</ele>
        <time>2017-04-15T06:40:29Z</time>
      </trkpt>
      <trkpt lat="44.92742" lon="6.7202">
        <ele>1884.32</ele>
        <time>2017-04-15T06:40:44Z</time>
      </trkpt>
      <trkpt lat="44.92743" lon="6.72023">
        <ele>1883.84</ele>
        <time>2017-04-15T06:40:59Z</time>
      </trkpt>
      <trkpt lat="44.92742" lon="6.72022">
        <ele>1883.36</ele>
        <time>2017-04-15T06:41:14Z</time>
      </trkpt>
      <trkpt lat="44.92744" lon="6.72022">
        <ele>1883.36</ele>
        <time>2017-04-15T06:41:29Z</time>
      </trkpt>
      <trkpt lat="44.92745" lon="6.72023">
        <ele>1883.84</ele>
        <time>2017-04-15T06:41:47Z</time>
      </trkpt>
      <trkpt lat="44.92744" lon="6.72025">
        <ele>1884.32</ele>
        <time>2017-04-15T06:42:02Z</time>
      </trkpt>
      <trkpt lat="44.92743" lon="6.72027">
        <ele>1883.84</ele>
        <time>2017-04-15T06:42:21Z</time>
      </trkpt>
      <trkpt lat="44.92743" lon="6.72031">
        <ele>1884.8</ele>
        <time>2017-04-15T06:42:40Z</time>
      </trkpt>
      <trkpt lat="44.92746" lon="6.72027">
        <ele>1884.8</ele>
        <time>2017-04-15T06:43:12Z</time>
      </trkpt>
      <trkpt lat="44.9274" lon="6.72028">
        <ele>1884.8</ele>
        <time>2017-04-15T06:43:37Z</time>
      </trkpt>
      <trkpt lat="44.92742" lon="6.7203">
        <ele>1884.8</ele>
        <time>2017-04-15T06:44:02Z</time>
      </trkpt>
      <trkpt lat="44.9274" lon="6.7203">
        <ele>1884.8</ele>
        <time>2017-04-15T06:44:23Z</time>
      </trkpt>
      <trkpt lat="44.92749" lon="6.72032">
        <ele>1884.8</ele>
        <time>2017-04-15T06:44:47Z</time>
      </trkpt>
      <trkpt lat="44.92751" lon="6.72028">
        <ele>1884.32</ele>
        <time>2017-04-15T06:45:17Z</time>
      </trkpt>
      <trkpt lat="44.92744" lon="6.72028">
        <ele>1884.32</ele>
        <time>2017-04-15T06:45:42Z</time>
      </trkpt>
      <trkpt lat="44.92742" lon="6.7203">
        <ele>1884.32</ele>
        <time>2017-04-15T06:46:09Z</time>
      </trkpt>
      <trkpt lat="44.92739" lon="6.72042">
        <ele>1885.76</ele>
        <time>2017-04-15T06:46:22Z</time>
      </trkpt>
      <trkpt lat="44.92738" lon="6.7204">
        <ele>1885.28</ele>
        <time>2017-04-15T06:46:36Z</time>
      </trkpt>
      <trkpt lat="44.92729" lon="6.72046">
        <ele>1885.76</ele>
        <time>2017-04-15T06:46:49Z</time>
      </trkpt>
      <trkpt lat="44.9272" lon="6.7205">
        <ele>1887.21</ele>
        <time>2017-04-15T06:47:02Z</time>
      </trkpt>
      <trkpt lat="44.92712" lon="6.72053">
        <ele>1888.17</ele>
        <time>2017-04-15T06:47:16Z</time>
      </trkpt>
      <trkpt lat="44.92704" lon="6.72055">
        <ele>1889.13</ele>
        <time>2017-04-15T06:47:29Z</time>
      </trkpt>
      <trkpt lat="44.92696" lon="6.72059">
        <ele>1890.09</ele>
        <time>2017-04-15T06:47:44Z</time>
      </trkpt>
      <trkpt lat="44.92686" lon="6.72062">
        <ele>1891.05</ele>
        <time>2017-04-15T06:48:00Z</time>
      </trkpt>
      <trkpt lat="44.92679" lon="6.72062">
        <ele>1892.97</ele>
        <time>2017-04-15T06:48:15Z</time>
      </trkpt>
      <trkpt lat="44.92669" lon="6.72064">
        <ele>1894.42</ele>
        <time>2017-04-15T06:48:29Z</time>
      </trkpt>
      <trkpt lat="44.92658" lon="6.72066">
        <ele>1895.86</ele>
        <time>2017-04-15T06:48:44Z</time>
      </trkpt>
      <trkpt lat="44.92647" lon="6.72067">
        <ele>1897.78</ele>
        <time>2017-04-15T06:49:03Z</time>
      </trkpt>
      <trkpt lat="44.92644" lon="6.72066">
        <ele>1898.74</ele>
        <time>2017-04-15T06:49:09Z</time>
      </trkpt>
      <trkpt lat="44.92635" lon="6.72065">
        <ele>1900.18</ele>
        <time>2017-04-15T06:49:23Z</time>
      </trkpt>
      <trkpt lat="44.92623" lon="6.72068">
        <ele>1901.63</ele>
        <time>2017-04-15T06:49:38Z</time>
      </trkpt>
      <trkpt lat="44.92615" lon="6.72072">
        <ele>1902.59</ele>
        <time>2017-04-15T06:49:53Z</time>
      </trkpt>
      <trkpt lat="44.92606" lon="6.72078">
        <ele>1904.03</ele>
        <time>2017-04-15T06:50:09Z</time>
      </trkpt>
      <trkpt lat="44.92595" lon="6.72086">
        <ele>1905.47</ele>
        <time>2017-04-15T06:50:26Z</time>
      </trkpt>
      <trkpt lat="44.92584" lon="6.7209">
        <ele>1906.43</ele>
        <time>2017-04-15T06:50:42Z</time>
      </trkpt>
      <trkpt lat="44.92576" lon="6.72096">
        <ele>1908.35</ele>
        <time>2017-04-15T06:50:57Z</time>
      </trkpt>
      <trkpt lat="44.92565" lon="6.72102">
        <ele>1909.32</ele>
        <time>2017-04-15T06:51:15Z</time>
      </trkpt>
      <trkpt lat="44.92554" lon="6.72106">
        <ele>1911.24</ele>
        <time>2017-04-15T06:51:33Z</time>
      </trkpt>
      <trkpt lat="44.92546" lon="6.72114">
        <ele>1913.16</ele>
        <time>2017-04-15T06:51:47Z</time>
      </trkpt>
      <trkpt lat="44.92536" lon="6.72122">
        <ele>1914.6</ele>
        <time>2017-04-15T06:52:04Z</time>
      </trkpt>
      <trkpt lat="44.9253" lon="6.72126">
        <ele>1916.04</ele>
        <time>2017-04-15T06:52:19Z</time>
      </trkpt>
      <trkpt lat="44.92522" lon="6.7213">
        <ele>1917.97</ele>
        <time>2017-04-15T06:52:35Z</time>
      </trkpt>
      <trkpt lat="44.92514" lon="6.72131">
        <ele>1920.37</ele>
        <time>2017-04-15T06:52:54Z</time>
      </trkpt>
      <trkpt lat="44.92509" lon="6.72134">
        <ele>1922.29</ele>
        <time>2017-04-15T06:53:08Z</time>
      </trkpt>
      <trkpt lat="44.92499" lon="6.72138">
        <ele>1924.22</ele>
        <time>2017-04-15T06:53:26Z</time>
      </trkpt>
      <trkpt lat="44.92489" lon="6.72141">
        <ele>1926.14</ele>
        <time>2017-04-15T06:53:43Z</time>
      </trkpt>
      <trkpt lat="44.92481" lon="6.72146">
        <ele>1928.54</ele>
        <time>2017-04-15T06:54:01Z</time>
      </trkpt>
      <trkpt lat="44.92475" lon="6.72151">
        <ele>1930.95</ele>
        <time>2017-04-15T06:54:15Z</time>
      </trkpt>
      <trkpt lat="44.92464" lon="6.72151">
        <ele>1932.39</ele>
        <time>2017-04-15T06:54:30Z</time>
      </trkpt>
      <trkpt lat="44.92456" lon="6.72151">
        <ele>1934.31</ele>
        <time>2017-04-15T06:54:46Z</time>
      </trkpt>
      <trkpt lat="44.92445" lon="6.7215">
        <ele>1935.75</ele>
        <time>2017-04-15T06:55:02Z</time>
      </trkpt>
      <trkpt lat="44.92432" lon="6.72151">
        <ele>1938.16</ele>
        <time>2017-04-15T06:55:21Z</time>
      </trkpt>
      <trkpt lat="44.92422" lon="6.7215">
        <ele>1940.08</ele>
        <time>2017-04-15T06:55:37Z</time>
      </trkpt>
      <trkpt lat="44.92413" lon="6.72148">
        <ele>1941.52</ele>
        <time>2017-04-15T06:55:54Z</time>
      </trkpt>
      <trkpt lat="44.92402" lon="6.72146">
        <ele>1943.92</ele>
        <time>2017-04-15T06:56:12Z</time>
      </trkpt>
      <trkpt lat="44.92392" lon="6.72145">
        <ele>1945.85</ele>
        <time>2017-04-15T06:56:28Z</time>
      </trkpt>
      <trkpt lat="44.9238" lon="6.72146">
        <ele>1948.25</ele>
        <time>2017-04-15T06:56:47Z</time>
      </trkpt>
      <trkpt lat="44.92369" lon="6.72145">
        <ele>1950.17</ele>
        <time>2017-04-15T06:57:03Z</time>
      </trkpt>
      <trkpt lat="44.92361" lon="6.72144">
        <ele>1952.09</ele>
        <time>2017-04-15T06:57:17Z</time>
      </trkpt>
      <trkpt lat="44.92351" lon="6.72144">
        <ele>1953.54</ele>
        <time>2017-04-15T06:57:31Z</time>
      </trkpt>
      <trkpt lat="44.92342" lon="6.72146">
        <ele>1954.98</ele>
        <time>2017-04-15T06:57:45Z</time>
      </trkpt>
      <trkpt lat="44.92332" lon="6.72147">
        <ele>1956.42</ele>
        <time>2017-04-15T06:58:00Z</time>
      </trkpt>
      <trkpt lat="44.92319" lon="6.72149">
        <ele>1958.34</ele>
        <time>2017-04-15T06:58:15Z</time>
      </trkpt>
      <trkpt lat="44.92314" lon="6.72152">
        <ele>1958.82</ele>
        <time>2017-04-15T06:58:23Z</time>
      </trkpt>
      <trkpt lat="44.92305" lon="6.72157">
        <ele>1960.75</ele>
        <time>2017-04-15T06:58:38Z</time>
      </trkpt>
      <trkpt lat="44.92295" lon="6.72165">
        <ele>1962.67</ele>
        <time>2017-04-15T06:58:55Z</time>
      </trkpt>
      <trkpt lat="44.92286" lon="6.72173">
        <ele>1963.63</ele>
        <time>2017-04-15T06:59:12Z</time>
      </trkpt>
      <trkpt lat="44.92277" lon="6.7218">
        <ele>1964.59</ele>
        <time>2017-04-15T06:59:24Z</time>
      </trkpt>
      <trkpt lat="44.92268" lon="6.72187">
        <ele>1966.51</ele>
        <time>2017-04-15T06:59:39Z</time>
      </trkpt>
      <trkpt lat="44.92258" lon="6.72195">
        <ele>1967.48</ele>
        <time>2017-04-15T06:59:56Z</time>
      </trkpt>
      <trkpt lat="44.92249" lon="6.72202">
        <ele>1968.92</ele>
        <time>2017-04-15T07:00:11Z</time>
      </trkpt>
      <trkpt lat="44.92237" lon="6.72212">
        <ele>1970.36</ele>
        <time>2017-04-15T07:00:29Z</time>
      </trkpt>
      <trkpt lat="44.92225" lon="6.7222">
        <ele>1972.28</ele>
        <time>2017-04-15T07:00:47Z</time>
      </trkpt>
      <trkpt lat="44.92215" lon="6.72229">
        <ele>1973.72</ele>
        <time>2017-04-15T07:01:04Z</time>
      </trkpt>
      <trkpt lat="44.92205" lon="6.72238">
        <ele>1975.17</ele>
        <time>2017-04-15T07:01:21Z</time>
      </trkpt>
      <trkpt lat="44.92195" lon="6.72247">
        <ele>1976.61</ele>
        <time>2017-04-15T07:01:37Z</time>
      </trkpt>
      <trkpt lat="44.92185" lon="6.72255">
        <ele>1978.05</ele>
        <time>2017-04-15T07:01:52Z</time>
      </trkpt>
      <trkpt lat="44.92177" lon="6.72263">
        <ele>1979.01</ele>
        <time>2017-04-15T07:02:05Z</time>
      </trkpt>
      <trkpt lat="44.92167" lon="6.72272">
        <ele>1980.45</ele>
        <time>2017-04-15T07:02:20Z</time>
      </trkpt>
      <trkpt lat="44.92158" lon="6.72279">
        <ele>1981.41</ele>
        <time>2017-04-15T07:02:34Z</time>
      </trkpt>
      <trkpt lat="44.92147" lon="6.72287">
        <ele>1982.38</ele>
        <time>2017-04-15T07:02:49Z</time>
      </trkpt>
      <trkpt lat="44.92139" lon="6.72294">
        <ele>1983.82</ele>
        <time>2017-04-15T07:03:04Z</time>
      </trkpt>
      <trkpt lat="44.92127" lon="6.72302">
        <ele>1985.26</ele>
        <time>2017-04-15T07:03:21Z</time>
      </trkpt>
      <trkpt lat="44.92116" lon="6.72309">
        <ele>1985.74</ele>
        <time>2017-04-15T07:03:36Z</time>
      </trkpt>
      <trkpt lat="44.92105" lon="6.72315">
        <ele>1986.22</ele>
        <time>2017-04-15T07:03:51Z</time>
      </trkpt>
      <trkpt lat="44.92095" lon="6.72322">
        <ele>1987.66</ele>
        <time>2017-04-15T07:04:06Z</time>
      </trkpt>
      <trkpt lat="44.92085" lon="6.72329">
        <ele>1988.62</ele>
        <time>2017-04-15T07:04:22Z</time>
      </trkpt>
      <trkpt lat="44.92075" lon="6.72334">
        <ele>1989.59</ele>
        <time>2017-04-15T07:04:37Z</time>
      </trkpt>
      <trkpt lat="44.92064" lon="6.72338">
        <ele>1991.03</ele>
        <time>2017-04-15T07:04:52Z</time>
      </trkpt>
      <trkpt lat="44.92053" lon="6.72344">
        <ele>1992.95</ele>
        <time>2017-04-15T07:05:09Z</time>
      </trkpt>
      <trkpt lat="44.92041" lon="6.7235">
        <ele>1994.87</ele>
        <time>2017-04-15T07:05:25Z</time>
      </trkpt>
      <trkpt lat="44.92029" lon="6.72353">
        <ele>1996.32</ele>
        <time>2017-04-15T07:05:42Z</time>
      </trkpt>
      <trkpt lat="44.92016" lon="6.72354">
        <ele>1997.76</ele>
        <time>2017-04-15T07:05:59Z</time>
      </trkpt>
      <trkpt lat="44.92007" lon="6.72359">
        <ele>1998.72</ele>
        <time>2017-04-15T07:06:12Z</time>
      </trkpt>
      <trkpt lat="44.91995" lon="6.72364">
        <ele>1999.68</ele>
        <time>2017-04-15T07:06:27Z</time>
      </trkpt>
      <trkpt lat="44.91985" lon="6.7237">
        <ele>2000.64</ele>
        <time>2017-04-15T07:06:43Z</time>
      </trkpt>
      <trkpt lat="44.91975" lon="6.72374">
        <ele>2001.6</ele>
        <time>2017-04-15T07:06:59Z</time>
      </trkpt>
      <trkpt lat="44.91964" lon="6.7238">
        <ele>2002.56</ele>
        <time>2017-04-15T07:07:16Z</time>
      </trkpt>
      <trkpt lat="44.91952" lon="6.72387">
        <ele>2003.04</ele>
        <time>2017-04-15T07:07:33Z</time>
      </trkpt>
      <trkpt lat="44.9194" lon="6.72391">
        <ele>2004.01</ele>
        <time>2017-04-15T07:07:49Z</time>
      </trkpt>
      <trkpt lat="44.91928" lon="6.72396">
        <ele>2005.45</ele>
        <time>2017-04-15T07:08:06Z</time>
      </trkpt>
      <trkpt lat="44.91912" lon="6.72398">
        <ele>2005.93</ele>
        <time>2017-04-15T07:08:24Z</time>
      </trkpt>
      <trkpt lat="44.919" lon="6.72401">
        <ele>2006.89</ele>
        <time>2017-04-15T07:08:40Z</time>
      </trkpt>
      <trkpt lat="44.91888" lon="6.72403">
        <ele>2007.85</ele>
        <time>2017-04-15T07:08:57Z</time>
      </trkpt>
      <trkpt lat="44.91876" lon="6.72407">
        <ele>2008.81</ele>
        <time>2017-04-15T07:09:12Z</time>
      </trkpt>
      <trkpt lat="44.91864" lon="6.7241">
        <ele>2009.77</ele>
        <time>2017-04-15T07:09:29Z</time>
      </trkpt>
      <trkpt lat="44.91853" lon="6.72415">
        <ele>2010.73</ele>
        <time>2017-04-15T07:09:46Z</time>
      </trkpt>
      <trkpt lat="44.9184" lon="6.72418">
        <ele>2012.18</ele>
        <time>2017-04-15T07:10:03Z</time>
      </trkpt>
      <trkpt lat="44.91828" lon="6.7242">
        <ele>2013.14</ele>
        <time>2017-04-15T07:10:21Z</time>
      </trkpt>
      <trkpt lat="44.91814" lon="6.72424">
        <ele>2014.1</ele>
        <time>2017-04-15T07:10:39Z</time>
      </trkpt>
      <trkpt lat="44.91803" lon="6.72428">
        <ele>2015.06</ele>
        <time>2017-04-15T07:10:55Z</time>
      </trkpt>
      <trkpt lat="44.9179" lon="6.7243">
        <ele>2016.02</ele>
        <time>2017-04-15T07:11:11Z</time>
      </trkpt>
      <trkpt lat="44.91779" lon="6.72431">
        <ele>2017.46</ele>
        <time>2017-04-15T07:11:27Z</time>
      </trkpt>
      <trkpt lat="44.91767" lon="6.72432">
        <ele>2017.94</ele>
        <time>2017-04-15T07:11:43Z</time>
      </trkpt>
      <trkpt lat="44.91755" lon="6.72432">
        <ele>2018.43</ele>
        <time>2017-04-15T07:11:57Z</time>
      </trkpt>
      <trkpt lat="44.91743" lon="6.72433">
        <ele>2019.39</ele>
        <time>2017-04-15T07:12:13Z</time>
      </trkpt>
      <trkpt lat="44.91732" lon="6.72432">
        <ele>2019.87</ele>
        <time>2017-04-15T07:12:28Z</time>
      </trkpt>
      <trkpt lat="44.91721" lon="6.72434">
        <ele>2020.83</ele>
        <time>2017-04-15T07:12:42Z</time>
      </trkpt>
      <trkpt lat="44.91711" lon="6.72436">
        <ele>2021.79</ele>
        <time>2017-04-15T07:12:57Z</time>
      </trkpt>
      <trkpt lat="44.91698" lon="6.72439">
        <ele>2022.27</ele>
        <time>2017-04-15T07:13:14Z</time>
      </trkpt>
      <trkpt lat="44.91687" lon="6.72443">
        <ele>2022.75</ele>
        <time>2017-04-15T07:13:29Z</time>
      </trkpt>
      <trkpt lat="44.91675" lon="6.72446">
        <ele>2023.23</ele>
        <time>2017-04-15T07:13:44Z</time>
      </trkpt>
      <trkpt lat="44.91662" lon="6.7245">
        <ele>2025.15</ele>
        <time>2017-04-15T07:14:03Z</time>
      </trkpt>
      <trkpt lat="44.91652" lon="6.7245">
        <ele>2028.04</ele>
        <time>2017-04-15T07:14:22Z</time>
      </trkpt>
      <trkpt lat="44.91644" lon="6.72452">
        <ele>2030.44</ele>
        <time>2017-04-15T07:14:41Z</time>
      </trkpt>
      <trkpt lat="44.91638" lon="6.72443">
        <ele>2032.36</ele>
        <time>2017-04-15T07:14:58Z</time>
      </trkpt>
      <trkpt lat="44.91635" lon="6.72431">
        <ele>2034.29</ele>
        <time>2017-04-15T07:15:20Z</time>
      </trkpt>
      <trkpt lat="44.91628" lon="6.72418">
        <ele>2036.69</ele>
        <time>2017-04-15T07:15:40Z</time>
      </trkpt>
      <trkpt lat="44.91619" lon="6.72409">
        <ele>2039.09</ele>
        <time>2017-04-15T07:15:59Z</time>
      </trkpt>
      <trkpt lat="44.91609" lon="6.72401">
        <ele>2041.02</ele>
        <time>2017-04-15T07:16:18Z</time>
      </trkpt>
      <trkpt lat="44.91606" lon="6.72394">
        <ele>2043.42</ele>
        <time>2017-04-15T07:16:38Z</time>
      </trkpt>
      <trkpt lat="44.91599" lon="6.72396">
        <ele>2045.34</ele>
        <time>2017-04-15T07:16:56Z</time>
      </trkpt>
      <trkpt lat="44.91592" lon="6.72406">
        <ele>2046.3</ele>
        <time>2017-04-15T07:17:12Z</time>
      </trkpt>
      <trkpt lat="44.91588" lon="6.72409">
        <ele>2047.75</ele>
        <time>2017-04-15T07:17:28Z</time>
      </trkpt>
      <trkpt lat="44.91589" lon="6.72397">
        <ele>2048.71</ele>
        <time>2017-04-15T07:17:46Z</time>
      </trkpt>
      <trkpt lat="44.91586" lon="6.72405">
        <ele>2049.67</ele>
        <time>2017-04-15T07:18:04Z</time>
      </trkpt>
      <trkpt lat="44.91586" lon="6.72408">
        <ele>2049.67</ele>
        <time>2017-04-15T07:18:17Z</time>
      </trkpt>
      <trkpt lat="44.91585" lon="6.72409">
        <ele>2049.67</ele>
        <time>2017-04-15T07:18:31Z</time>
      </trkpt>
      <trkpt lat="44.91589" lon="6.7241">
        <ele>2049.67</ele>
        <time>2017-04-15T07:18:52Z</time>
      </trkpt>
      <trkpt lat="44.91588" lon="6.72408">
        <ele>2049.67</ele>
        <time>2017-04-15T07:19:20Z</time>
      </trkpt>
      <trkpt lat="44.9159" lon="6.72407">
        <ele>2050.15</ele>
        <time>2017-04-15T07:19:43Z</time>
      </trkpt>
      <trkpt lat="44.91587" lon="6.72404">
        <ele>2049.67</ele>
        <time>2017-04-15T07:20:06Z</time>
      </trkpt>
      <trkpt lat="44.91582" lon="6.72411">
        <ele>2050.15</ele>
        <time>2017-04-15T07:20:23Z</time>
      </trkpt>
      <trkpt lat="44.91579" lon="6.72414">
        <ele>2050.15</ele>
        <time>2017-04-15T07:20:43Z</time>
      </trkpt>
      <trkpt lat="44.91573" lon="6.72412">
        <ele>2051.11</ele>
        <time>2017-04-15T07:20:56Z</time>
      </trkpt>
      <trkpt lat="44.91572" lon="6.72406">
        <ele>2051.59</ele>
        <time>2017-04-15T07:21:05Z</time>
      </trkpt>
      <trkpt lat="44.91568" lon="6.72402">
        <ele>2053.51</ele>
        <time>2017-04-15T07:21:18Z</time>
      </trkpt>
      <trkpt lat="44.91564" lon="6.72411">
        <ele>2055.92</ele>
        <time>2017-04-15T07:21:38Z</time>
      </trkpt>
      <trkpt lat="44.91559" lon="6.72412">
        <ele>2056.88</ele>
        <time>2017-04-15T07:21:54Z</time>
      </trkpt>
      <trkpt lat="44.91557" lon="6.72407">
        <ele>2057.84</ele>
        <time>2017-04-15T07:22:07Z</time>
      </trkpt>
      <trkpt lat="44.91548" lon="6.72407">
        <ele>2059.28</ele>
        <time>2017-04-15T07:22:21Z</time>
      </trkpt>
      <trkpt lat="44.9154" lon="6.72399">
        <ele>2061.2</ele>
        <time>2017-04-15T07:22:39Z</time>
      </trkpt>
      <trkpt lat="44.91534" lon="6.72394">
        <ele>2063.13</ele>
        <time>2017-04-15T07:22:56Z</time>
      </trkpt>
      <trkpt lat="44.9153" lon="6.7239">
        <ele>2065.05</ele>
        <time>2017-04-15T07:23:10Z</time>
      </trkpt>
      <trkpt lat="44.91527" lon="6.72383">
        <ele>2066.97</ele>
        <time>2017-04-15T07:23:28Z</time>
      </trkpt>
      <trkpt lat="44.91522" lon="6.72377">
        <ele>2068.89</ele>
        <time>2017-04-15T07:23:44Z</time>
      </trkpt>
      <trkpt lat="44.91514" lon="6.72372">
        <ele>2070.34</ele>
        <time>2017-04-15T07:23:59Z</time>
      </trkpt>
      <trkpt lat="44.91509" lon="6.72369">
        <ele>2071.78</ele>
        <time>2017-04-15T07:24:13Z</time>
      </trkpt>
      <trkpt lat="44.91505" lon="6.72361">
        <ele>2073.7</ele>
        <time>2017-04-15T07:24:29Z</time>
      </trkpt>
      <trkpt lat="44.91498" lon="6.72355">
        <ele>2075.14</ele>
        <time>2017-04-15T07:24:44Z</time>
      </trkpt>
      <trkpt lat="44.91492" lon="6.72351">
        <ele>2077.07</ele>
        <time>2017-04-15T07:24:59Z</time>
      </trkpt>
      <trkpt lat="44.91489" lon="6.72351">
        <ele>2078.99</ele>
        <time>2017-04-15T07:25:14Z</time>
      </trkpt>
      <trkpt lat="44.91484" lon="6.72347">
        <ele>2080.43</ele>
        <time>2017-04-15T07:25:29Z</time>
      </trkpt>
      <trkpt lat="44.91479" lon="6.72344">
        <ele>2081.87</ele>
        <time>2017-04-15T07:25:41Z</time>
      </trkpt>
      <trkpt lat="44.91471" lon="6.72341">
        <ele>2083.31</ele>
        <time>2017-04-15T07:25:59Z</time>
      </trkpt>
      <trkpt lat="44.91463" lon="6.72336">
        <ele>2083.79</ele>
        <time>2017-04-15T07:26:14Z</time>
      </trkpt>
      <trkpt lat="44.91456" lon="6.72332">
        <ele>2084.28</ele>
        <time>2017-04-15T07:26:30Z</time>
      </trkpt>
      <trkpt lat="44.91447" lon="6.72327">
        <ele>2084.76</ele>
        <time>2017-04-15T07:26:47Z</time>
      </trkpt>
      <trkpt lat="44.91447" lon="6.72329">
        <ele>2084.76</ele>
        <time>2017-04-15T07:27:01Z</time>
      </trkpt>
      <trkpt lat="44.91443" lon="6.72319">
        <ele>2085.72</ele>
        <time>2017-04-15T07:27:14Z</time>
      </trkpt>
      <trkpt lat="44.91437" lon="6.7231">
        <ele>2087.16</ele>
        <time>2017-04-15T07:27:29Z</time>
      </trkpt>
      <trkpt lat="44.91431" lon="6.72304">
        <ele>2087.64</ele>
        <time>2017-04-15T07:27:42Z</time>
      </trkpt>
      <trkpt lat="44.91424" lon="6.72298">
        <ele>2087.64</ele>
        <time>2017-04-15T07:27:56Z</time>
      </trkpt>
      <trkpt lat="44.91415" lon="6.7229">
        <ele>2088.12</ele>
        <time>2017-04-15T07:28:11Z</time>
      </trkpt>
      <trkpt lat="44.91408" lon="6.72283">
        <ele>2089.56</ele>
        <time>2017-04-15T07:28:26Z</time>
      </trkpt>
      <trkpt lat="44.91396" lon="6.72271">
        <ele>2090.52</ele>
        <time>2017-04-15T07:28:43Z</time>
      </trkpt>
      <trkpt lat="44.91388" lon="6.72265">
        <ele>2091.97</ele>
        <time>2017-04-15T07:29:00Z</time>
      </trkpt>
      <trkpt lat="44.9138" lon="6.7226">
        <ele>2092.45</ele>
        <time>2017-04-15T07:29:15Z</time>
      </trkpt>
      <trkpt lat="44.91374" lon="6.72254">
        <ele>2094.37</ele>
        <time>2017-04-15T07:29:32Z</time>
      </trkpt>
      <trkpt lat="44.91369" lon="6.72244">
        <ele>2096.29</ele>
        <time>2017-04-15T07:29:47Z</time>
      </trkpt>
      <trkpt lat="44.91359" lon="6.72246">
        <ele>2098.21</ele>
        <time>2017-04-15T07:30:04Z</time>
      </trkpt>
      <trkpt lat="44.91354" lon="6.72239">
        <ele>2100.62</ele>
        <time>2017-04-15T07:30:20Z</time>
      </trkpt>
      <trkpt lat="44.91349" lon="6.72232">
        <ele>2103.5</ele>
        <time>2017-04-15T07:30:39Z</time>
      </trkpt>
      <trkpt lat="44.91342" lon="6.72225">
        <ele>2105.42</ele>
        <time>2017-04-15T07:30:57Z</time>
      </trkpt>
      <trkpt lat="44.91331" lon="6.72212">
        <ele>2107.83</ele>
        <time>2017-04-15T07:31:16Z</time>
      </trkpt>
      <trkpt lat="44.91324" lon="6.72206">
        <ele>2108.79</ele>
        <time>2017-04-15T07:31:37Z</time>
      </trkpt>
      <trkpt lat="44.91315" lon="6.72199">
        <ele>2109.75</ele>
        <time>2017-04-15T07:31:53Z</time>
      </trkpt>
      <trkpt lat="44.9131" lon="6.72192">
        <ele>2110.23</ele>
        <time>2017-04-15T07:32:07Z</time>
      </trkpt>
      <trkpt lat="44.91303" lon="6.72177">
        <ele>2112.15</ele>
        <time>2017-04-15T07:32:26Z</time>
      </trkpt>
      <trkpt lat="44.91293" lon="6.72169">
        <ele>2113.6</ele>
        <time>2017-04-15T07:32:44Z</time>
      </trkpt>
      <trkpt lat="44.91291" lon="6.72157">
        <ele>2116.48</ele>
        <time>2017-04-15T07:33:05Z</time>
      </trkpt>
      <trkpt lat="44.9129" lon="6.72146">
        <ele>2119.36</ele>
        <time>2017-04-15T07:33:23Z</time>
      </trkpt>
      <trkpt lat="44.9128" lon="6.72141">
        <ele>2122.25</ele>
        <time>2017-04-15T07:33:42Z</time>
      </trkpt>
      <trkpt lat="44.91271" lon="6.72136">
        <ele>2124.65</ele>
        <time>2017-04-15T07:34:00Z</time>
      </trkpt>
      <trkpt lat="44.91266" lon="6.72135">
        <ele>2127.05</ele>
        <time>2017-04-15T07:34:18Z</time>
      </trkpt>
      <trkpt lat="44.91265" lon="6.72131">
        <ele>2129.46</ele>
        <time>2017-04-15T07:34:36Z</time>
      </trkpt>
      <trkpt lat="44.91266" lon="6.72123">
        <ele>2131.86</ele>
        <time>2017-04-15T07:34:52Z</time>
      </trkpt>
      <trkpt lat="44.91258" lon="6.72122">
        <ele>2135.71</ele>
        <time>2017-04-15T07:35:08Z</time>
      </trkpt>
      <trkpt lat="44.9125" lon="6.7212">
        <ele>2136.19</ele>
        <time>2017-04-15T07:35:23Z</time>
      </trkpt>
      <trkpt lat="44.91244" lon="6.72116">
        <ele>2137.63</ele>
        <time>2017-04-15T07:35:39Z</time>
      </trkpt>
      <trkpt lat="44.91239" lon="6.7211">
        <ele>2139.55</ele>
        <time>2017-04-15T07:35:53Z</time>
      </trkpt>
      <trkpt lat="44.91232" lon="6.72101">
        <ele>2141.47</ele>
        <time>2017-04-15T07:36:11Z</time>
      </trkpt>
      <trkpt lat="44.91232" lon="6.72088">
        <ele>2143.88</ele>
        <time>2017-04-15T07:36:32Z</time>
      </trkpt>
      <trkpt lat="44.91229" lon="6.7208">
        <ele>2146.28</ele>
        <time>2017-04-15T07:36:52Z</time>
      </trkpt>
      <trkpt lat="44.91224" lon="6.72074">
        <ele>2150.13</ele>
        <time>2017-04-15T07:37:09Z</time>
      </trkpt>
      <trkpt lat="44.91213" lon="6.72064">
        <ele>2150.61</ele>
        <time>2017-04-15T07:37:24Z</time>
      </trkpt>
      <trkpt lat="44.91205" lon="6.72063">
        <ele>2151.57</ele>
        <time>2017-04-15T07:37:45Z</time>
      </trkpt>
      <trkpt lat="44.91198" lon="6.72056">
        <ele>2153.01</ele>
        <time>2017-04-15T07:38:01Z</time>
      </trkpt>
      <trkpt lat="44.91188" lon="6.72053">
        <ele>2154.93</ele>
        <time>2017-04-15T07:38:21Z</time>
      </trkpt>
      <trkpt lat="44.91181" lon="6.72044">
        <ele>2155.89</ele>
        <time>2017-04-15T07:38:35Z</time>
      </trkpt>
      <trkpt lat="44.91176" lon="6.72037">
        <ele>2156.86</ele>
        <time>2017-04-15T07:38:50Z</time>
      </trkpt>
      <trkpt lat="44.91173" lon="6.72032">
        <ele>2157.82</ele>
        <time>2017-04-15T07:39:05Z</time>
      </trkpt>
      <trkpt lat="44.91176" lon="6.72032">
        <ele>2157.34</ele>
        <time>2017-04-15T07:39:12Z</time>
      </trkpt>
      <trkpt lat="44.91169" lon="6.72029">
        <ele>2158.3</ele>
        <time>2017-04-15T07:39:25Z</time>
      </trkpt>
      <trkpt lat="44.91163" lon="6.72023">
        <ele>2159.26</ele>
        <time>2017-04-15T07:39:41Z</time>
      </trkpt>
      <trkpt lat="44.91153" lon="6.72013">
        <ele>2161.18</ele>
        <time>2017-04-15T07:39:59Z</time>
      </trkpt>
      <trkpt lat="44.91145" lon="6.72002">
        <ele>2162.62</ele>
        <time>2017-04-15T07:40:19Z</time>
      </trkpt>
      <trkpt lat="44.91133" lon="6.71993">
        <ele>2165.03</ele>
        <time>2017-04-15T07:40:39Z</time>
      </trkpt>
      <trkpt lat="44.91124" lon="6.71985">
        <ele>2166.47</ele>
        <time>2017-04-15T07:40:54Z</time>
      </trkpt>
      <trkpt lat="44.91117" lon="6.71979">
        <ele>2169.35</ele>
        <time>2017-04-15T07:41:10Z</time>
      </trkpt>
      <trkpt lat="44.91112" lon="6.71973">
        <ele>2169.35</ele>
        <time>2017-04-15T07:41:29Z</time>
      </trkpt>
      <trkpt lat="44.91104" lon="6.71968">
        <ele>2170.31</ele>
        <time>2017-04-15T07:41:44Z</time>
      </trkpt>
      <trkpt lat="44.911" lon="6.71961">
        <ele>2171.27</ele>
        <time>2017-04-15T07:41:57Z</time>
      </trkpt>
      <trkpt lat="44.91096" lon="6.71954">
        <ele>2171.76</ele>
        <time>2017-04-15T07:42:10Z</time>
      </trkpt>
      <trkpt lat="44.9109" lon="6.71953">
        <ele>2173.68</ele>
        <time>2017-04-15T07:42:23Z</time>
      </trkpt>
      <trkpt lat="44.91082" lon="6.71951">
        <ele>2175.12</ele>
        <time>2017-04-15T07:42:36Z</time>
      </trkpt>
      <trkpt lat="44.91074" lon="6.71952">
        <ele>2175.6</ele>
        <time>2017-04-15T07:42:52Z</time>
      </trkpt>
      <trkpt lat="44.91066" lon="6.71942">
        <ele>2176.56</ele>
        <time>2017-04-15T07:43:08Z</time>
      </trkpt>
      <trkpt lat="44.9106" lon="6.71938">
        <ele>2178</ele>
        <time>2017-04-15T07:43:23Z</time>
      </trkpt>
      <trkpt lat="44.91057" lon="6.71934">
        <ele>2179.93</ele>
        <time>2017-04-15T07:43:40Z</time>
      </trkpt>
      <trkpt lat="44.91054" lon="6.71931">
        <ele>2181.85</ele>
        <time>2017-04-15T07:43:54Z</time>
      </trkpt>
      <trkpt lat="44.91053" lon="6.71926">
        <ele>2183.77</ele>
        <time>2017-04-15T07:44:11Z</time>
      </trkpt>
      <trkpt lat="44.91058" lon="6.71923">
        <ele>2185.21</ele>
        <time>2017-04-15T07:44:24Z</time>
      </trkpt>
      <trkpt lat="44.91057" lon="6.71917">
        <ele>2187.14</ele>
        <time>2017-04-15T07:44:38Z</time>
      </trkpt>
      <trkpt lat="44.91048" lon="6.71912">
        <ele>2188.58</ele>
        <time>2017-04-15T07:44:55Z</time>
      </trkpt>
      <trkpt lat="44.91042" lon="6.71908">
        <ele>2189.54</ele>
        <time>2017-04-15T07:45:11Z</time>
      </trkpt>
      <trkpt lat="44.91035" lon="6.71902">
        <ele>2190.02</ele>
        <time>2017-04-15T07:45:24Z</time>
      </trkpt>
      <trkpt lat="44.9103" lon="6.71899">
        <ele>2191.46</ele>
        <time>2017-04-15T07:45:40Z</time>
      </trkpt>
      <trkpt lat="44.91025" lon="6.71893">
        <ele>2192.9</ele>
        <time>2017-04-15T07:45:55Z</time>
      </trkpt>
      <trkpt lat="44.91017" lon="6.71888">
        <ele>2194.83</ele>
        <time>2017-04-15T07:46:11Z</time>
      </trkpt>
      <trkpt lat="44.91012" lon="6.71885">
        <ele>2195.79</ele>
        <time>2017-04-15T07:46:28Z</time>
      </trkpt>
      <trkpt lat="44.91006" lon="6.71879">
        <ele>2197.23</ele>
        <time>2017-04-15T07:46:45Z</time>
      </trkpt>
      <trkpt lat="44.90997" lon="6.71874">
        <ele>2198.67</ele>
        <time>2017-04-15T07:47:01Z</time>
      </trkpt>
      <trkpt lat="44.90988" lon="6.71867">
        <ele>2200.11</ele>
        <time>2017-04-15T07:47:19Z</time>
      </trkpt>
      <trkpt lat="44.90982" lon="6.71863">
        <ele>2201.56</ele>
        <time>2017-04-15T07:47:34Z</time>
      </trkpt>
      <trkpt lat="44.9098" lon="6.71856">
        <ele>2202.52</ele>
        <time>2017-04-15T07:47:48Z</time>
      </trkpt>
      <trkpt lat="44.90977" lon="6.71852">
        <ele>2204.44</ele>
        <time>2017-04-15T07:48:04Z</time>
      </trkpt>
      <trkpt lat="44.90974" lon="6.71847">
        <ele>2205.88</ele>
        <time>2017-04-15T07:48:17Z</time>
      </trkpt>
      <trkpt lat="44.90974" lon="6.71842">
        <ele>2207.32</ele>
        <time>2017-04-15T07:48:34Z</time>
      </trkpt>
      <trkpt lat="44.90973" lon="6.71835">
        <ele>2208.77</ele>
        <time>2017-04-15T07:48:47Z</time>
      </trkpt>
      <trkpt lat="44.9097" lon="6.71831">
        <ele>2209.73</ele>
        <time>2017-04-15T07:48:59Z</time>
      </trkpt>
      <trkpt lat="44.90963" lon="6.71823">
        <ele>2211.65</ele>
        <time>2017-04-15T07:49:15Z</time>
      </trkpt>
      <trkpt lat="44.90964" lon="6.71824">
        <ele>2211.17</ele>
        <time>2017-04-15T07:49:27Z</time>
      </trkpt>
      <trkpt lat="44.90964" lon="6.71824">
        <ele>2211.65</ele>
        <time>2017-04-15T07:49:42Z</time>
      </trkpt>
      <trkpt lat="44.90963" lon="6.71824">
        <ele>2211.17</ele>
        <time>2017-04-15T07:49:56Z</time>
      </trkpt>
      <trkpt lat="44.90961" lon="6.7182">
        <ele>2211.65</ele>
        <time>2017-04-15T07:50:18Z</time>
      </trkpt>
      <trkpt lat="44.90954" lon="6.71813">
        <ele>2213.57</ele>
        <time>2017-04-15T07:50:35Z</time>
      </trkpt>
      <trkpt lat="44.90949" lon="6.7181">
        <ele>2214.53</ele>
        <time>2017-04-15T07:50:47Z</time>
      </trkpt>
      <trkpt lat="44.90947" lon="6.71808">
        <ele>2215.98</ele>
        <time>2017-04-15T07:51:01Z</time>
      </trkpt>
      <trkpt lat="44.90942" lon="6.71803">
        <ele>2217.9</ele>
        <time>2017-04-15T07:51:23Z</time>
      </trkpt>
      <trkpt lat="44.90936" lon="6.71793">
        <ele>2219.82</ele>
        <time>2017-04-15T07:51:40Z</time>
      </trkpt>
      <trkpt lat="44.90932" lon="6.71783">
        <ele>2221.74</ele>
        <time>2017-04-15T07:51:57Z</time>
      </trkpt>
      <trkpt lat="44.90931" lon="6.71775">
        <ele>2224.15</ele>
        <time>2017-04-15T07:52:18Z</time>
      </trkpt>
      <trkpt lat="44.90931" lon="6.71768">
        <ele>2226.07</ele>
        <time>2017-04-15T07:52:32Z</time>
      </trkpt>
      <trkpt lat="44.90931" lon="6.71757">
        <ele>2227.99</ele>
        <time>2017-04-15T07:52:49Z</time>
      </trkpt>
      <trkpt lat="44.90933" lon="6.71749">
        <ele>2229.43</ele>
        <time>2017-04-15T07:53:07Z</time>
      </trkpt>
      <trkpt lat="44.90932" lon="6.71742">
        <ele>2230.88</ele>
        <time>2017-04-15T07:53:22Z</time>
      </trkpt>
      <trkpt lat="44.90929" lon="6.71735">
        <ele>2231.84</ele>
        <time>2017-04-15T07:53:35Z</time>
      </trkpt>
      <trkpt lat="44.90927" lon="6.7173">
        <ele>2232.32</ele>
        <time>2017-04-15T07:53:50Z</time>
      </trkpt>
      <trkpt lat="44.90922" lon="6.71718">
        <ele>2233.28</ele>
        <time>2017-04-15T07:54:07Z</time>
      </trkpt>
      <trkpt lat="44.90917" lon="6.71708">
        <ele>2235.2</ele>
        <time>2017-04-15T07:54:25Z</time>
      </trkpt>
      <trkpt lat="44.90913" lon="6.71701">
        <ele>2236.16</ele>
        <time>2017-04-15T07:54:43Z</time>
      </trkpt>
      <trkpt lat="44.90914" lon="6.71701">
        <ele>2236.64</ele>
        <time>2017-04-15T07:55:02Z</time>
      </trkpt>
      <trkpt lat="44.90915" lon="6.71701">
        <ele>2237.13</ele>
        <time>2017-04-15T07:55:26Z</time>
      </trkpt>
      <trkpt lat="44.90915" lon="6.71698">
        <ele>2236.16</ele>
        <time>2017-04-15T07:55:39Z</time>
      </trkpt>
      <trkpt lat="44.90917" lon="6.71701">
        <ele>2236.64</ele>
        <time>2017-04-15T07:56:10Z</time>
      </trkpt>
      <trkpt lat="44.90917" lon="6.71699">
        <ele>2236.16</ele>
        <time>2017-04-15T07:56:45Z</time>
      </trkpt>
      <trkpt lat="44.90916" lon="6.717">
        <ele>2236.16</ele>
        <time>2017-04-15T07:57:24Z</time>
      </trkpt>
      <trkpt lat="44.90917" lon="6.71698">
        <ele>2236.16</ele>
        <time>2017-04-15T07:58:02Z</time>
      </trkpt>
      <trkpt lat="44.90916" lon="6.71697">
        <ele>2237.61</ele>
        <time>2017-04-15T07:58:11Z</time>
      </trkpt>
      <trkpt lat="44.90917" lon="6.71697">
        <ele>2237.61</ele>
        <time>2017-04-15T07:58:25Z</time>
      </trkpt>
      <trkpt lat="44.90912" lon="6.71689">
        <ele>2238.57</ele>
        <time>2017-04-15T07:58:44Z</time>
      </trkpt>
      <trkpt lat="44.9091" lon="6.71683">
        <ele>2239.53</ele>
        <time>2017-04-15T07:58:55Z</time>
      </trkpt>
      <trkpt lat="44.90905" lon="6.7167">
        <ele>2241.45</ele>
        <time>2017-04-15T07:59:10Z</time>
      </trkpt>
      <trkpt lat="44.90897" lon="6.7166">
        <ele>2242.89</ele>
        <time>2017-04-15T07:59:26Z</time>
      </trkpt>
      <trkpt lat="44.9089" lon="6.7165">
        <ele>2243.85</ele>
        <time>2017-04-15T07:59:41Z</time>
      </trkpt>
      <trkpt lat="44.90889" lon="6.71648">
        <ele>2244.33</ele>
        <time>2017-04-15T07:59:44Z</time>
      </trkpt>
      <trkpt lat="44.90884" lon="6.71638">
        <ele>2245.3</ele>
        <time>2017-04-15T07:59:58Z</time>
      </trkpt>
      <trkpt lat="44.90882" lon="6.71629">
        <ele>2246.26</ele>
        <time>2017-04-15T08:00:09Z</time>
      </trkpt>
      <trkpt lat="44.90877" lon="6.71625">
        <ele>2246.74</ele>
        <time>2017-04-15T08:00:24Z</time>
      </trkpt>
      <trkpt lat="44.90871" lon="6.71611">
        <ele>2247.22</ele>
        <time>2017-04-15T08:00:40Z</time>
      </trkpt>
      <trkpt lat="44.90863" lon="6.71601">
        <ele>2248.18</ele>
        <time>2017-04-15T08:00:56Z</time>
      </trkpt>
      <trkpt lat="44.90856" lon="6.71591">
        <ele>2248.66</ele>
        <time>2017-04-15T08:01:11Z</time>
      </trkpt>
      <trkpt lat="44.9085" lon="6.71583">
        <ele>2248.66</ele>
        <time>2017-04-15T08:01:24Z</time>
      </trkpt>
      <trkpt lat="44.9084" lon="6.71574">
        <ele>2249.14</ele>
        <time>2017-04-15T08:01:40Z</time>
      </trkpt>
      <trkpt lat="44.90835" lon="6.71567">
        <ele>2249.14</ele>
        <time>2017-04-15T08:01:54Z</time>
      </trkpt>
      <trkpt lat="44.90826" lon="6.71558">
        <ele>2249.62</ele>
        <time>2017-04-15T08:02:14Z</time>
      </trkpt>
      <trkpt lat="44.9082" lon="6.71552">
        <ele>2249.62</ele>
        <time>2017-04-15T08:02:25Z</time>
      </trkpt>
      <trkpt lat="44.90811" lon="6.71542">
        <ele>2250.1</ele>
        <time>2017-04-15T08:02:41Z</time>
      </trkpt>
      <trkpt lat="44.90804" lon="6.71533">
        <ele>2250.58</ele>
        <time>2017-04-15T08:02:55Z</time>
      </trkpt>
      <trkpt lat="44.908" lon="6.71529">
        <ele>2251.06</ele>
        <time>2017-04-15T08:03:02Z</time>
      </trkpt>
      <trkpt lat="44.90798" lon="6.71526">
        <ele>2251.06</ele>
        <time>2017-04-15T08:03:06Z</time>
      </trkpt>
      <trkpt lat="44.90791" lon="6.71515">
        <ele>2251.54</ele>
        <time>2017-04-15T08:03:20Z</time>
      </trkpt>
      <trkpt lat="44.90784" lon="6.71506">
        <ele>2251.54</ele>
        <time>2017-04-15T08:03:33Z</time>
      </trkpt>
      <trkpt lat="44.90777" lon="6.71495">
        <ele>2252.03</ele>
        <time>2017-04-15T08:03:46Z</time>
      </trkpt>
      <trkpt lat="44.9077" lon="6.71486">
        <ele>2252.99</ele>
        <time>2017-04-15T08:03:58Z</time>
      </trkpt>
      <trkpt lat="44.90762" lon="6.71477">
        <ele>2253.47</ele>
        <time>2017-04-15T08:04:12Z</time>
      </trkpt>
      <trkpt lat="44.90756" lon="6.71468">
        <ele>2254.43</ele>
        <time>2017-04-15T08:04:25Z</time>
      </trkpt>
      <trkpt lat="44.90751" lon="6.71458">
        <ele>2255.39</ele>
        <time>2017-04-15T08:04:37Z</time>
      </trkpt>
      <trkpt lat="44.90746" lon="6.71448">
        <ele>2256.35</ele>
        <time>2017-04-15T08:04:50Z</time>
      </trkpt>
      <trkpt lat="44.9074" lon="6.71435">
        <ele>2257.79</ele>
        <time>2017-04-15T08:05:07Z</time>
      </trkpt>
      <trkpt lat="44.90734" lon="6.71432">
        <ele>2258.75</ele>
        <time>2017-04-15T08:05:22Z</time>
      </trkpt>
      <trkpt lat="44.90732" lon="6.71426">
        <ele>2259.24</ele>
        <time>2017-04-15T08:05:34Z</time>
      </trkpt>
      <trkpt lat="44.9073" lon="6.7142">
        <ele>2259.72</ele>
        <time>2017-04-15T08:05:41Z</time>
      </trkpt>
      <trkpt lat="44.90726" lon="6.71409">
        <ele>2260.2</ele>
        <time>2017-04-15T08:05:55Z</time>
      </trkpt>
      <trkpt lat="44.90724" lon="6.71398">
        <ele>2261.64</ele>
        <time>2017-04-15T08:06:09Z</time>
      </trkpt>
      <trkpt lat="44.90718" lon="6.71386">
        <ele>2263.08</ele>
        <time>2017-04-15T08:06:25Z</time>
      </trkpt>
      <trkpt lat="44.90713" lon="6.71376">
        <ele>2265</ele>
        <time>2017-04-15T08:06:38Z</time>
      </trkpt>
      <trkpt lat="44.90711" lon="6.71372">
        <ele>2265</ele>
        <time>2017-04-15T08:06:44Z</time>
      </trkpt>
      <trkpt lat="44.90709" lon="6.7137">
        <ele>2265.48</ele>
        <time>2017-04-15T08:06:47Z</time>
      </trkpt>
      <trkpt lat="44.90706" lon="6.71361">
        <ele>2266.93</ele>
        <time>2017-04-15T08:07:01Z</time>
      </trkpt>
      <trkpt lat="44.90704" lon="6.7135">
        <ele>2268.85</ele>
        <time>2017-04-15T08:07:19Z</time>
      </trkpt>
      <trkpt lat="44.907" lon="6.71339">
        <ele>2270.77</ele>
        <time>2017-04-15T08:07:36Z</time>
      </trkpt>
      <trkpt lat="44.90695" lon="6.7133">
        <ele>2272.69</ele>
        <time>2017-04-15T08:07:56Z</time>
      </trkpt>
      <trkpt lat="44.90692" lon="6.71322">
        <ele>2274.62</ele>
        <time>2017-04-15T08:08:11Z</time>
      </trkpt>
      <trkpt lat="44.9069" lon="6.7131">
        <ele>2276.54</ele>
        <time>2017-04-15T08:08:25Z</time>
      </trkpt>
      <trkpt lat="44.90685" lon="6.71302">
        <ele>2277.98</ele>
        <time>2017-04-15T08:08:43Z</time>
      </trkpt>
      <trkpt lat="44.90684" lon="6.71294">
        <ele>2279.42</ele>
        <time>2017-04-15T08:08:58Z</time>
      </trkpt>
      <trkpt lat="44.90679" lon="6.71284">
        <ele>2280.87</ele>
        <time>2017-04-15T08:09:16Z</time>
      </trkpt>
      <trkpt lat="44.90674" lon="6.71277">
        <ele>2281.83</ele>
        <time>2017-04-15T08:09:31Z</time>
      </trkpt>
      <trkpt lat="44.90671" lon="6.71266">
        <ele>2283.27</ele>
        <time>2017-04-15T08:09:46Z</time>
      </trkpt>
      <trkpt lat="44.90671" lon="6.71267">
        <ele>2283.27</ele>
        <time>2017-04-15T08:10:04Z</time>
      </trkpt>
      <trkpt lat="44.90672" lon="6.71267">
        <ele>2283.27</ele>
        <time>2017-04-15T08:10:27Z</time>
      </trkpt>
      <trkpt lat="44.9067" lon="6.71263">
        <ele>2283.27</ele>
        <time>2017-04-15T08:10:48Z</time>
      </trkpt>
      <trkpt lat="44.90667" lon="6.71253">
        <ele>2284.71</ele>
        <time>2017-04-15T08:11:07Z</time>
      </trkpt>
      <trkpt lat="44.90663" lon="6.71241">
        <ele>2286.63</ele>
        <time>2017-04-15T08:11:23Z</time>
      </trkpt>
      <trkpt lat="44.90657" lon="6.71231">
        <ele>2288.08</ele>
        <time>2017-04-15T08:11:40Z</time>
      </trkpt>
      <trkpt lat="44.90655" lon="6.71227">
        <ele>2288.56</ele>
        <time>2017-04-15T08:11:56Z</time>
      </trkpt>
      <trkpt lat="44.90652" lon="6.71219">
        <ele>2289.52</ele>
        <time>2017-04-15T08:12:13Z</time>
      </trkpt>
      <trkpt lat="44.90653" lon="6.7122">
        <ele>2289.52</ele>
        <time>2017-04-15T08:12:38Z</time>
      </trkpt>
      <trkpt lat="44.90655" lon="6.7122">
        <ele>2289.52</ele>
        <time>2017-04-15T08:13:07Z</time>
      </trkpt>
      <trkpt lat="44.90654" lon="6.71219">
        <ele>2289.52</ele>
        <time>2017-04-15T08:13:34Z</time>
      </trkpt>
      <trkpt lat="44.90653" lon="6.71223">
        <ele>2289.52</ele>
        <time>2017-04-15T08:13:55Z</time>
      </trkpt>
      <trkpt lat="44.90653" lon="6.71221">
        <ele>2289.52</ele>
        <time>2017-04-15T08:14:20Z</time>
      </trkpt>
      <trkpt lat="44.90653" lon="6.71212">
        <ele>2290.48</ele>
        <time>2017-04-15T08:14:35Z</time>
      </trkpt>
      <trkpt lat="44.90649" lon="6.71204">
        <ele>2291.92</ele>
        <time>2017-04-15T08:14:49Z</time>
      </trkpt>
      <trkpt lat="44.90644" lon="6.71195">
        <ele>2293.36</ele>
        <time>2017-04-15T08:15:04Z</time>
      </trkpt>
      <trkpt lat="44.90641" lon="6.71186">
        <ele>2294.8</ele>
        <time>2017-04-15T08:15:19Z</time>
      </trkpt>
      <trkpt lat="44.90639" lon="6.7118">
        <ele>2295.77</ele>
        <time>2017-04-15T08:15:30Z</time>
      </trkpt>
      <trkpt lat="44.90636" lon="6.7117">
        <ele>2297.21</ele>
        <time>2017-04-15T08:15:45Z</time>
      </trkpt>
      <trkpt lat="44.90633" lon="6.71159">
        <ele>2298.17</ele>
        <time>2017-04-15T08:15:59Z</time>
      </trkpt>
      <trkpt lat="44.9063" lon="6.71149">
        <ele>2299.61</ele>
        <time>2017-04-15T08:16:17Z</time>
      </trkpt>
      <trkpt lat="44.90626" lon="6.71142">
        <ele>2300.57</ele>
        <time>2017-04-15T08:16:30Z</time>
      </trkpt>
      <trkpt lat="44.9062" lon="6.71135">
        <ele>2302.01</ele>
        <time>2017-04-15T08:16:49Z</time>
      </trkpt>
      <trkpt lat="44.90616" lon="6.71125">
        <ele>2303.46</ele>
        <time>2017-04-15T08:17:03Z</time>
      </trkpt>
      <trkpt lat="44.90614" lon="6.71117">
        <ele>2305.38</ele>
        <time>2017-04-15T08:17:19Z</time>
      </trkpt>
      <trkpt lat="44.90612" lon="6.71106">
        <ele>2306.82</ele>
        <time>2017-04-15T08:17:37Z</time>
      </trkpt>
      <trkpt lat="44.90612" lon="6.71103">
        <ele>2307.78</ele>
        <time>2017-04-15T08:17:55Z</time>
      </trkpt>
      <trkpt lat="44.90611" lon="6.71099">
        <ele>2308.26</ele>
        <time>2017-04-15T08:18:14Z</time>
      </trkpt>
      <trkpt lat="44.9061" lon="6.71094">
        <ele>2309.22</ele>
        <time>2017-04-15T08:18:27Z</time>
      </trkpt>
      <trkpt lat="44.90607" lon="6.71083">
        <ele>2310.67</ele>
        <time>2017-04-15T08:18:43Z</time>
      </trkpt>
      <trkpt lat="44.90604" lon="6.71075">
        <ele>2312.59</ele>
        <time>2017-04-15T08:19:00Z</time>
      </trkpt>
      <trkpt lat="44.90599" lon="6.71068">
        <ele>2314.99</ele>
        <time>2017-04-15T08:19:23Z</time>
      </trkpt>
      <trkpt lat="44.90597" lon="6.71061">
        <ele>2316.43</ele>
        <time>2017-04-15T08:19:36Z</time>
      </trkpt>
      <trkpt lat="44.90594" lon="6.71056">
        <ele>2317.4</ele>
        <time>2017-04-15T08:19:49Z</time>
      </trkpt>
      <trkpt lat="44.90592" lon="6.71051">
        <ele>2319.32</ele>
        <time>2017-04-15T08:20:07Z</time>
      </trkpt>
      <trkpt lat="44.90592" lon="6.71045">
        <ele>2320.76</ele>
        <time>2017-04-15T08:20:23Z</time>
      </trkpt>
      <trkpt lat="44.90591" lon="6.71039">
        <ele>2322.2</ele>
        <time>2017-04-15T08:20:37Z</time>
      </trkpt>
      <trkpt lat="44.9059" lon="6.71034">
        <ele>2324.12</ele>
        <time>2017-04-15T08:20:56Z</time>
      </trkpt>
      <trkpt lat="44.90589" lon="6.71026">
        <ele>2326.05</ele>
        <time>2017-04-15T08:21:11Z</time>
      </trkpt>
      <trkpt lat="44.90588" lon="6.71019">
        <ele>2327.97</ele>
        <time>2017-04-15T08:21:28Z</time>
      </trkpt>
      <trkpt lat="44.90588" lon="6.71013">
        <ele>2329.41</ele>
        <time>2017-04-15T08:21:42Z</time>
      </trkpt>
      <trkpt lat="44.90586" lon="6.71003">
        <ele>2331.81</ele>
        <time>2017-04-15T08:21:57Z</time>
      </trkpt>
      <trkpt lat="44.90585" lon="6.70997">
        <ele>2333.26</ele>
        <time>2017-04-15T08:22:12Z</time>
      </trkpt>
      <trkpt lat="44.90581" lon="6.70991">
        <ele>2335.66</ele>
        <time>2017-04-15T08:22:30Z</time>
      </trkpt>
      <trkpt lat="44.90577" lon="6.70983">
        <ele>2337.1</ele>
        <time>2017-04-15T08:22:45Z</time>
      </trkpt>
      <trkpt lat="44.90576" lon="6.70978">
        <ele>2339.02</ele>
        <time>2017-04-15T08:23:00Z</time>
      </trkpt>
      <trkpt lat="44.90573" lon="6.70976">
        <ele>2340.47</ele>
        <time>2017-04-15T08:23:12Z</time>
      </trkpt>
      <trkpt lat="44.90569" lon="6.70967">
        <ele>2341.91</ele>
        <time>2017-04-15T08:23:27Z</time>
      </trkpt>
      <trkpt lat="44.90566" lon="6.70962">
        <ele>2343.35</ele>
        <time>2017-04-15T08:23:41Z</time>
      </trkpt>
      <trkpt lat="44.90564" lon="6.70954">
        <ele>2345.27</ele>
        <time>2017-04-15T08:23:55Z</time>
      </trkpt>
      <trkpt lat="44.90559" lon="6.70946">
        <ele>2346.72</ele>
        <time>2017-04-15T08:24:11Z</time>
      </trkpt>
      <trkpt lat="44.90555" lon="6.70939">
        <ele>2348.16</ele>
        <time>2017-04-15T08:24:25Z</time>
      </trkpt>
      <trkpt lat="44.90551" lon="6.70931">
        <ele>2349.12</ele>
        <time>2017-04-15T08:24:40Z</time>
      </trkpt>
      <trkpt lat="44.90546" lon="6.70925">
        <ele>2350.56</ele>
        <time>2017-04-15T08:24:54Z</time>
      </trkpt>
      <trkpt lat="44.90542" lon="6.70918">
        <ele>2351.52</ele>
        <time>2017-04-15T08:25:09Z</time>
      </trkpt>
      <trkpt lat="44.9054" lon="6.70909">
        <ele>2352.48</ele>
        <time>2017-04-15T08:25:25Z</time>
      </trkpt>
      <trkpt lat="44.90533" lon="6.70902">
        <ele>2353.93</ele>
        <time>2017-04-15T08:25:40Z</time>
      </trkpt>
      <trkpt lat="44.90533" lon="6.70902">
        <ele>2353.93</ele>
        <time>2017-04-15T08:26:02Z</time>
      </trkpt>
      <trkpt lat="44.90529" lon="6.70895">
        <ele>2354.89</ele>
        <time>2017-04-15T08:26:19Z</time>
      </trkpt>
      <trkpt lat="44.90524" lon="6.70887">
        <ele>2356.33</ele>
        <time>2017-04-15T08:26:32Z</time>
      </trkpt>
      <trkpt lat="44.90522" lon="6.70882">
        <ele>2357.77</ele>
        <time>2017-04-15T08:26:47Z</time>
      </trkpt>
      <trkpt lat="44.90516" lon="6.70873">
        <ele>2359.69</ele>
        <time>2017-04-15T08:27:04Z</time>
      </trkpt>
      <trkpt lat="44.90512" lon="6.70867">
        <ele>2361.14</ele>
        <time>2017-04-15T08:27:16Z</time>
      </trkpt>
      <trkpt lat="44.90508" lon="6.70862">
        <ele>2362.58</ele>
        <time>2017-04-15T08:27:31Z</time>
      </trkpt>
      <trkpt lat="44.90501" lon="6.70851">
        <ele>2364.5</ele>
        <time>2017-04-15T08:27:49Z</time>
      </trkpt>
      <trkpt lat="44.90496" lon="6.70844">
        <ele>2366.42</ele>
        <time>2017-04-15T08:28:04Z</time>
      </trkpt>
      <trkpt lat="44.90493" lon="6.7084">
        <ele>2367.86</ele>
        <time>2017-04-15T08:28:20Z</time>
      </trkpt>
      <trkpt lat="44.90489" lon="6.70836">
        <ele>2369.79</ele>
        <time>2017-04-15T08:28:38Z</time>
      </trkpt>
      <trkpt lat="44.90488" lon="6.70835">
        <ele>2371.23</ele>
        <time>2017-04-15T08:28:54Z</time>
      </trkpt>
      <trkpt lat="44.90485" lon="6.70829">
        <ele>2372.19</ele>
        <time>2017-04-15T08:29:09Z</time>
      </trkpt>
      <trkpt lat="44.90482" lon="6.70828">
        <ele>2373.63</ele>
        <time>2017-04-15T08:29:30Z</time>
      </trkpt>
      <trkpt lat="44.90485" lon="6.7083">
        <ele>2373.63</ele>
        <time>2017-04-15T08:29:49Z</time>
      </trkpt>
      <trkpt lat="44.90482" lon="6.70823">
        <ele>2373.63</ele>
        <time>2017-04-15T08:30:07Z</time>
      </trkpt>
      <trkpt lat="44.9048" lon="6.70818">
        <ele>2374.59</ele>
        <time>2017-04-15T08:30:22Z</time>
      </trkpt>
      <trkpt lat="44.90472" lon="6.70809">
        <ele>2375.55</ele>
        <time>2017-04-15T08:30:36Z</time>
      </trkpt>
      <trkpt lat="44.9047" lon="6.70802">
        <ele>2376.04</ele>
        <time>2017-04-15T08:30:48Z</time>
      </trkpt>
      <trkpt lat="44.9047" lon="6.70799">
        <ele>2376.52</ele>
        <time>2017-04-15T08:31:02Z</time>
      </trkpt>
      <trkpt lat="44.90469" lon="6.70798">
        <ele>2376.52</ele>
        <time>2017-04-15T08:31:19Z</time>
      </trkpt>
      <trkpt lat="44.90467" lon="6.70797">
        <ele>2376.52</ele>
        <time>2017-04-15T08:31:40Z</time>
      </trkpt>
      <trkpt lat="44.90472" lon="6.70794">
        <ele>2376.52</ele>
        <time>2017-04-15T08:31:58Z</time>
      </trkpt>
      <trkpt lat="44.90472" lon="6.7078">
        <ele>2376.52</ele>
        <time>2017-04-15T08:32:12Z</time>
      </trkpt>
      <trkpt lat="44.90473" lon="6.70768">
        <ele>2377.48</ele>
        <time>2017-04-15T08:32:24Z</time>
      </trkpt>
      <trkpt lat="44.90475" lon="6.70754">
        <ele>2378.44</ele>
        <time>2017-04-15T08:32:40Z</time>
      </trkpt>
      <trkpt lat="44.90473" lon="6.7074">
        <ele>2378.44</ele>
        <time>2017-04-15T08:32:55Z</time>
      </trkpt>
      <trkpt lat="44.9047" lon="6.70729">
        <ele>2379.4</ele>
        <time>2017-04-15T08:33:08Z</time>
      </trkpt>
      <trkpt lat="44.90466" lon="6.70716">
        <ele>2380.36</ele>
        <time>2017-04-15T08:33:22Z</time>
      </trkpt>
      <trkpt lat="44.90462" lon="6.70704">
        <ele>2382.28</ele>
        <time>2017-04-15T08:33:39Z</time>
      </trkpt>
      <trkpt lat="44.90461" lon="6.70694">
        <ele>2383.73</ele>
        <time>2017-04-15T08:33:54Z</time>
      </trkpt>
      <trkpt lat="44.90461" lon="6.70685">
        <ele>2385.17</ele>
        <time>2017-04-15T08:34:07Z</time>
      </trkpt>
      <trkpt lat="44.90457" lon="6.70673">
        <ele>2386.13</ele>
        <time>2017-04-15T08:34:23Z</time>
      </trkpt>
      <trkpt lat="44.90457" lon="6.70666">
        <ele>2386.61</ele>
        <time>2017-04-15T08:34:37Z</time>
      </trkpt>
      <trkpt lat="44.90456" lon="6.70652">
        <ele>2387.57</ele>
        <time>2017-04-15T08:34:54Z</time>
      </trkpt>
      <trkpt lat="44.90459" lon="6.70641">
        <ele>2388.53</ele>
        <time>2017-04-15T08:35:07Z</time>
      </trkpt>
      <trkpt lat="44.9046" lon="6.70632">
        <ele>2390.46</ele>
        <time>2017-04-15T08:35:21Z</time>
      </trkpt>
      <trkpt lat="44.90463" lon="6.70624">
        <ele>2391.42</ele>
        <time>2017-04-15T08:35:34Z</time>
      </trkpt>
      <trkpt lat="44.90467" lon="6.70621">
        <ele>2390.94</ele>
        <time>2017-04-15T08:35:47Z</time>
      </trkpt>
      <trkpt lat="44.9047" lon="6.70618">
        <ele>2392.38</ele>
        <time>2017-04-15T08:35:59Z</time>
      </trkpt>
      <trkpt lat="44.90479" lon="6.70614">
        <ele>2392.86</ele>
        <time>2017-04-15T08:36:11Z</time>
      </trkpt>
      <trkpt lat="44.90487" lon="6.7061">
        <ele>2393.82</ele>
        <time>2017-04-15T08:36:24Z</time>
      </trkpt>
      <trkpt lat="44.90497" lon="6.70607">
        <ele>2395.26</ele>
        <time>2017-04-15T08:36:39Z</time>
      </trkpt>
      <trkpt lat="44.90497" lon="6.70606">
        <ele>2395.26</ele>
        <time>2017-04-15T08:36:55Z</time>
      </trkpt>
      <trkpt lat="44.90496" lon="6.70605">
        <ele>2396.22</ele>
        <time>2017-04-15T08:37:01Z</time>
      </trkpt>
      <trkpt lat="44.90496" lon="6.70606">
        <ele>2395.26</ele>
        <time>2017-04-15T08:37:36Z</time>
      </trkpt>
      <trkpt lat="44.90494" lon="6.70608">
        <ele>2396.22</ele>
        <time>2017-04-15T08:38:08Z</time>
      </trkpt>
      <trkpt lat="44.90487" lon="6.70623">
        <ele>2395.74</ele>
        <time>2017-04-15T08:38:25Z</time>
      </trkpt>
      <trkpt lat="44.90479" lon="6.70628">
        <ele>2397.18</ele>
        <time>2017-04-15T08:38:38Z</time>
      </trkpt>
      <trkpt lat="44.90476" lon="6.70629">
        <ele>2397.18</ele>
        <time>2017-04-15T08:38:42Z</time>
      </trkpt>
      <trkpt lat="44.9047" lon="6.70644">
        <ele>2398.15</ele>
        <time>2017-04-15T08:38:58Z</time>
      </trkpt>
      <trkpt lat="44.90473" lon="6.70657">
        <ele>2399.59</ele>
        <time>2017-04-15T08:39:12Z</time>
      </trkpt>
      <trkpt lat="44.90474" lon="6.70662">
        <ele>2399.59</ele>
        <time>2017-04-15T08:39:28Z</time>
      </trkpt>
      <trkpt lat="44.90472" lon="6.7066">
        <ele>2400.07</ele>
        <time>2017-04-15T08:39:40Z</time>
      </trkpt>
      <trkpt lat="44.90472" lon="6.70661">
        <ele>2400.55</ele>
        <time>2017-04-15T08:39:59Z</time>
      </trkpt>
      <trkpt lat="44.90469" lon="6.70659">
        <ele>2400.07</ele>
        <time>2017-04-15T08:40:28Z</time>
      </trkpt>
      <trkpt lat="44.90474" lon="6.70661">
        <ele>2400.07</ele>
        <time>2017-04-15T08:40:54Z</time>
      </trkpt>
      <trkpt lat="44.90473" lon="6.70662">
        <ele>2399.11</ele>
        <time>2017-04-15T08:41:11Z</time>
      </trkpt>
      <trkpt lat="44.90473" lon="6.70661">
        <ele>2399.11</ele>
        <time>2017-04-15T08:41:41Z</time>
      </trkpt>
      <trkpt lat="44.90472" lon="6.70661">
        <ele>2399.11</ele>
        <time>2017-04-15T08:42:10Z</time>
      </trkpt>
      <trkpt lat="44.90474" lon="6.7066">
        <ele>2399.11</ele>
        <time>2017-04-15T08:42:44Z</time>
      </trkpt>
      <trkpt lat="44.90475" lon="6.70661">
        <ele>2399.59</ele>
        <time>2017-04-15T08:43:11Z</time>
      </trkpt>
      <trkpt lat="44.90474" lon="6.70662">
        <ele>2399.59</ele>
        <time>2017-04-15T08:43:38Z</time>
      </trkpt>
      <trkpt lat="44.90475" lon="6.70661">
        <ele>2399.59</ele>
        <time>2017-04-15T08:44:06Z</time>
      </trkpt>
      <trkpt lat="44.90475" lon="6.70662">
        <ele>2400.07</ele>
        <time>2017-04-15T08:44:38Z</time>
      </trkpt>
      <trkpt lat="44.90475" lon="6.70662">
        <ele>2399.59</ele>
        <time>2017-04-15T08:45:07Z</time>
      </trkpt>
      <trkpt lat="44.90475" lon="6.70661">
        <ele>2400.55</ele>
        <time>2017-04-15T08:45:21Z</time>
      </trkpt>
      <trkpt lat="44.90473" lon="6.70659">
        <ele>2400.55</ele>
        <time>2017-04-15T08:45:39Z</time>
      </trkpt>
      <trkpt lat="44.90473" lon="6.70661">
        <ele>2400.55</ele>
        <time>2017-04-15T08:45:57Z</time>
      </trkpt>
      <trkpt lat="44.90475" lon="6.70663">
        <ele>2400.55</ele>
        <time>2017-04-15T08:46:14Z</time>
      </trkpt>
      <trkpt lat="44.90477" lon="6.70669">
        <ele>2401.03</ele>
        <time>2017-04-15T08:46:27Z</time>
      </trkpt>
      <trkpt lat="44.90481" lon="6.70677">
        <ele>2402.47</ele>
        <time>2017-04-15T08:46:43Z</time>
      </trkpt>
      <trkpt lat="44.90485" lon="6.70683">
        <ele>2403.91</ele>
        <time>2017-04-15T08:46:59Z</time>
      </trkpt>
      <trkpt lat="44.90488" lon="6.7069">
        <ele>2403.43</ele>
        <time>2017-04-15T08:47:14Z</time>
      </trkpt>
      <trkpt lat="44.90489" lon="6.70686">
        <ele>2404.88</ele>
        <time>2017-04-15T08:47:31Z</time>
      </trkpt>
      <trkpt lat="44.90489" lon="6.7069">
        <ele>2404.88</ele>
        <time>2017-04-15T08:47:52Z</time>
      </trkpt>
      <trkpt lat="44.90489" lon="6.70691">
        <ele>2404.88</ele>
        <time>2017-04-15T08:48:07Z</time>
      </trkpt>
      <trkpt lat="44.90492" lon="6.70695">
        <ele>2404.88</ele>
        <time>2017-04-15T08:48:23Z</time>
      </trkpt>
      <trkpt lat="44.90496" lon="6.707">
        <ele>2405.84</ele>
        <time>2017-04-15T08:48:40Z</time>
      </trkpt>
      <trkpt lat="44.905" lon="6.70704">
        <ele>2406.32</ele>
        <time>2017-04-15T08:48:57Z</time>
      </trkpt>
      <trkpt lat="44.90507" lon="6.70714">
        <ele>2407.28</ele>
        <time>2017-04-15T08:49:13Z</time>
      </trkpt>
      <trkpt lat="44.90511" lon="6.7072">
        <ele>2408.72</ele>
        <time>2017-04-15T08:49:25Z</time>
      </trkpt>
      <trkpt lat="44.90515" lon="6.70725">
        <ele>2409.2</ele>
        <time>2017-04-15T08:49:38Z</time>
      </trkpt>
      <trkpt lat="44.90521" lon="6.70731">
        <ele>2409.68</ele>
        <time>2017-04-15T08:49:52Z</time>
      </trkpt>
      <trkpt lat="44.90526" lon="6.70742">
        <ele>2410.64</ele>
        <time>2017-04-15T08:50:06Z</time>
      </trkpt>
      <trkpt lat="44.90533" lon="6.7075">
        <ele>2412.09</ele>
        <time>2017-04-15T08:50:19Z</time>
      </trkpt>
      <trkpt lat="44.90542" lon="6.70757">
        <ele>2413.05</ele>
        <time>2017-04-15T08:50:35Z</time>
      </trkpt>
      <trkpt lat="44.90551" lon="6.70763">
        <ele>2414.49</ele>
        <time>2017-04-15T08:50:50Z</time>
      </trkpt>
      <trkpt lat="44.9056" lon="6.70768">
        <ele>2415.45</ele>
        <time>2017-04-15T08:51:07Z</time>
      </trkpt>
      <trkpt lat="44.90571" lon="6.7077">
        <ele>2416.89</ele>
        <time>2017-04-15T08:51:25Z</time>
      </trkpt>
      <trkpt lat="44.90579" lon="6.7077">
        <ele>2418.33</ele>
        <time>2017-04-15T08:51:39Z</time>
      </trkpt>
      <trkpt lat="44.90588" lon="6.70771">
        <ele>2419.78</ele>
        <time>2017-04-15T08:51:56Z</time>
      </trkpt>
      <trkpt lat="44.90593" lon="6.70771">
        <ele>2421.22</ele>
        <time>2017-04-15T08:52:11Z</time>
      </trkpt>
      <trkpt lat="44.90594" lon="6.70771">
        <ele>2420.74</ele>
        <time>2017-04-15T08:52:24Z</time>
      </trkpt>
      <trkpt lat="44.90598" lon="6.70771">
        <ele>2420.74</ele>
        <time>2017-04-15T08:52:44Z</time>
      </trkpt>
      <trkpt lat="44.90596" lon="6.7077">
        <ele>2421.7</ele>
        <time>2017-04-15T08:53:01Z</time>
      </trkpt>
      <trkpt lat="44.90596" lon="6.70772">
        <ele>2421.22</ele>
        <time>2017-04-15T08:53:12Z</time>
      </trkpt>
      <trkpt lat="44.90597" lon="6.70773">
        <ele>2421.22</ele>
        <time>2017-04-15T08:53:29Z</time>
      </trkpt>
      <trkpt lat="44.90598" lon="6.7077">
        <ele>2421.7</ele>
        <time>2017-04-15T08:53:42Z</time>
      </trkpt>
      <trkpt lat="44.90598" lon="6.70771">
        <ele>2421.7</ele>
        <time>2017-04-15T08:53:57Z</time>
      </trkpt>
      <trkpt lat="44.90607" lon="6.70768">
        <ele>2423.14</ele>
        <time>2017-04-15T08:54:12Z</time>
      </trkpt>
      <trkpt lat="44.90612" lon="6.70766">
        <ele>2425.06</ele>
        <time>2017-04-15T08:54:27Z</time>
      </trkpt>
      <trkpt lat="44.90619" lon="6.70766">
        <ele>2426.5</ele>
        <time>2017-04-15T08:54:41Z</time>
      </trkpt>
      <trkpt lat="44.90628" lon="6.70768">
        <ele>2427.47</ele>
        <time>2017-04-15T08:54:56Z</time>
      </trkpt>
      <trkpt lat="44.90634" lon="6.70768">
        <ele>2428.43</ele>
        <time>2017-04-15T08:55:12Z</time>
      </trkpt>
      <trkpt lat="44.9064" lon="6.7077">
        <ele>2428.91</ele>
        <time>2017-04-15T08:55:28Z</time>
      </trkpt>
      <trkpt lat="44.90645" lon="6.70774">
        <ele>2429.39</ele>
        <time>2017-04-15T08:55:42Z</time>
      </trkpt>
      <trkpt lat="44.90652" lon="6.70778">
        <ele>2429.87</ele>
        <time>2017-04-15T08:55:55Z</time>
      </trkpt>
      <trkpt lat="44.90658" lon="6.70782">
        <ele>2431.31</ele>
        <time>2017-04-15T08:56:08Z</time>
      </trkpt>
      <trkpt lat="44.90663" lon="6.70787">
        <ele>2431.79</ele>
        <time>2017-04-15T08:56:20Z</time>
      </trkpt>
      <trkpt lat="44.9066" lon="6.70788">
        <ele>2431.79</ele>
        <time>2017-04-15T08:56:38Z</time>
      </trkpt>
      <trkpt lat="44.90667" lon="6.70787">
        <ele>2432.75</ele>
        <time>2017-04-15T08:56:56Z</time>
      </trkpt>
      <trkpt lat="44.90672" lon="6.70795">
        <ele>2433.23</ele>
        <time>2017-04-15T08:57:10Z</time>
      </trkpt>
      <trkpt lat="44.90678" lon="6.70804">
        <ele>2433.71</ele>
        <time>2017-04-15T08:57:24Z</time>
      </trkpt>
      <trkpt lat="44.90683" lon="6.70813">
        <ele>2435.16</ele>
        <time>2017-04-15T08:57:38Z</time>
      </trkpt>
      <trkpt lat="44.90688" lon="6.70818">
        <ele>2436.12</ele>
        <time>2017-04-15T08:57:53Z</time>
      </trkpt>
      <trkpt lat="44.90693" lon="6.70825">
        <ele>2437.08</ele>
        <time>2017-04-15T08:58:05Z</time>
      </trkpt>
      <trkpt lat="44.90694" lon="6.70829">
        <ele>2437.56</ele>
        <time>2017-04-15T08:58:17Z</time>
      </trkpt>
      <trkpt lat="44.90699" lon="6.70835">
        <ele>2438.52</ele>
        <time>2017-04-15T08:58:29Z</time>
      </trkpt>
      <trkpt lat="44.90704" lon="6.7084">
        <ele>2439.48</ele>
        <time>2017-04-15T08:58:45Z</time>
      </trkpt>
      <trkpt lat="44.9071" lon="6.70846">
        <ele>2439.48</ele>
        <time>2017-04-15T08:58:58Z</time>
      </trkpt>
      <trkpt lat="44.90707" lon="6.70842">
        <ele>2439.48</ele>
        <time>2017-04-15T08:59:11Z</time>
      </trkpt>
      <trkpt lat="44.90705" lon="6.70844">
        <ele>2439.48</ele>
        <time>2017-04-15T08:59:37Z</time>
      </trkpt>
      <trkpt lat="44.90707" lon="6.70842">
        <ele>2439</ele>
        <time>2017-04-15T09:00:09Z</time>
      </trkpt>
      <trkpt lat="44.90706" lon="6.70845">
        <ele>2439</ele>
        <time>2017-04-15T09:00:32Z</time>
      </trkpt>
      <trkpt lat="44.90707" lon="6.70845">
        <ele>2439.48</ele>
        <time>2017-04-15T09:01:01Z</time>
      </trkpt>
      <trkpt lat="44.90708" lon="6.70844">
        <ele>2439</ele>
        <time>2017-04-15T09:01:31Z</time>
      </trkpt>
      <trkpt lat="44.90708" lon="6.70843">
        <ele>2439</ele>
        <time>2017-04-15T09:02:01Z</time>
      </trkpt>
      <trkpt lat="44.90709" lon="6.70843">
        <ele>2439</ele>
        <time>2017-04-15T09:02:25Z</time>
      </trkpt>
      <trkpt lat="44.90715" lon="6.70847">
        <ele>2439.48</ele>
        <time>2017-04-15T09:02:37Z</time>
      </trkpt>
      <trkpt lat="44.90723" lon="6.70851">
        <ele>2439.96</ele>
        <time>2017-04-15T09:02:51Z</time>
      </trkpt>
      <trkpt lat="44.90725" lon="6.70851">
        <ele>2440.44</ele>
        <time>2017-04-15T09:02:55Z</time>
      </trkpt>
      <trkpt lat="44.90733" lon="6.70853">
        <ele>2441.89</ele>
        <time>2017-04-15T09:03:09Z</time>
      </trkpt>
      <trkpt lat="44.9074" lon="6.70851">
        <ele>2442.85</ele>
        <time>2017-04-15T09:03:25Z</time>
      </trkpt>
      <trkpt lat="44.90747" lon="6.70853">
        <ele>2443.33</ele>
        <time>2017-04-15T09:03:37Z</time>
      </trkpt>
      <trkpt lat="44.90753" lon="6.70856">
        <ele>2444.29</ele>
        <time>2017-04-15T09:03:51Z</time>
      </trkpt>
      <trkpt lat="44.9076" lon="6.7086">
        <ele>2444.77</ele>
        <time>2017-04-15T09:04:07Z</time>
      </trkpt>
      <trkpt lat="44.90768" lon="6.70869">
        <ele>2445.73</ele>
        <time>2017-04-15T09:04:26Z</time>
      </trkpt>
      <trkpt lat="44.90775" lon="6.70872">
        <ele>2446.21</ele>
        <time>2017-04-15T09:04:41Z</time>
      </trkpt>
      <trkpt lat="44.90782" lon="6.70875">
        <ele>2447.17</ele>
        <time>2017-04-15T09:04:54Z</time>
      </trkpt>
      <trkpt lat="44.90787" lon="6.70878">
        <ele>2447.65</ele>
        <time>2017-04-15T09:05:06Z</time>
      </trkpt>
      <trkpt lat="44.90795" lon="6.70881">
        <ele>2448.62</ele>
        <time>2017-04-15T09:05:22Z</time>
      </trkpt>
      <trkpt lat="44.90806" lon="6.70882">
        <ele>2448.62</ele>
        <time>2017-04-15T09:05:39Z</time>
      </trkpt>
      <trkpt lat="44.90811" lon="6.70885">
        <ele>2448.13</ele>
        <time>2017-04-15T09:05:47Z</time>
      </trkpt>
      <trkpt lat="44.90816" lon="6.70894">
        <ele>2448.13</ele>
        <time>2017-04-15T09:06:00Z</time>
      </trkpt>
      <trkpt lat="44.90817" lon="6.70896">
        <ele>2448.13</ele>
        <time>2017-04-15T09:06:02Z</time>
      </trkpt>
      <trkpt lat="44.90826" lon="6.70907">
        <ele>2448.62</ele>
        <time>2017-04-15T09:06:18Z</time>
      </trkpt>
      <trkpt lat="44.90833" lon="6.70915">
        <ele>2449.1</ele>
        <time>2017-04-15T09:06:35Z</time>
      </trkpt>
      <trkpt lat="44.90836" lon="6.70926">
        <ele>2449.58</ele>
        <time>2017-04-15T09:06:48Z</time>
      </trkpt>
      <trkpt lat="44.90836" lon="6.70932">
        <ele>2449.58</ele>
        <time>2017-04-15T09:06:58Z</time>
      </trkpt>
      <trkpt lat="44.90839" lon="6.70944">
        <ele>2450.54</ele>
        <time>2017-04-15T09:07:12Z</time>
      </trkpt>
      <trkpt lat="44.90841" lon="6.7095">
        <ele>2451.98</ele>
        <time>2017-04-15T09:07:28Z</time>
      </trkpt>
      <trkpt lat="44.90843" lon="6.70953">
        <ele>2452.46</ele>
        <time>2017-04-15T09:07:48Z</time>
      </trkpt>
      <trkpt lat="44.9085" lon="6.70959">
        <ele>2453.9</ele>
        <time>2017-04-15T09:08:04Z</time>
      </trkpt>
      <trkpt lat="44.90854" lon="6.70961">
        <ele>2454.38</ele>
        <time>2017-04-15T09:08:18Z</time>
      </trkpt>
      <trkpt lat="44.90862" lon="6.70969">
        <ele>2454.86</ele>
        <time>2017-04-15T09:08:32Z</time>
      </trkpt>
      <trkpt lat="44.90864" lon="6.70971">
        <ele>2454.86</ele>
        <time>2017-04-15T09:08:36Z</time>
      </trkpt>
      <trkpt lat="44.90869" lon="6.70975">
        <ele>2455.34</ele>
        <time>2017-04-15T09:08:49Z</time>
      </trkpt>
      <trkpt lat="44.90872" lon="6.70981">
        <ele>2455.82</ele>
        <time>2017-04-15T09:09:01Z</time>
      </trkpt>
      <trkpt lat="44.90879" lon="6.70988">
        <ele>2457.27</ele>
        <time>2017-04-15T09:09:17Z</time>
      </trkpt>
      <trkpt lat="44.90885" lon="6.70995">
        <ele>2457.75</ele>
        <time>2017-04-15T09:09:32Z</time>
      </trkpt>
      <trkpt lat="44.90889" lon="6.71001">
        <ele>2458.71</ele>
        <time>2017-04-15T09:09:44Z</time>
      </trkpt>
      <trkpt lat="44.90891" lon="6.71005">
        <ele>2459.67</ele>
        <time>2017-04-15T09:09:58Z</time>
      </trkpt>
      <trkpt lat="44.90897" lon="6.71009">
        <ele>2460.63</ele>
        <time>2017-04-15T09:10:14Z</time>
      </trkpt>
      <trkpt lat="44.90904" lon="6.71009">
        <ele>2462.07</ele>
        <time>2017-04-15T09:10:26Z</time>
      </trkpt>
      <trkpt lat="44.90909" lon="6.71016">
        <ele>2462.55</ele>
        <time>2017-04-15T09:10:41Z</time>
      </trkpt>
      <trkpt lat="44.90914" lon="6.71022">
        <ele>2463.52</ele>
        <time>2017-04-15T09:10:56Z</time>
      </trkpt>
      <trkpt lat="44.90917" lon="6.71028">
        <ele>2464</ele>
        <time>2017-04-15T09:11:07Z</time>
      </trkpt>
      <trkpt lat="44.90923" lon="6.71034">
        <ele>2465.44</ele>
        <time>2017-04-15T09:11:20Z</time>
      </trkpt>
      <trkpt lat="44.90928" lon="6.7104">
        <ele>2466.88</ele>
        <time>2017-04-15T09:11:37Z</time>
      </trkpt>
      <trkpt lat="44.90934" lon="6.71048">
        <ele>2468.32</ele>
        <time>2017-04-15T09:11:54Z</time>
      </trkpt>
      <trkpt lat="44.90941" lon="6.71049">
        <ele>2469.76</ele>
        <time>2017-04-15T09:12:08Z</time>
      </trkpt>
      <trkpt lat="44.90946" lon="6.71052">
        <ele>2470.73</ele>
        <time>2017-04-15T09:12:20Z</time>
      </trkpt>
      <trkpt lat="44.90952" lon="6.71056">
        <ele>2471.69</ele>
        <time>2017-04-15T09:12:35Z</time>
      </trkpt>
      <trkpt lat="44.90958" lon="6.71059">
        <ele>2473.13</ele>
        <time>2017-04-15T09:12:52Z</time>
      </trkpt>
      <trkpt lat="44.90965" lon="6.71062">
        <ele>2475.05</ele>
        <time>2017-04-15T09:13:06Z</time>
      </trkpt>
      <trkpt lat="44.90971" lon="6.71073">
        <ele>2475.53</ele>
        <time>2017-04-15T09:13:19Z</time>
      </trkpt>
      <trkpt lat="44.90971" lon="6.71075">
        <ele>2475.53</ele>
        <time>2017-04-15T09:13:31Z</time>
      </trkpt>
      <trkpt lat="44.90973" lon="6.71079">
        <ele>2476.01</ele>
        <time>2017-04-15T09:13:54Z</time>
      </trkpt>
      <trkpt lat="44.90981" lon="6.7109">
        <ele>2477.45</ele>
        <time>2017-04-15T09:14:12Z</time>
      </trkpt>
      <trkpt lat="44.90984" lon="6.711">
        <ele>2477.45</ele>
        <time>2017-04-15T09:14:26Z</time>
      </trkpt>
      <trkpt lat="44.90989" lon="6.71109">
        <ele>2478.42</ele>
        <time>2017-04-15T09:14:41Z</time>
      </trkpt>
      <trkpt lat="44.90991" lon="6.71115">
        <ele>2479.38</ele>
        <time>2017-04-15T09:14:56Z</time>
      </trkpt>
      <trkpt lat="44.90994" lon="6.71122">
        <ele>2481.3</ele>
        <time>2017-04-15T09:15:08Z</time>
      </trkpt>
      <trkpt lat="44.90997" lon="6.71129">
        <ele>2481.78</ele>
        <time>2017-04-15T09:15:20Z</time>
      </trkpt>
      <trkpt lat="44.91001" lon="6.71137">
        <ele>2481.78</ele>
        <time>2017-04-15T09:15:35Z</time>
      </trkpt>
      <trkpt lat="44.91004" lon="6.71141">
        <ele>2482.26</ele>
        <time>2017-04-15T09:15:45Z</time>
      </trkpt>
      <trkpt lat="44.91011" lon="6.71148">
        <ele>2483.7</ele>
        <time>2017-04-15T09:16:03Z</time>
      </trkpt>
      <trkpt lat="44.91013" lon="6.7115">
        <ele>2485.63</ele>
        <time>2017-04-15T09:16:09Z</time>
      </trkpt>
      <trkpt lat="44.91018" lon="6.71154">
        <ele>2485.63</ele>
        <time>2017-04-15T09:16:23Z</time>
      </trkpt>
      <trkpt lat="44.91024" lon="6.71161">
        <ele>2486.11</ele>
        <time>2017-04-15T09:16:42Z</time>
      </trkpt>
      <trkpt lat="44.91031" lon="6.71168">
        <ele>2486.59</ele>
        <time>2017-04-15T09:17:00Z</time>
      </trkpt>
      <trkpt lat="44.91038" lon="6.71173">
        <ele>2488.03</ele>
        <time>2017-04-15T09:17:16Z</time>
      </trkpt>
      <trkpt lat="44.91044" lon="6.71178">
        <ele>2488.99</ele>
        <time>2017-04-15T09:17:30Z</time>
      </trkpt>
      <trkpt lat="44.91049" lon="6.71184">
        <ele>2489.95</ele>
        <time>2017-04-15T09:17:45Z</time>
      </trkpt>
      <trkpt lat="44.91055" lon="6.71187">
        <ele>2490.91</ele>
        <time>2017-04-15T09:18:00Z</time>
      </trkpt>
      <trkpt lat="44.9106" lon="6.7119">
        <ele>2492.84</ele>
        <time>2017-04-15T09:18:14Z</time>
      </trkpt>
      <trkpt lat="44.91065" lon="6.71193">
        <ele>2494.28</ele>
        <time>2017-04-15T09:18:30Z</time>
      </trkpt>
      <trkpt lat="44.91073" lon="6.71196">
        <ele>2495.72</ele>
        <time>2017-04-15T09:18:44Z</time>
      </trkpt>
      <trkpt lat="44.9108" lon="6.71198">
        <ele>2497.16</ele>
        <time>2017-04-15T09:19:01Z</time>
      </trkpt>
      <trkpt lat="44.91087" lon="6.71198">
        <ele>2497.64</ele>
        <time>2017-04-15T09:19:15Z</time>
      </trkpt>
      <trkpt lat="44.91089" lon="6.71194">
        <ele>2499.08</ele>
        <time>2017-04-15T09:19:29Z</time>
      </trkpt>
      <trkpt lat="44.91084" lon="6.71191">
        <ele>2500.05</ele>
        <time>2017-04-15T09:19:45Z</time>
      </trkpt>
      <trkpt lat="44.91079" lon="6.71184">
        <ele>2501.01</ele>
        <time>2017-04-15T09:20:00Z</time>
      </trkpt>
      <trkpt lat="44.91077" lon="6.71177">
        <ele>2502.45</ele>
        <time>2017-04-15T09:20:12Z</time>
      </trkpt>
      <trkpt lat="44.91072" lon="6.71172">
        <ele>2503.41</ele>
        <time>2017-04-15T09:20:27Z</time>
      </trkpt>
      <trkpt lat="44.91069" lon="6.71165">
        <ele>2505.81</ele>
        <time>2017-04-15T09:20:43Z</time>
      </trkpt>
      <trkpt lat="44.91063" lon="6.71158">
        <ele>2505.33</ele>
        <time>2017-04-15T09:20:59Z</time>
      </trkpt>
      <trkpt lat="44.91057" lon="6.71148">
        <ele>2506.77</ele>
        <time>2017-04-15T09:21:17Z</time>
      </trkpt>
      <trkpt lat="44.91053" lon="6.71141">
        <ele>2507.74</ele>
        <time>2017-04-15T09:21:34Z</time>
      </trkpt>
      <trkpt lat="44.91051" lon="6.71131">
        <ele>2508.7</ele>
        <time>2017-04-15T09:21:49Z</time>
      </trkpt>
      <trkpt lat="44.9105" lon="6.71125">
        <ele>2510.14</ele>
        <time>2017-04-15T09:22:03Z</time>
      </trkpt>
      <trkpt lat="44.91047" lon="6.71115">
        <ele>2511.1</ele>
        <time>2017-04-15T09:22:18Z</time>
      </trkpt>
      <trkpt lat="44.91045" lon="6.7111">
        <ele>2512.06</ele>
        <time>2017-04-15T09:22:37Z</time>
      </trkpt>
      <trkpt lat="44.91043" lon="6.711">
        <ele>2513.02</ele>
        <time>2017-04-15T09:22:53Z</time>
      </trkpt>
      <trkpt lat="44.91039" lon="6.71087">
        <ele>2513.98</ele>
        <time>2017-04-15T09:23:11Z</time>
      </trkpt>
      <trkpt lat="44.91035" lon="6.71078">
        <ele>2515.43</ele>
        <time>2017-04-15T09:23:29Z</time>
      </trkpt>
      <trkpt lat="44.91031" lon="6.71066">
        <ele>2516.39</ele>
        <time>2017-04-15T09:23:46Z</time>
      </trkpt>
      <trkpt lat="44.91027" lon="6.71056">
        <ele>2517.35</ele>
        <time>2017-04-15T09:24:07Z</time>
      </trkpt>
      <trkpt lat="44.91023" lon="6.71045">
        <ele>2518.31</ele>
        <time>2017-04-15T09:24:21Z</time>
      </trkpt>
      <trkpt lat="44.91018" lon="6.71034">
        <ele>2518.31</ele>
        <time>2017-04-15T09:24:37Z</time>
      </trkpt>
      <trkpt lat="44.91013" lon="6.7103">
        <ele>2519.27</ele>
        <time>2017-04-15T09:24:50Z</time>
      </trkpt>
      <trkpt lat="44.91011" lon="6.71021">
        <ele>2519.27</ele>
        <time>2017-04-15T09:25:03Z</time>
      </trkpt>
      <trkpt lat="44.91014" lon="6.71014">
        <ele>2520.71</ele>
        <time>2017-04-15T09:25:18Z</time>
      </trkpt>
      <trkpt lat="44.91018" lon="6.71017">
        <ele>2522.16</ele>
        <time>2017-04-15T09:25:30Z</time>
      </trkpt>
      <trkpt lat="44.91023" lon="6.71021">
        <ele>2523.6</ele>
        <time>2017-04-15T09:25:45Z</time>
      </trkpt>
      <trkpt lat="44.91022" lon="6.71025">
        <ele>2524.08</ele>
        <time>2017-04-15T09:26:07Z</time>
      </trkpt>
      <trkpt lat="44.91028" lon="6.71025">
        <ele>2525.04</ele>
        <time>2017-04-15T09:26:25Z</time>
      </trkpt>
      <trkpt lat="44.91033" lon="6.71023">
        <ele>2526.96</ele>
        <time>2017-04-15T09:26:38Z</time>
      </trkpt>
      <trkpt lat="44.91035" lon="6.71016">
        <ele>2528.89</ele>
        <time>2017-04-15T09:26:57Z</time>
      </trkpt>
      <trkpt lat="44.91033" lon="6.71007">
        <ele>2530.33</ele>
        <time>2017-04-15T09:27:13Z</time>
      </trkpt>
      <trkpt lat="44.91031" lon="6.71002">
        <ele>2531.77</ele>
        <time>2017-04-15T09:27:28Z</time>
      </trkpt>
      <trkpt lat="44.91029" lon="6.70996">
        <ele>2533.21</ele>
        <time>2017-04-15T09:27:41Z</time>
      </trkpt>
      <trkpt lat="44.91031" lon="6.70992">
        <ele>2534.65</ele>
        <time>2017-04-15T09:27:55Z</time>
      </trkpt>
      <trkpt lat="44.9103" lon="6.70993">
        <ele>2534.17</ele>
        <time>2017-04-15T09:28:17Z</time>
      </trkpt>
      <trkpt lat="44.91028" lon="6.70995">
        <ele>2534.65</ele>
        <time>2017-04-15T09:28:34Z</time>
      </trkpt>
      <trkpt lat="44.9103" lon="6.70994">
        <ele>2533.69</ele>
        <time>2017-04-15T09:28:54Z</time>
      </trkpt>
      <trkpt lat="44.91031" lon="6.70993">
        <ele>2534.65</ele>
        <time>2017-04-15T09:29:07Z</time>
      </trkpt>
      <trkpt lat="44.9103" lon="6.70995">
        <ele>2535.13</ele>
        <time>2017-04-15T09:29:25Z</time>
      </trkpt>
      <trkpt lat="44.91028" lon="6.70994">
        <ele>2534.17</ele>
        <time>2017-04-15T09:29:41Z</time>
      </trkpt>
      <trkpt lat="44.91029" lon="6.70992">
        <ele>2533.69</ele>
        <time>2017-04-15T09:30:01Z</time>
      </trkpt>
      <trkpt lat="44.91029" lon="6.70992">
        <ele>2534.17</ele>
        <time>2017-04-15T09:30:25Z</time>
      </trkpt>
      <trkpt lat="44.91029" lon="6.70991">
        <ele>2534.17</ele>
        <time>2017-04-15T09:31:00Z</time>
      </trkpt>
      <trkpt lat="44.9103" lon="6.70991">
        <ele>2533.69</ele>
        <time>2017-04-15T09:31:31Z</time>
      </trkpt>
      <trkpt lat="44.91029" lon="6.70991">
        <ele>2534.17</ele>
        <time>2017-04-15T09:31:57Z</time>
      </trkpt>
      <trkpt lat="44.91028" lon="6.70991">
        <ele>2534.17</ele>
        <time>2017-04-15T09:32:32Z</time>
      </trkpt>
      <trkpt lat="44.91028" lon="6.70994">
        <ele>2535.13</ele>
        <time>2017-04-15T09:33:04Z</time>
      </trkpt>
      <trkpt lat="44.91028" lon="6.70991">
        <ele>2535.13</ele>
        <time>2017-04-15T09:33:19Z</time>
      </trkpt>
      <trkpt lat="44.91027" lon="6.70987">
        <ele>2534.65</ele>
        <time>2017-04-15T09:33:35Z</time>
      </trkpt>
      <trkpt lat="44.91029" lon="6.7099">
        <ele>2535.61</ele>
        <time>2017-04-15T09:33:47Z</time>
      </trkpt>
      <trkpt lat="44.91029" lon="6.70992">
        <ele>2535.61</ele>
        <time>2017-04-15T09:34:01Z</time>
      </trkpt>
      <trkpt lat="44.9103" lon="6.70992">
        <ele>2535.61</ele>
        <time>2017-04-15T09:34:28Z</time>
      </trkpt>
      <trkpt lat="44.91027" lon="6.70991">
        <ele>2535.13</ele>
        <time>2017-04-15T09:34:45Z</time>
      </trkpt>
      <trkpt lat="44.91019" lon="6.70986">
        <ele>2533.69</ele>
        <time>2017-04-15T09:34:58Z</time>
      </trkpt>
      <trkpt lat="44.91019" lon="6.70984">
        <ele>2533.69</ele>
        <time>2017-04-15T09:35:06Z</time>
      </trkpt>
      <trkpt lat="44.91018" lon="6.70977">
        <ele>2533.69</ele>
        <time>2017-04-15T09:35:20Z</time>
      </trkpt>
      <trkpt lat="44.91015" lon="6.70975">
        <ele>2535.61</ele>
        <time>2017-04-15T09:35:33Z</time>
      </trkpt>
      <trkpt lat="44.91006" lon="6.70975">
        <ele>2535.61</ele>
        <time>2017-04-15T09:35:46Z</time>
      </trkpt>
      <trkpt lat="44.91007" lon="6.70972">
        <ele>2536.58</ele>
        <time>2017-04-15T09:36:00Z</time>
      </trkpt>
      <trkpt lat="44.91007" lon="6.70973">
        <ele>2536.58</ele>
        <time>2017-04-15T09:36:10Z</time>
      </trkpt>
      <trkpt lat="44.91007" lon="6.7097">
        <ele>2536.1</ele>
        <time>2017-04-15T09:36:26Z</time>
      </trkpt>
      <trkpt lat="44.91007" lon="6.70971">
        <ele>2536.58</ele>
        <time>2017-04-15T09:36:40Z</time>
      </trkpt>
      <trkpt lat="44.91007" lon="6.70972">
        <ele>2536.58</ele>
        <time>2017-04-15T09:36:58Z</time>
      </trkpt>
      <trkpt lat="44.91009" lon="6.70969">
        <ele>2536.58</ele>
        <time>2017-04-15T09:37:16Z</time>
      </trkpt>
      <trkpt lat="44.91005" lon="6.7097">
        <ele>2537.06</ele>
        <time>2017-04-15T09:37:35Z</time>
      </trkpt>
      <trkpt lat="44.91003" lon="6.70968">
        <ele>2538.5</ele>
        <time>2017-04-15T09:37:49Z</time>
      </trkpt>
      <trkpt lat="44.91002" lon="6.70964">
        <ele>2540.42</ele>
        <time>2017-04-15T09:38:07Z</time>
      </trkpt>
      <trkpt lat="44.91001" lon="6.70963">
        <ele>2540.42</ele>
        <time>2017-04-15T09:38:30Z</time>
      </trkpt>
      <trkpt lat="44.91002" lon="6.70965">
        <ele>2540.9</ele>
        <time>2017-04-15T09:38:52Z</time>
      </trkpt>
      <trkpt lat="44.91001" lon="6.70965">
        <ele>2540.9</ele>
        <time>2017-04-15T09:39:17Z</time>
      </trkpt>
      <trkpt lat="44.90997" lon="6.70965">
        <ele>2541.38</ele>
        <time>2017-04-15T09:39:35Z</time>
      </trkpt>
      <trkpt lat="44.90995" lon="6.70965">
        <ele>2541.86</ele>
        <time>2017-04-15T09:40:05Z</time>
      </trkpt>
      <trkpt lat="44.90993" lon="6.70965">
        <ele>2542.82</ele>
        <time>2017-04-15T09:40:19Z</time>
      </trkpt>
      <trkpt lat="44.90991" lon="6.70965">
        <ele>2544.75</ele>
        <time>2017-04-15T09:40:35Z</time>
      </trkpt>
      <trkpt lat="44.90991" lon="6.70964">
        <ele>2545.23</ele>
        <time>2017-04-15T09:40:53Z</time>
      </trkpt>
      <trkpt lat="44.9099" lon="6.70964">
        <ele>2545.23</ele>
        <time>2017-04-15T09:41:15Z</time>
      </trkpt>
      <trkpt lat="44.9099" lon="6.70963">
        <ele>2545.71</ele>
        <time>2017-04-15T09:41:35Z</time>
      </trkpt>
      <trkpt lat="44.90988" lon="6.70966">
        <ele>2546.19</ele>
        <time>2017-04-15T09:42:08Z</time>
      </trkpt>
      <trkpt lat="44.90986" lon="6.70967">
        <ele>2546.19</ele>
        <time>2017-04-15T09:42:44Z</time>
      </trkpt>
      <trkpt lat="44.9099" lon="6.70964">
        <ele>2546.19</ele>
        <time>2017-04-15T09:43:23Z</time>
      </trkpt>
      <trkpt lat="44.90991" lon="6.70963">
        <ele>2545.71</ele>
        <time>2017-04-15T09:43:56Z</time>
      </trkpt>
      <trkpt lat="44.9099" lon="6.70962">
        <ele>2546.19</ele>
        <time>2017-04-15T09:44:37Z</time>
      </trkpt>
      <trkpt lat="44.90992" lon="6.70964">
        <ele>2546.19</ele>
        <time>2017-04-15T09:45:11Z</time>
      </trkpt>
      <trkpt lat="44.90991" lon="6.70961">
        <ele>2546.19</ele>
        <time>2017-04-15T09:45:40Z</time>
      </trkpt>
      <trkpt lat="44.90988" lon="6.70961">
        <ele>2547.15</ele>
        <time>2017-04-15T09:45:59Z</time>
      </trkpt>
      <trkpt lat="44.90984" lon="6.70964">
        <ele>2548.11</ele>
        <time>2017-04-15T09:46:13Z</time>
      </trkpt>
      <trkpt lat="44.90987" lon="6.70958">
        <ele>2550.03</ele>
        <time>2017-04-15T09:46:29Z</time>
      </trkpt>
      <trkpt lat="44.90987" lon="6.70957">
        <ele>2550.03</ele>
        <time>2017-04-15T09:46:52Z</time>
      </trkpt>
      <trkpt lat="44.90985" lon="6.70954">
        <ele>2550.51</ele>
        <time>2017-04-15T09:47:16Z</time>
      </trkpt>
      <trkpt lat="44.90989" lon="6.70953">
        <ele>2552.44</ele>
        <time>2017-04-15T09:47:30Z</time>
      </trkpt>
      <trkpt lat="44.90988" lon="6.70954">
        <ele>2551.96</ele>
        <time>2017-04-15T09:47:57Z</time>
      </trkpt>
      <trkpt lat="44.9099" lon="6.7095">
        <ele>2553.4</ele>
        <time>2017-04-15T09:48:12Z</time>
      </trkpt>
      <trkpt lat="44.90992" lon="6.70946">
        <ele>2555.8</ele>
        <time>2017-04-15T09:48:25Z</time>
      </trkpt>
      <trkpt lat="44.90993" lon="6.70943">
        <ele>2557.73</ele>
        <time>2017-04-15T09:48:40Z</time>
      </trkpt>
      <trkpt lat="44.90993" lon="6.70944">
        <ele>2557.73</ele>
        <time>2017-04-15T09:49:00Z</time>
      </trkpt>
      <trkpt lat="44.90994" lon="6.70943">
        <ele>2558.21</ele>
        <time>2017-04-15T09:49:19Z</time>
      </trkpt>
      <trkpt lat="44.90993" lon="6.70943">
        <ele>2558.69</ele>
        <time>2017-04-15T09:49:48Z</time>
      </trkpt>
      <trkpt lat="44.90991" lon="6.7094">
        <ele>2558.21</ele>
        <time>2017-04-15T09:50:15Z</time>
      </trkpt>
      <trkpt lat="44.90991" lon="6.70936">
        <ele>2559.17</ele>
        <time>2017-04-15T09:50:27Z</time>
      </trkpt>
      <trkpt lat="44.90987" lon="6.7093">
        <ele>2560.13</ele>
        <time>2017-04-15T09:50:42Z</time>
      </trkpt>
      <trkpt lat="44.90987" lon="6.70927">
        <ele>2559.65</ele>
        <time>2017-04-15T09:50:58Z</time>
      </trkpt>
      <trkpt lat="44.90986" lon="6.70929">
        <ele>2559.65</ele>
        <time>2017-04-15T09:51:19Z</time>
      </trkpt>
      <trkpt lat="44.90986" lon="6.70926">
        <ele>2560.13</ele>
        <time>2017-04-15T09:51:38Z</time>
      </trkpt>
      <trkpt lat="44.90986" lon="6.70918">
        <ele>2559.65</ele>
        <time>2017-04-15T09:51:57Z</time>
      </trkpt>
      <trkpt lat="44.90985" lon="6.70915">
        <ele>2559.65</ele>
        <time>2017-04-15T09:52:11Z</time>
      </trkpt>
      <trkpt lat="44.90983" lon="6.70911">
        <ele>2559.65</ele>
        <time>2017-04-15T09:52:28Z</time>
      </trkpt>
      <trkpt lat="44.90982" lon="6.70908">
        <ele>2560.13</ele>
        <time>2017-04-15T09:52:46Z</time>
      </trkpt>
      <trkpt lat="44.90982" lon="6.70905">
        <ele>2561.57</ele>
        <time>2017-04-15T09:52:59Z</time>
      </trkpt>
      <trkpt lat="44.90981" lon="6.70904">
        <ele>2562.53</ele>
        <time>2017-04-15T09:53:13Z</time>
      </trkpt>
      <trkpt lat="44.90981" lon="6.70904">
        <ele>2563.01</ele>
        <time>2017-04-15T09:53:24Z</time>
      </trkpt>
      <trkpt lat="44.9098" lon="6.70902">
        <ele>2563.01</ele>
        <time>2017-04-15T09:53:44Z</time>
      </trkpt>
      <trkpt lat="44.9098" lon="6.70904">
        <ele>2563.01</ele>
        <time>2017-04-15T09:54:13Z</time>
      </trkpt>
      <trkpt lat="44.90981" lon="6.70905">
        <ele>2563.01</ele>
        <time>2017-04-15T09:54:50Z</time>
      </trkpt>
      <trkpt lat="44.9098" lon="6.70904">
        <ele>2562.53</ele>
        <time>2017-04-15T09:55:12Z</time>
      </trkpt>
      <trkpt lat="44.90979" lon="6.70902">
        <ele>2562.53</ele>
        <time>2017-04-15T09:55:34Z</time>
      </trkpt>
      <trkpt lat="44.90979" lon="6.70903">
        <ele>2563.01</ele>
        <time>2017-04-15T09:55:56Z</time>
      </trkpt>
      <trkpt lat="44.90978" lon="6.70901">
        <ele>2563.49</ele>
        <time>2017-04-15T09:56:10Z</time>
      </trkpt>
      <trkpt lat="44.90978" lon="6.70899">
        <ele>2565.42</ele>
        <time>2017-04-15T09:56:22Z</time>
      </trkpt>
      <trkpt lat="44.90978" lon="6.70898">
        <ele>2565.42</ele>
        <time>2017-04-15T09:56:52Z</time>
      </trkpt>
      <trkpt lat="44.9098" lon="6.70898">
        <ele>2565.42</ele>
        <time>2017-04-15T09:57:24Z</time>
      </trkpt>
      <trkpt lat="44.90978" lon="6.70895">
        <ele>2565.9</ele>
        <time>2017-04-15T09:57:42Z</time>
      </trkpt>
      <trkpt lat="44.90975" lon="6.70895">
        <ele>2567.34</ele>
        <time>2017-04-15T09:57:56Z</time>
      </trkpt>
      <trkpt lat="44.90973" lon="6.70891">
        <ele>2568.3</ele>
        <time>2017-04-15T09:58:08Z</time>
      </trkpt>
      <trkpt lat="44.90972" lon="6.70888">
        <ele>2568.78</ele>
        <time>2017-04-15T09:58:26Z</time>
      </trkpt>
      <trkpt lat="44.90972" lon="6.70882">
        <ele>2568.78</ele>
        <time>2017-04-15T09:58:42Z</time>
      </trkpt>
      <trkpt lat="44.90972" lon="6.70881">
        <ele>2569.26</ele>
        <time>2017-04-15T09:58:56Z</time>
      </trkpt>
      <trkpt lat="44.90972" lon="6.70876">
        <ele>2569.26</ele>
        <time>2017-04-15T09:59:11Z</time>
      </trkpt>
      <trkpt lat="44.90973" lon="6.70873">
        <ele>2570.22</ele>
        <time>2017-04-15T09:59:22Z</time>
      </trkpt>
      <trkpt lat="44.90969" lon="6.70871">
        <ele>2571.18</ele>
        <time>2017-04-15T09:59:41Z</time>
      </trkpt>
      <trkpt lat="44.90972" lon="6.70874">
        <ele>2570.7</ele>
        <time>2017-04-15T09:59:58Z</time>
      </trkpt>
      <trkpt lat="44.90972" lon="6.70876">
        <ele>2570.7</ele>
        <time>2017-04-15T10:00:21Z</time>
      </trkpt>
      <trkpt lat="44.90968" lon="6.70872">
        <ele>2570.7</ele>
        <time>2017-04-15T10:00:40Z</time>
      </trkpt>
      <trkpt lat="44.90967" lon="6.70868">
        <ele>2571.18</ele>
        <time>2017-04-15T10:00:53Z</time>
      </trkpt>
      <trkpt lat="44.9097" lon="6.70871">
        <ele>2571.18</ele>
        <time>2017-04-15T10:01:13Z</time>
      </trkpt>
      <trkpt lat="44.90971" lon="6.70876">
        <ele>2570.22</ele>
        <time>2017-04-15T10:01:32Z</time>
      </trkpt>
      <trkpt lat="44.9097" lon="6.70879">
        <ele>2569.74</ele>
        <time>2017-04-15T10:01:50Z</time>
      </trkpt>
      <trkpt lat="44.90973" lon="6.70883">
        <ele>2569.26</ele>
        <time>2017-04-15T10:02:03Z</time>
      </trkpt>
      <trkpt lat="44.90974" lon="6.70888">
        <ele>2569.26</ele>
        <time>2017-04-15T10:02:21Z</time>
      </trkpt>
      <trkpt lat="44.90973" lon="6.70891">
        <ele>2568.3</ele>
        <time>2017-04-15T10:02:39Z</time>
      </trkpt>
      <trkpt lat="44.90975" lon="6.70892">
        <ele>2568.78</ele>
        <time>2017-04-15T10:03:05Z</time>
      </trkpt>
      <trkpt lat="44.90976" lon="6.70892">
        <ele>2568.78</ele>
        <time>2017-04-15T10:03:33Z</time>
      </trkpt>
      <trkpt lat="44.90976" lon="6.70892">
        <ele>2568.78</ele>
        <time>2017-04-15T10:03:57Z</time>
      </trkpt>
      <trkpt lat="44.90972" lon="6.70887">
        <ele>2568.78</ele>
        <time>2017-04-15T10:04:24Z</time>
      </trkpt>
      <trkpt lat="44.90971" lon="6.70886">
        <ele>2569.26</ele>
        <time>2017-04-15T10:04:45Z</time>
      </trkpt>
      <trkpt lat="44.90971" lon="6.70881">
        <ele>2569.74</ele>
        <time>2017-04-15T10:05:01Z</time>
      </trkpt>
      <trkpt lat="44.90971" lon="6.70873">
        <ele>2570.7</ele>
        <time>2017-04-15T10:05:15Z</time>
      </trkpt>
      <trkpt lat="44.90971" lon="6.70872">
        <ele>2570.7</ele>
        <time>2017-04-15T10:05:32Z</time>
      </trkpt>
      <trkpt lat="44.90968" lon="6.70867">
        <ele>2571.18</ele>
        <time>2017-04-15T10:05:51Z</time>
      </trkpt>
      <trkpt lat="44.90962" lon="6.70866">
        <ele>2571.18</ele>
        <time>2017-04-15T10:06:07Z</time>
      </trkpt>
      <trkpt lat="44.90961" lon="6.70866">
        <ele>2571.18</ele>
        <time>2017-04-15T10:06:27Z</time>
      </trkpt>
      <trkpt lat="44.9096" lon="6.70864">
        <ele>2571.18</ele>
        <time>2017-04-15T10:06:42Z</time>
      </trkpt>
      <trkpt lat="44.9096" lon="6.70864">
        <ele>2571.18</ele>
        <time>2017-04-15T10:07:09Z</time>
      </trkpt>
      <trkpt lat="44.90962" lon="6.70864">
        <ele>2571.18</ele>
        <time>2017-04-15T10:07:37Z</time>
      </trkpt>
      <trkpt lat="44.90967" lon="6.70867">
        <ele>2571.18</ele>
        <time>2017-04-15T10:07:53Z</time>
      </trkpt>
      <trkpt lat="44.90967" lon="6.7087">
        <ele>2571.18</ele>
        <time>2017-04-15T10:08:19Z</time>
      </trkpt>
      <trkpt lat="44.90966" lon="6.70868">
        <ele>2571.66</ele>
        <time>2017-04-15T10:08:39Z</time>
      </trkpt>
      <trkpt lat="44.90968" lon="6.70869">
        <ele>2571.18</ele>
        <time>2017-04-15T10:08:55Z</time>
      </trkpt>
      <trkpt lat="44.90969" lon="6.70868">
        <ele>2571.18</ele>
        <time>2017-04-15T10:09:22Z</time>
      </trkpt>
      <trkpt lat="44.90967" lon="6.70866">
        <ele>2571.18</ele>
        <time>2017-04-15T10:09:45Z</time>
      </trkpt>
      <trkpt lat="44.90968" lon="6.70866">
        <ele>2571.66</ele>
        <time>2017-04-15T10:10:08Z</time>
      </trkpt>
      <trkpt lat="44.9097" lon="6.70864">
        <ele>2571.18</ele>
        <time>2017-04-15T10:10:24Z</time>
      </trkpt>
      <trkpt lat="44.90969" lon="6.70864">
        <ele>2571.66</ele>
        <time>2017-04-15T10:10:40Z</time>
      </trkpt>
      <trkpt lat="44.90969" lon="6.70866">
        <ele>2571.18</ele>
        <time>2017-04-15T10:10:58Z</time>
      </trkpt>
      <trkpt lat="44.90968" lon="6.70866">
        <ele>2571.18</ele>
        <time>2017-04-15T10:11:24Z</time>
      </trkpt>
      <trkpt lat="44.90968" lon="6.70868">
        <ele>2570.7</ele>
        <time>2017-04-15T10:11:36Z</time>
      </trkpt>
      <trkpt lat="44.90967" lon="6.70868">
        <ele>2571.18</ele>
        <time>2017-04-15T10:11:54Z</time>
      </trkpt>
      <trkpt lat="44.90967" lon="6.70868">
        <ele>2571.18</ele>
        <time>2017-04-15T10:12:18Z</time>
      </trkpt>
      <trkpt lat="44.90967" lon="6.70867">
        <ele>2571.18</ele>
        <time>2017-04-15T10:12:37Z</time>
      </trkpt>
      <trkpt lat="44.90968" lon="6.70867">
        <ele>2571.18</ele>
        <time>2017-04-15T10:12:58Z</time>
      </trkpt>
      <trkpt lat="44.90969" lon="6.70869">
        <ele>2571.18</ele>
        <time>2017-04-15T10:13:17Z</time>
      </trkpt>
      <trkpt lat="44.9097" lon="6.70869">
        <ele>2571.18</ele>
        <time>2017-04-15T10:13:43Z</time>
      </trkpt>
      <trkpt lat="44.90971" lon="6.70874">
        <ele>2570.7</ele>
        <time>2017-04-15T10:13:58Z</time>
      </trkpt>
      <trkpt lat="44.90971" lon="6.70879">
        <ele>2570.22</ele>
        <time>2017-04-15T10:14:12Z</time>
      </trkpt>
      <trkpt lat="44.90973" lon="6.70883">
        <ele>2571.18</ele>
        <time>2017-04-15T10:14:29Z</time>
      </trkpt>
      <trkpt lat="44.90973" lon="6.70888">
        <ele>2569.74</ele>
        <time>2017-04-15T10:14:43Z</time>
      </trkpt>
      <trkpt lat="44.90975" lon="6.70893">
        <ele>2568.3</ele>
        <time>2017-04-15T10:14:58Z</time>
      </trkpt>
      <trkpt lat="44.90977" lon="6.70895">
        <ele>2566.86</ele>
        <time>2017-04-15T10:15:12Z</time>
      </trkpt>
      <trkpt lat="44.90976" lon="6.70893">
        <ele>2566.38</ele>
        <time>2017-04-15T10:15:39Z</time>
      </trkpt>
      <trkpt lat="44.90979" lon="6.709">
        <ele>2565.42</ele>
        <time>2017-04-15T10:15:52Z</time>
      </trkpt>
      <trkpt lat="44.90979" lon="6.70904">
        <ele>2563.97</ele>
        <time>2017-04-15T10:16:07Z</time>
      </trkpt>
      <trkpt lat="44.9098" lon="6.70905">
        <ele>2563.97</ele>
        <time>2017-04-15T10:16:20Z</time>
      </trkpt>
      <trkpt lat="44.90981" lon="6.70906">
        <ele>2563.01</ele>
        <time>2017-04-15T10:16:34Z</time>
      </trkpt>
      <trkpt lat="44.9098" lon="6.70906">
        <ele>2563.01</ele>
        <time>2017-04-15T10:16:47Z</time>
      </trkpt>
      <trkpt lat="44.90981" lon="6.70908">
        <ele>2562.53</ele>
        <time>2017-04-15T10:17:06Z</time>
      </trkpt>
      <trkpt lat="44.90982" lon="6.70906">
        <ele>2562.05</ele>
        <time>2017-04-15T10:17:23Z</time>
      </trkpt>
      <trkpt lat="44.9098" lon="6.70904">
        <ele>2562.05</ele>
        <time>2017-04-15T10:17:58Z</time>
      </trkpt>
      <trkpt lat="44.9098" lon="6.70902">
        <ele>2562.05</ele>
        <time>2017-04-15T10:18:23Z</time>
      </trkpt>
      <trkpt lat="44.9098" lon="6.70902">
        <ele>2563.49</ele>
        <time>2017-04-15T10:18:48Z</time>
      </trkpt>
      <trkpt lat="44.90982" lon="6.70905">
        <ele>2563.01</ele>
        <time>2017-04-15T10:19:07Z</time>
      </trkpt>
      <trkpt lat="44.90982" lon="6.70906">
        <ele>2563.01</ele>
        <time>2017-04-15T10:19:27Z</time>
      </trkpt>
      <trkpt lat="44.90981" lon="6.70905">
        <ele>2562.53</ele>
        <time>2017-04-15T10:19:45Z</time>
      </trkpt>
      <trkpt lat="44.90982" lon="6.70905">
        <ele>2562.53</ele>
        <time>2017-04-15T10:20:12Z</time>
      </trkpt>
      <trkpt lat="44.90983" lon="6.70907">
        <ele>2562.05</ele>
        <time>2017-04-15T10:20:34Z</time>
      </trkpt>
      <trkpt lat="44.90983" lon="6.70907">
        <ele>2562.05</ele>
        <time>2017-04-15T10:20:35Z</time>
      </trkpt>
      <trkpt lat="44.90983" lon="6.70908">
        <ele>2561.57</ele>
        <time>2017-04-15T10:20:48Z</time>
      </trkpt>
      <trkpt lat="44.90984" lon="6.70908">
        <ele>2561.09</ele>
        <time>2017-04-15T10:21:11Z</time>
      </trkpt>
      <trkpt lat="44.90984" lon="6.70911">
        <ele>2561.09</ele>
        <time>2017-04-15T10:21:27Z</time>
      </trkpt>
      <trkpt lat="44.90984" lon="6.7091">
        <ele>2561.09</ele>
        <time>2017-04-15T10:21:48Z</time>
      </trkpt>
      <trkpt lat="44.90983" lon="6.7091">
        <ele>2561.57</ele>
        <time>2017-04-15T10:22:10Z</time>
      </trkpt>
      <trkpt lat="44.90983" lon="6.70911">
        <ele>2561.57</ele>
        <time>2017-04-15T10:22:28Z</time>
      </trkpt>
      <trkpt lat="44.90984" lon="6.70908">
        <ele>2562.05</ele>
        <time>2017-04-15T10:22:44Z</time>
      </trkpt>
      <trkpt lat="44.90985" lon="6.70908">
        <ele>2561.57</ele>
        <time>2017-04-15T10:23:27Z</time>
      </trkpt>
      <trkpt lat="44.90985" lon="6.70913">
        <ele>2562.05</ele>
        <time>2017-04-15T10:23:55Z</time>
      </trkpt>
      <trkpt lat="44.90987" lon="6.70919">
        <ele>2562.53</ele>
        <time>2017-04-15T10:24:06Z</time>
      </trkpt>
      <trkpt lat="44.90986" lon="6.70919">
        <ele>2561.57</ele>
        <time>2017-04-15T10:24:19Z</time>
      </trkpt>
      <trkpt lat="44.90989" lon="6.70923">
        <ele>2561.57</ele>
        <time>2017-04-15T10:24:48Z</time>
      </trkpt>
      <trkpt lat="44.90989" lon="6.70924">
        <ele>2561.57</ele>
        <time>2017-04-15T10:24:49Z</time>
      </trkpt>
      <trkpt lat="44.90988" lon="6.70931">
        <ele>2562.05</ele>
        <time>2017-04-15T10:25:03Z</time>
      </trkpt>
      <trkpt lat="44.90991" lon="6.70935">
        <ele>2562.53</ele>
        <time>2017-04-15T10:25:18Z</time>
      </trkpt>
      <trkpt lat="44.90992" lon="6.70937">
        <ele>2561.57</ele>
        <time>2017-04-15T10:25:34Z</time>
      </trkpt>
      <trkpt lat="44.90994" lon="6.70941">
        <ele>2560.13</ele>
        <time>2017-04-15T10:25:51Z</time>
      </trkpt>
      <trkpt lat="44.90993" lon="6.70945">
        <ele>2559.17</ele>
        <time>2017-04-15T10:26:06Z</time>
      </trkpt>
      <trkpt lat="44.90993" lon="6.70945">
        <ele>2558.21</ele>
        <time>2017-04-15T10:26:20Z</time>
      </trkpt>
      <trkpt lat="44.90994" lon="6.70949">
        <ele>2558.21</ele>
        <time>2017-04-15T10:26:36Z</time>
      </trkpt>
      <trkpt lat="44.90992" lon="6.70947">
        <ele>2557.73</ele>
        <time>2017-04-15T10:26:54Z</time>
      </trkpt>
      <trkpt lat="44.9099" lon="6.70948">
        <ele>2557.24</ele>
        <time>2017-04-15T10:27:19Z</time>
      </trkpt>
      <trkpt lat="44.9099" lon="6.70951">
        <ele>2557.73</ele>
        <time>2017-04-15T10:27:44Z</time>
      </trkpt>
      <trkpt lat="44.90993" lon="6.7095">
        <ele>2558.21</ele>
        <time>2017-04-15T10:28:04Z</time>
      </trkpt>
      <trkpt lat="44.90993" lon="6.70948">
        <ele>2557.73</ele>
        <time>2017-04-15T10:28:35Z</time>
      </trkpt>
      <trkpt lat="44.90991" lon="6.7095">
        <ele>2556.28</ele>
        <time>2017-04-15T10:28:48Z</time>
      </trkpt>
      <trkpt lat="44.90991" lon="6.70952">
        <ele>2555.8</ele>
        <time>2017-04-15T10:29:07Z</time>
      </trkpt>
      <trkpt lat="44.90991" lon="6.70954">
        <ele>2554.84</ele>
        <time>2017-04-15T10:29:25Z</time>
      </trkpt>
      <trkpt lat="44.90991" lon="6.70956">
        <ele>2554.36</ele>
        <time>2017-04-15T10:29:43Z</time>
      </trkpt>
      <trkpt lat="44.90991" lon="6.70956">
        <ele>2552.92</ele>
        <time>2017-04-15T10:29:56Z</time>
      </trkpt>
      <trkpt lat="44.90991" lon="6.70954">
        <ele>2553.88</ele>
        <time>2017-04-15T10:30:19Z</time>
      </trkpt>
      <trkpt lat="44.90988" lon="6.70957">
        <ele>2552.44</ele>
        <time>2017-04-15T10:30:35Z</time>
      </trkpt>
      <trkpt lat="44.90988" lon="6.70958">
        <ele>2551.96</ele>
        <time>2017-04-15T10:30:55Z</time>
      </trkpt>
      <trkpt lat="44.90988" lon="6.70962">
        <ele>2550.51</ele>
        <time>2017-04-15T10:31:08Z</time>
      </trkpt>
      <trkpt lat="44.90988" lon="6.70961">
        <ele>2549.55</ele>
        <time>2017-04-15T10:31:10Z</time>
      </trkpt>
      <trkpt lat="44.90988" lon="6.70961">
        <ele>2550.03</ele>
        <time>2017-04-15T10:31:25Z</time>
      </trkpt>
      <trkpt lat="44.90988" lon="6.70962">
        <ele>2549.55</ele>
        <time>2017-04-15T10:31:59Z</time>
      </trkpt>
      <trkpt lat="44.90991" lon="6.70963">
        <ele>2549.07</ele>
        <time>2017-04-15T10:32:23Z</time>
      </trkpt>
      <trkpt lat="44.90995" lon="6.70962">
        <ele>2548.11</ele>
        <time>2017-04-15T10:32:35Z</time>
      </trkpt>
      <trkpt lat="44.90997" lon="6.70964">
        <ele>2546.67</ele>
        <time>2017-04-15T10:32:52Z</time>
      </trkpt>
      <trkpt lat="44.90997" lon="6.70963">
        <ele>2545.23</ele>
        <time>2017-04-15T10:33:09Z</time>
      </trkpt>
      <trkpt lat="44.91" lon="6.70963">
        <ele>2544.75</ele>
        <time>2017-04-15T10:33:22Z</time>
      </trkpt>
      <trkpt lat="44.90999" lon="6.70963">
        <ele>2544.75</ele>
        <time>2017-04-15T10:33:35Z</time>
      </trkpt>
      <trkpt lat="44.91005" lon="6.70965">
        <ele>2543.31</ele>
        <time>2017-04-15T10:33:50Z</time>
      </trkpt>
      <trkpt lat="44.91007" lon="6.70971">
        <ele>2540.42</ele>
        <time>2017-04-15T10:34:04Z</time>
      </trkpt>
      <trkpt lat="44.91008" lon="6.70973">
        <ele>2540.42</ele>
        <time>2017-04-15T10:34:33Z</time>
      </trkpt>
      <trkpt lat="44.9101" lon="6.70973">
        <ele>2540.9</ele>
        <time>2017-04-15T10:34:56Z</time>
      </trkpt>
      <trkpt lat="44.91009" lon="6.70971">
        <ele>2540.42</ele>
        <time>2017-04-15T10:35:19Z</time>
      </trkpt>
      <trkpt lat="44.91009" lon="6.70971">
        <ele>2540.42</ele>
        <time>2017-04-15T10:35:38Z</time>
      </trkpt>
      <trkpt lat="44.91009" lon="6.70971">
        <ele>2540.42</ele>
        <time>2017-04-15T10:35:51Z</time>
      </trkpt>
      <trkpt lat="44.91007" lon="6.7097">
        <ele>2540.42</ele>
        <time>2017-04-15T10:36:13Z</time>
      </trkpt>
      <trkpt lat="44.91007" lon="6.70971">
        <ele>2540.42</ele>
        <time>2017-04-15T10:36:31Z</time>
      </trkpt>
      <trkpt lat="44.91009" lon="6.70972">
        <ele>2539.94</ele>
        <time>2017-04-15T10:36:53Z</time>
      </trkpt>
      <trkpt lat="44.91009" lon="6.70972">
        <ele>2539.94</ele>
        <time>2017-04-15T10:37:10Z</time>
      </trkpt>
      <trkpt lat="44.91008" lon="6.70972">
        <ele>2539.94</ele>
        <time>2017-04-15T10:37:28Z</time>
      </trkpt>
      <trkpt lat="44.91008" lon="6.70972">
        <ele>2540.42</ele>
        <time>2017-04-15T10:37:49Z</time>
      </trkpt>
      <trkpt lat="44.91008" lon="6.7097">
        <ele>2539.94</ele>
        <time>2017-04-15T10:38:07Z</time>
      </trkpt>
      <trkpt lat="44.91008" lon="6.7097">
        <ele>2539.46</ele>
        <time>2017-04-15T10:38:23Z</time>
      </trkpt>
      <trkpt lat="44.91012" lon="6.70973">
        <ele>2539.46</ele>
        <time>2017-04-15T10:38:35Z</time>
      </trkpt>
      <trkpt lat="44.91014" lon="6.70972">
        <ele>2538.98</ele>
        <time>2017-04-15T10:38:49Z</time>
      </trkpt>
      <trkpt lat="44.91019" lon="6.70977">
        <ele>2538.02</ele>
        <time>2017-04-15T10:39:04Z</time>
      </trkpt>
      <trkpt lat="44.9102" lon="6.70983">
        <ele>2537.54</ele>
        <time>2017-04-15T10:39:16Z</time>
      </trkpt>
      <trkpt lat="44.91025" lon="6.70988">
        <ele>2538.5</ele>
        <time>2017-04-15T10:39:30Z</time>
      </trkpt>
      <trkpt lat="44.91028" lon="6.70988">
        <ele>2539.46</ele>
        <time>2017-04-15T10:39:45Z</time>
      </trkpt>
      <trkpt lat="44.9103" lon="6.70994">
        <ele>2538.98</ele>
        <time>2017-04-15T10:39:58Z</time>
      </trkpt>
      <trkpt lat="44.9103" lon="6.70993">
        <ele>2538.5</ele>
        <time>2017-04-15T10:40:15Z</time>
      </trkpt>
      <trkpt lat="44.9103" lon="6.70994">
        <ele>2538.98</ele>
        <time>2017-04-15T10:40:33Z</time>
      </trkpt>
      <trkpt lat="44.91029" lon="6.70991">
        <ele>2538.98</ele>
        <time>2017-04-15T10:40:58Z</time>
      </trkpt>
      <trkpt lat="44.91029" lon="6.70992">
        <ele>2538.98</ele>
        <time>2017-04-15T10:41:10Z</time>
      </trkpt>
      <trkpt lat="44.91028" lon="6.70992">
        <ele>2538.98</ele>
        <time>2017-04-15T10:41:25Z</time>
      </trkpt>
      <trkpt lat="44.9103" lon="6.70993">
        <ele>2538.5</ele>
        <time>2017-04-15T10:41:40Z</time>
      </trkpt>
      <trkpt lat="44.91029" lon="6.70994">
        <ele>2538.5</ele>
        <time>2017-04-15T10:41:59Z</time>
      </trkpt>
      <trkpt lat="44.91029" lon="6.70993">
        <ele>2538.5</ele>
        <time>2017-04-15T10:42:18Z</time>
      </trkpt>
      <trkpt lat="44.91029" lon="6.70992">
        <ele>2538.5</ele>
        <time>2017-04-15T10:42:32Z</time>
      </trkpt>
      <trkpt lat="44.9103" lon="6.70993">
        <ele>2538.5</ele>
        <time>2017-04-15T10:42:49Z</time>
      </trkpt>
      <trkpt lat="44.9103" lon="6.70994">
        <ele>2538.5</ele>
        <time>2017-04-15T10:43:07Z</time>
      </trkpt>
      <trkpt lat="44.9103" lon="6.70994">
        <ele>2538.98</ele>
        <time>2017-04-15T10:43:20Z</time>
      </trkpt>
      <trkpt lat="44.91029" lon="6.70995">
        <ele>2538.98</ele>
        <time>2017-04-15T10:43:41Z</time>
      </trkpt>
      <trkpt lat="44.91031" lon="6.70994">
        <ele>2538.98</ele>
        <time>2017-04-15T10:43:55Z</time>
      </trkpt>
      <trkpt lat="44.9103" lon="6.70994">
        <ele>2538.5</ele>
        <time>2017-04-15T10:44:10Z</time>
      </trkpt>
      <trkpt lat="44.9103" lon="6.70994">
        <ele>2538.98</ele>
        <time>2017-04-15T10:44:26Z</time>
      </trkpt>
      <trkpt lat="44.9103" lon="6.70993">
        <ele>2538.02</ele>
        <time>2017-04-15T10:44:42Z</time>
      </trkpt>
      <trkpt lat="44.91029" lon="6.70992">
        <ele>2538.5</ele>
        <time>2017-04-15T10:44:59Z</time>
      </trkpt>
      <trkpt lat="44.91029" lon="6.70995">
        <ele>2538.5</ele>
        <time>2017-04-15T10:45:19Z</time>
      </trkpt>
      <trkpt lat="44.9103" lon="6.70994">
        <ele>2538.5</ele>
        <time>2017-04-15T10:45:35Z</time>
      </trkpt>
      <trkpt lat="44.91028" lon="6.70993">
        <ele>2538.5</ele>
        <time>2017-04-15T10:45:49Z</time>
      </trkpt>
      <trkpt lat="44.91029" lon="6.70989">
        <ele>2537.54</ele>
        <time>2017-04-15T10:46:07Z</time>
      </trkpt>
      <trkpt lat="44.9103" lon="6.70991">
        <ele>2538.5</ele>
        <time>2017-04-15T10:46:23Z</time>
      </trkpt>
      <trkpt lat="44.91031" lon="6.70992">
        <ele>2538.5</ele>
        <time>2017-04-15T10:46:50Z</time>
      </trkpt>
      <trkpt lat="44.91029" lon="6.70993">
        <ele>2538.5</ele>
        <time>2017-04-15T10:47:20Z</time>
      </trkpt>
      <trkpt lat="44.91027" lon="6.70991">
        <ele>2538.5</ele>
        <time>2017-04-15T10:47:39Z</time>
      </trkpt>
      <trkpt lat="44.91028" lon="6.70993">
        <ele>2538.5</ele>
        <time>2017-04-15T10:48:01Z</time>
      </trkpt>
      <trkpt lat="44.91029" lon="6.7099">
        <ele>2538.5</ele>
        <time>2017-04-15T10:48:22Z</time>
      </trkpt>
      <trkpt lat="44.9103" lon="6.7099">
        <ele>2537.54</ele>
        <time>2017-04-15T10:48:34Z</time>
      </trkpt>
      <trkpt lat="44.91029" lon="6.7099">
        <ele>2538.02</ele>
        <time>2017-04-15T10:48:52Z</time>
      </trkpt>
      <trkpt lat="44.9103" lon="6.70991">
        <ele>2538.5</ele>
        <time>2017-04-15T10:49:06Z</time>
      </trkpt>
      <trkpt lat="44.91029" lon="6.70991">
        <ele>2538.5</ele>
        <time>2017-04-15T10:49:20Z</time>
      </trkpt>
      <trkpt lat="44.91029" lon="6.70993">
        <ele>2538.5</ele>
        <time>2017-04-15T10:49:37Z</time>
      </trkpt>
      <trkpt lat="44.91029" lon="6.70991">
        <ele>2538.5</ele>
        <time>2017-04-15T10:50:01Z</time>
      </trkpt>
      <trkpt lat="44.91029" lon="6.70992">
        <ele>2538.5</ele>
        <time>2017-04-15T10:50:21Z</time>
      </trkpt>
      <trkpt lat="44.91028" lon="6.70992">
        <ele>2539.46</ele>
        <time>2017-04-15T10:50:37Z</time>
      </trkpt>
      <trkpt lat="44.91029" lon="6.70992">
        <ele>2539.46</ele>
        <time>2017-04-15T10:50:50Z</time>
      </trkpt>
      <trkpt lat="44.9103" lon="6.70992">
        <ele>2538.98</ele>
        <time>2017-04-15T10:51:06Z</time>
      </trkpt>
      <trkpt lat="44.9103" lon="6.70992">
        <ele>2538.98</ele>
        <time>2017-04-15T10:51:18Z</time>
      </trkpt>
      <trkpt lat="44.91029" lon="6.70992">
        <ele>2538.5</ele>
        <time>2017-04-15T10:51:33Z</time>
      </trkpt>
      <trkpt lat="44.9103" lon="6.70993">
        <ele>2538.98</ele>
        <time>2017-04-15T10:51:55Z</time>
      </trkpt>
      <trkpt lat="44.9103" lon="6.70993">
        <ele>2538.98</ele>
        <time>2017-04-15T10:52:32Z</time>
      </trkpt>
      <trkpt lat="44.9103" lon="6.70994">
        <ele>2538.98</ele>
        <time>2017-04-15T10:52:51Z</time>
      </trkpt>
      <trkpt lat="44.9103" lon="6.70992">
        <ele>2538.5</ele>
        <time>2017-04-15T10:53:08Z</time>
      </trkpt>
      <trkpt lat="44.91029" lon="6.70991">
        <ele>2539.46</ele>
        <time>2017-04-15T10:53:24Z</time>
      </trkpt>
      <trkpt lat="44.91029" lon="6.70992">
        <ele>2538.02</ele>
        <time>2017-04-15T10:53:42Z</time>
      </trkpt>
      <trkpt lat="44.91029" lon="6.70992">
        <ele>2539.46</ele>
        <time>2017-04-15T10:54:12Z</time>
      </trkpt>
      <trkpt lat="44.91027" lon="6.70994">
        <ele>2539.46</ele>
        <time>2017-04-15T10:54:31Z</time>
      </trkpt>
      <trkpt lat="44.91029" lon="6.7099">
        <ele>2538.98</ele>
        <time>2017-04-15T10:54:48Z</time>
      </trkpt>
      <trkpt lat="44.91029" lon="6.70994">
        <ele>2538.98</ele>
        <time>2017-04-15T10:55:03Z</time>
      </trkpt>
      <trkpt lat="44.91028" lon="6.70996">
        <ele>2538.02</ele>
        <time>2017-04-15T10:55:15Z</time>
      </trkpt>
      <trkpt lat="44.91029" lon="6.70997">
        <ele>2538.02</ele>
        <time>2017-04-15T10:55:32Z</time>
      </trkpt>
      <trkpt lat="44.9103" lon="6.70998">
        <ele>2538.02</ele>
        <time>2017-04-15T10:55:48Z</time>
      </trkpt>
      <trkpt lat="44.9103" lon="6.70997">
        <ele>2538.02</ele>
        <time>2017-04-15T10:56:08Z</time>
      </trkpt>
      <trkpt lat="44.91031" lon="6.70998">
        <ele>2538.02</ele>
        <time>2017-04-15T10:56:32Z</time>
      </trkpt>
      <trkpt lat="44.91031" lon="6.70998">
        <ele>2538.02</ele>
        <time>2017-04-15T10:56:55Z</time>
      </trkpt>
      <trkpt lat="44.91032" lon="6.70998">
        <ele>2538.02</ele>
        <time>2017-04-15T10:57:11Z</time>
      </trkpt>
      <trkpt lat="44.91033" lon="6.70999">
        <ele>2538.02</ele>
        <time>2017-04-15T10:57:24Z</time>
      </trkpt>
      <trkpt lat="44.91045" lon="6.71005">
        <ele>2538.98</ele>
        <time>2017-04-15T10:57:32Z</time>
      </trkpt>
      <trkpt lat="44.91042" lon="6.71005">
        <ele>2538.5</ele>
        <time>2017-04-15T10:57:45Z</time>
      </trkpt>
      <trkpt lat="44.91039" lon="6.71006">
        <ele>2538.5</ele>
        <time>2017-04-15T10:58:09Z</time>
      </trkpt>
      <trkpt lat="44.91039" lon="6.71004">
        <ele>2538.5</ele>
        <time>2017-04-15T10:58:34Z</time>
      </trkpt>
      <trkpt lat="44.91042" lon="6.71004">
        <ele>2537.54</ele>
        <time>2017-04-15T10:58:57Z</time>
      </trkpt>
      <trkpt lat="44.91042" lon="6.71003">
        <ele>2537.06</ele>
        <time>2017-04-15T10:59:16Z</time>
      </trkpt>
      <trkpt lat="44.91042" lon="6.71005">
        <ele>2536.58</ele>
        <time>2017-04-15T10:59:30Z</time>
      </trkpt>
      <trkpt lat="44.9104" lon="6.71006">
        <ele>2537.54</ele>
        <time>2017-04-15T11:00:02Z</time>
      </trkpt>
      <trkpt lat="44.9104" lon="6.71006">
        <ele>2538.5</ele>
        <time>2017-04-15T11:00:21Z</time>
      </trkpt>
      <trkpt lat="44.91041" lon="6.71007">
        <ele>2538.98</ele>
        <time>2017-04-15T11:00:55Z</time>
      </trkpt>
      <trkpt lat="44.9104" lon="6.71008">
        <ele>2538.5</ele>
        <time>2017-04-15T11:01:26Z</time>
      </trkpt>
      <trkpt lat="44.91037" lon="6.71016">
        <ele>2534.65</ele>
        <time>2017-04-15T11:01:31Z</time>
      </trkpt>
      <trkpt lat="44.91031" lon="6.71023">
        <ele>2531.77</ele>
        <time>2017-04-15T11:01:34Z</time>
      </trkpt>
      <trkpt lat="44.91028" lon="6.71021">
        <ele>2531.29</ele>
        <time>2017-04-15T11:01:35Z</time>
      </trkpt>
      <trkpt lat="44.91025" lon="6.71019">
        <ele>2529.37</ele>
        <time>2017-04-15T11:01:38Z</time>
      </trkpt>
      <trkpt lat="44.91024" lon="6.71018">
        <ele>2528.89</ele>
        <time>2017-04-15T11:01:40Z</time>
      </trkpt>
      <trkpt lat="44.91015" lon="6.71012">
        <ele>2526.96</ele>
        <time>2017-04-15T11:01:45Z</time>
      </trkpt>
      <trkpt lat="44.91017" lon="6.71034">
        <ele>2523.12</ele>
        <time>2017-04-15T11:01:50Z</time>
      </trkpt>
      <trkpt lat="44.91021" lon="6.71042">
        <ele>2522.16</ele>
        <time>2017-04-15T11:01:51Z</time>
      </trkpt>
      <trkpt lat="44.91039" lon="6.71091">
        <ele>2519.27</ele>
        <time>2017-04-15T11:02:00Z</time>
      </trkpt>
      <trkpt lat="44.91046" lon="6.7111">
        <ele>2516.87</ele>
        <time>2017-04-15T11:02:04Z</time>
      </trkpt>
      <trkpt lat="44.91045" lon="6.7111">
        <ele>2517.35</ele>
        <time>2017-04-15T11:02:11Z</time>
      </trkpt>
      <trkpt lat="44.9105" lon="6.71135">
        <ele>2513.02</ele>
        <time>2017-04-15T11:02:17Z</time>
      </trkpt>
      <trkpt lat="44.91052" lon="6.71141">
        <ele>2512.06</ele>
        <time>2017-04-15T11:02:18Z</time>
      </trkpt>
      <trkpt lat="44.91056" lon="6.71149">
        <ele>2511.58</ele>
        <time>2017-04-15T11:02:20Z</time>
      </trkpt>
      <trkpt lat="44.91072" lon="6.71175">
        <ele>2508.7</ele>
        <time>2017-04-15T11:02:29Z</time>
      </trkpt>
      <trkpt lat="44.91082" lon="6.71188">
        <ele>2506.29</ele>
        <time>2017-04-15T11:02:43Z</time>
      </trkpt>
      <trkpt lat="44.91084" lon="6.71189">
        <ele>2506.29</ele>
        <time>2017-04-15T11:02:49Z</time>
      </trkpt>
      <trkpt lat="44.91091" lon="6.71194">
        <ele>2504.85</ele>
        <time>2017-04-15T11:02:55Z</time>
      </trkpt>
      <trkpt lat="44.91087" lon="6.71198">
        <ele>2502.45</ele>
        <time>2017-04-15T11:02:59Z</time>
      </trkpt>
      <trkpt lat="44.91083" lon="6.71196">
        <ele>2501.97</ele>
        <time>2017-04-15T11:03:00Z</time>
      </trkpt>
      <trkpt lat="44.91062" lon="6.71185">
        <ele>2498.6</ele>
        <time>2017-04-15T11:03:07Z</time>
      </trkpt>
      <trkpt lat="44.91058" lon="6.71184">
        <ele>2497.64</ele>
        <time>2017-04-15T11:03:09Z</time>
      </trkpt>
      <trkpt lat="44.9104" lon="6.71173">
        <ele>2494.28</ele>
        <time>2017-04-15T11:03:20Z</time>
      </trkpt>
      <trkpt lat="44.91014" lon="6.71154">
        <ele>2490.91</ele>
        <time>2017-04-15T11:03:33Z</time>
      </trkpt>
      <trkpt lat="44.91" lon="6.71136">
        <ele>2487.55</ele>
        <time>2017-04-15T11:03:47Z</time>
      </trkpt>
      <trkpt lat="44.90994" lon="6.71127">
        <ele>2487.07</ele>
        <time>2017-04-15T11:04:02Z</time>
      </trkpt>
      <trkpt lat="44.90983" lon="6.711">
        <ele>2483.7</ele>
        <time>2017-04-15T11:04:13Z</time>
      </trkpt>
      <trkpt lat="44.90979" lon="6.7109">
        <ele>2482.26</ele>
        <time>2017-04-15T11:04:15Z</time>
      </trkpt>
      <trkpt lat="44.90968" lon="6.7107">
        <ele>2481.3</ele>
        <time>2017-04-15T11:04:26Z</time>
      </trkpt>
      <trkpt lat="44.90969" lon="6.7107">
        <ele>2481.3</ele>
        <time>2017-04-15T11:04:33Z</time>
      </trkpt>
      <trkpt lat="44.90947" lon="6.71055">
        <ele>2477.45</ele>
        <time>2017-04-15T11:04:42Z</time>
      </trkpt>
      <trkpt lat="44.90942" lon="6.71052">
        <ele>2476.97</ele>
        <time>2017-04-15T11:04:44Z</time>
      </trkpt>
      <trkpt lat="44.90928" lon="6.71042">
        <ele>2473.61</ele>
        <time>2017-04-15T11:04:56Z</time>
      </trkpt>
      <trkpt lat="44.90916" lon="6.71026">
        <ele>2470.73</ele>
        <time>2017-04-15T11:05:08Z</time>
      </trkpt>
      <trkpt lat="44.90914" lon="6.71022">
        <ele>2470.73</ele>
        <time>2017-04-15T11:05:09Z</time>
      </trkpt>
      <trkpt lat="44.90904" lon="6.7101">
        <ele>2469.28</ele>
        <time>2017-04-15T11:05:13Z</time>
      </trkpt>
      <trkpt lat="44.90898" lon="6.71008">
        <ele>2468.32</ele>
        <time>2017-04-15T11:05:22Z</time>
      </trkpt>
      <trkpt lat="44.90886" lon="6.71002">
        <ele>2466.4</ele>
        <time>2017-04-15T11:05:33Z</time>
      </trkpt>
      <trkpt lat="44.90884" lon="6.70999">
        <ele>2465.92</ele>
        <time>2017-04-15T11:05:45Z</time>
      </trkpt>
      <trkpt lat="44.90872" lon="6.70982">
        <ele>2464</ele>
        <time>2017-04-15T11:05:58Z</time>
      </trkpt>
      <trkpt lat="44.90864" lon="6.70973">
        <ele>2462.55</ele>
        <time>2017-04-15T11:06:01Z</time>
      </trkpt>
      <trkpt lat="44.90858" lon="6.70967">
        <ele>2461.59</ele>
        <time>2017-04-15T11:06:10Z</time>
      </trkpt>
      <trkpt lat="44.90858" lon="6.70966">
        <ele>2462.07</ele>
        <time>2017-04-15T11:06:25Z</time>
      </trkpt>
      <trkpt lat="44.90858" lon="6.70967">
        <ele>2462.07</ele>
        <time>2017-04-15T11:06:32Z</time>
      </trkpt>
      <trkpt lat="44.90845" lon="6.70957">
        <ele>2460.63</ele>
        <time>2017-04-15T11:06:42Z</time>
      </trkpt>
      <trkpt lat="44.90839" lon="6.70947">
        <ele>2459.19</ele>
        <time>2017-04-15T11:06:56Z</time>
      </trkpt>
      <trkpt lat="44.90836" lon="6.70934">
        <ele>2457.27</ele>
        <time>2017-04-15T11:07:07Z</time>
      </trkpt>
      <trkpt lat="44.90834" lon="6.7093">
        <ele>2456.79</ele>
        <time>2017-04-15T11:07:22Z</time>
      </trkpt>
      <trkpt lat="44.90833" lon="6.70925">
        <ele>2455.82</ele>
        <time>2017-04-15T11:07:36Z</time>
      </trkpt>
      <trkpt lat="44.90831" lon="6.70918">
        <ele>2455.82</ele>
        <time>2017-04-15T11:07:49Z</time>
      </trkpt>
      <trkpt lat="44.90828" lon="6.70915">
        <ele>2455.34</ele>
        <time>2017-04-15T11:08:05Z</time>
      </trkpt>
      <trkpt lat="44.90828" lon="6.70912">
        <ele>2455.34</ele>
        <time>2017-04-15T11:08:20Z</time>
      </trkpt>
      <trkpt lat="44.90826" lon="6.70907">
        <ele>2455.82</ele>
        <time>2017-04-15T11:08:33Z</time>
      </trkpt>
      <trkpt lat="44.90827" lon="6.70907">
        <ele>2455.82</ele>
        <time>2017-04-15T11:08:50Z</time>
      </trkpt>
      <trkpt lat="44.90827" lon="6.70908">
        <ele>2455.82</ele>
        <time>2017-04-15T11:09:12Z</time>
      </trkpt>
      <trkpt lat="44.90827" lon="6.70907">
        <ele>2456.31</ele>
        <time>2017-04-15T11:09:23Z</time>
      </trkpt>
      <trkpt lat="44.9082" lon="6.70902">
        <ele>2455.34</ele>
        <time>2017-04-15T11:09:27Z</time>
      </trkpt>
      <trkpt lat="44.90805" lon="6.70884">
        <ele>2454.38</ele>
        <time>2017-04-15T11:09:40Z</time>
      </trkpt>
      <trkpt lat="44.90798" lon="6.7088">
        <ele>2454.86</ele>
        <time>2017-04-15T11:09:50Z</time>
      </trkpt>
      <trkpt lat="44.9079" lon="6.70878">
        <ele>2454.86</ele>
        <time>2017-04-15T11:09:59Z</time>
      </trkpt>
      <trkpt lat="44.90777" lon="6.70874">
        <ele>2452.94</ele>
        <time>2017-04-15T11:10:06Z</time>
      </trkpt>
      <trkpt lat="44.90759" lon="6.70861">
        <ele>2451.02</ele>
        <time>2017-04-15T11:10:18Z</time>
      </trkpt>
      <trkpt lat="44.90759" lon="6.7086">
        <ele>2451.02</ele>
        <time>2017-04-15T11:10:24Z</time>
      </trkpt>
      <trkpt lat="44.90741" lon="6.7085">
        <ele>2448.62</ele>
        <time>2017-04-15T11:10:34Z</time>
      </trkpt>
      <trkpt lat="44.90734" lon="6.70853">
        <ele>2448.13</ele>
        <time>2017-04-15T11:10:48Z</time>
      </trkpt>
      <trkpt lat="44.90733" lon="6.70852">
        <ele>2448.13</ele>
        <time>2017-04-15T11:10:59Z</time>
      </trkpt>
      <trkpt lat="44.90729" lon="6.70851">
        <ele>2447.65</ele>
        <time>2017-04-15T11:11:12Z</time>
      </trkpt>
      <trkpt lat="44.90706" lon="6.70842">
        <ele>2444.29</ele>
        <time>2017-04-15T11:11:21Z</time>
      </trkpt>
      <trkpt lat="44.90701" lon="6.70837">
        <ele>2444.29</ele>
        <time>2017-04-15T11:11:32Z</time>
      </trkpt>
      <trkpt lat="44.90694" lon="6.70828">
        <ele>2441.89</ele>
        <time>2017-04-15T11:11:43Z</time>
      </trkpt>
      <trkpt lat="44.90692" lon="6.70827">
        <ele>2441.41</ele>
        <time>2017-04-15T11:11:55Z</time>
      </trkpt>
      <trkpt lat="44.9069" lon="6.70824">
        <ele>2440.92</ele>
        <time>2017-04-15T11:12:10Z</time>
      </trkpt>
      <trkpt lat="44.90684" lon="6.70817">
        <ele>2440.92</ele>
        <time>2017-04-15T11:12:24Z</time>
      </trkpt>
      <trkpt lat="44.90672" lon="6.70797">
        <ele>2438.52</ele>
        <time>2017-04-15T11:12:35Z</time>
      </trkpt>
      <trkpt lat="44.90665" lon="6.70788">
        <ele>2437.56</ele>
        <time>2017-04-15T11:12:43Z</time>
      </trkpt>
      <trkpt lat="44.9066" lon="6.70782">
        <ele>2436.6</ele>
        <time>2017-04-15T11:12:56Z</time>
      </trkpt>
      <trkpt lat="44.90659" lon="6.70783">
        <ele>2436.6</ele>
        <time>2017-04-15T11:13:02Z</time>
      </trkpt>
      <trkpt lat="44.90651" lon="6.70778">
        <ele>2435.16</ele>
        <time>2017-04-15T11:13:06Z</time>
      </trkpt>
      <trkpt lat="44.90646" lon="6.70774">
        <ele>2434.2</ele>
        <time>2017-04-15T11:13:08Z</time>
      </trkpt>
      <trkpt lat="44.90627" lon="6.70766">
        <ele>2432.27</ele>
        <time>2017-04-15T11:13:20Z</time>
      </trkpt>
      <trkpt lat="44.90611" lon="6.70768">
        <ele>2429.87</ele>
        <time>2017-04-15T11:13:33Z</time>
      </trkpt>
      <trkpt lat="44.90605" lon="6.7077">
        <ele>2428.43</ele>
        <time>2017-04-15T11:13:46Z</time>
      </trkpt>
      <trkpt lat="44.90596" lon="6.70776">
        <ele>2426.5</ele>
        <time>2017-04-15T11:13:58Z</time>
      </trkpt>
      <trkpt lat="44.90582" lon="6.70769">
        <ele>2425.06</ele>
        <time>2017-04-15T11:14:11Z</time>
      </trkpt>
      <trkpt lat="44.90577" lon="6.70767">
        <ele>2424.1</ele>
        <time>2017-04-15T11:14:24Z</time>
      </trkpt>
      <trkpt lat="44.90575" lon="6.70768">
        <ele>2423.62</ele>
        <time>2017-04-15T11:14:42Z</time>
      </trkpt>
      <trkpt lat="44.90575" lon="6.70768">
        <ele>2423.62</ele>
        <time>2017-04-15T11:14:57Z</time>
      </trkpt>
      <trkpt lat="44.90575" lon="6.70767">
        <ele>2423.14</ele>
        <time>2017-04-15T11:15:18Z</time>
      </trkpt>
      <trkpt lat="44.9057" lon="6.70769">
        <ele>2422.18</ele>
        <time>2017-04-15T11:15:31Z</time>
      </trkpt>
      <trkpt lat="44.90557" lon="6.70765">
        <ele>2420.74</ele>
        <time>2017-04-15T11:15:45Z</time>
      </trkpt>
      <trkpt lat="44.90549" lon="6.70763">
        <ele>2419.3</ele>
        <time>2017-04-15T11:15:58Z</time>
      </trkpt>
      <trkpt lat="44.90548" lon="6.70762">
        <ele>2419.3</ele>
        <time>2017-04-15T11:16:00Z</time>
      </trkpt>
      <trkpt lat="44.90542" lon="6.7076">
        <ele>2417.85</ele>
        <time>2017-04-15T11:16:14Z</time>
      </trkpt>
      <trkpt lat="44.90542" lon="6.70759">
        <ele>2417.85</ele>
        <time>2017-04-15T11:16:32Z</time>
      </trkpt>
      <trkpt lat="44.90548" lon="6.7076">
        <ele>2418.81</ele>
        <time>2017-04-15T11:16:49Z</time>
      </trkpt>
      <trkpt lat="44.9055" lon="6.70761">
        <ele>2418.81</ele>
        <time>2017-04-15T11:17:05Z</time>
      </trkpt>
      <trkpt lat="44.90549" lon="6.70761">
        <ele>2418.81</ele>
        <time>2017-04-15T11:17:30Z</time>
      </trkpt>
      <trkpt lat="44.90548" lon="6.7076">
        <ele>2418.81</ele>
        <time>2017-04-15T11:17:52Z</time>
      </trkpt>
      <trkpt lat="44.90546" lon="6.7076">
        <ele>2418.81</ele>
        <time>2017-04-15T11:17:54Z</time>
      </trkpt>
      <trkpt lat="44.9054" lon="6.70755">
        <ele>2417.85</ele>
        <time>2017-04-15T11:18:07Z</time>
      </trkpt>
      <trkpt lat="44.90532" lon="6.70751">
        <ele>2416.41</ele>
        <time>2017-04-15T11:18:21Z</time>
      </trkpt>
      <trkpt lat="44.90521" lon="6.70735">
        <ele>2414.49</ele>
        <time>2017-04-15T11:18:38Z</time>
      </trkpt>
      <trkpt lat="44.90512" lon="6.70725">
        <ele>2413.53</ele>
        <time>2017-04-15T11:18:54Z</time>
      </trkpt>
      <trkpt lat="44.90504" lon="6.7071">
        <ele>2411.12</ele>
        <time>2017-04-15T11:19:12Z</time>
      </trkpt>
      <trkpt lat="44.90497" lon="6.707">
        <ele>2409.68</ele>
        <time>2017-04-15T11:19:28Z</time>
      </trkpt>
      <trkpt lat="44.90487" lon="6.70688">
        <ele>2408.24</ele>
        <time>2017-04-15T11:19:44Z</time>
      </trkpt>
      <trkpt lat="44.90477" lon="6.70673">
        <ele>2406.32</ele>
        <time>2017-04-15T11:20:00Z</time>
      </trkpt>
      <trkpt lat="44.9047" lon="6.7065">
        <ele>2403.91</ele>
        <time>2017-04-15T11:20:19Z</time>
      </trkpt>
      <trkpt lat="44.90469" lon="6.70643">
        <ele>2403.43</ele>
        <time>2017-04-15T11:20:24Z</time>
      </trkpt>
      <trkpt lat="44.90471" lon="6.70634">
        <ele>2402.95</ele>
        <time>2017-04-15T11:20:30Z</time>
      </trkpt>
      <trkpt lat="44.90479" lon="6.70629">
        <ele>2402.47</ele>
        <time>2017-04-15T11:20:46Z</time>
      </trkpt>
      <trkpt lat="44.90479" lon="6.70628">
        <ele>2402.47</ele>
        <time>2017-04-15T11:21:06Z</time>
      </trkpt>
      <trkpt lat="44.90477" lon="6.70627">
        <ele>2400.55</ele>
        <time>2017-04-15T11:21:24Z</time>
      </trkpt>
      <trkpt lat="44.90478" lon="6.70629">
        <ele>2401.03</ele>
        <time>2017-04-15T11:22:03Z</time>
      </trkpt>
      <trkpt lat="44.90479" lon="6.70628">
        <ele>2401.03</ele>
        <time>2017-04-15T11:22:41Z</time>
      </trkpt>
      <trkpt lat="44.90476" lon="6.70627">
        <ele>2401.51</ele>
        <time>2017-04-15T11:23:27Z</time>
      </trkpt>
      <trkpt lat="44.90476" lon="6.70627">
        <ele>2401.03</ele>
        <time>2017-04-15T11:24:16Z</time>
      </trkpt>
      <trkpt lat="44.90476" lon="6.70628">
        <ele>2401.03</ele>
        <time>2017-04-15T11:24:51Z</time>
      </trkpt>
      <trkpt lat="44.90477" lon="6.70628">
        <ele>2400.55</ele>
        <time>2017-04-15T11:25:37Z</time>
      </trkpt>
      <trkpt lat="44.90478" lon="6.70628">
        <ele>2401.51</ele>
        <time>2017-04-15T11:25:56Z</time>
      </trkpt>
      <trkpt lat="44.9048" lon="6.70628">
        <ele>2401.51</ele>
        <time>2017-04-15T11:26:20Z</time>
      </trkpt>
      <trkpt lat="44.9048" lon="6.70628">
        <ele>2401.51</ele>
        <time>2017-04-15T11:26:40Z</time>
      </trkpt>
      <trkpt lat="44.90479" lon="6.70628">
        <ele>2401.51</ele>
        <time>2017-04-15T11:26:54Z</time>
      </trkpt>
      <trkpt lat="44.90479" lon="6.7063">
        <ele>2401.51</ele>
        <time>2017-04-15T11:27:15Z</time>
      </trkpt>
      <trkpt lat="44.90481" lon="6.70627">
        <ele>2401.51</ele>
        <time>2017-04-15T11:27:35Z</time>
      </trkpt>
      <trkpt lat="44.90481" lon="6.70628">
        <ele>2401.03</ele>
        <time>2017-04-15T11:28:00Z</time>
      </trkpt>
      <trkpt lat="44.9049" lon="6.70625">
        <ele>2401.51</ele>
        <time>2017-04-15T11:28:06Z</time>
      </trkpt>
      <trkpt lat="44.90479" lon="6.70617">
        <ele>2399.11</ele>
        <time>2017-04-15T11:28:12Z</time>
      </trkpt>
      <trkpt lat="44.90466" lon="6.70623">
        <ele>2397.67</ele>
        <time>2017-04-15T11:28:22Z</time>
      </trkpt>
      <trkpt lat="44.90457" lon="6.70635">
        <ele>2394.78</ele>
        <time>2017-04-15T11:28:35Z</time>
      </trkpt>
      <trkpt lat="44.90457" lon="6.70637">
        <ele>2394.78</ele>
        <time>2017-04-15T11:28:42Z</time>
      </trkpt>
      <trkpt lat="44.90455" lon="6.70662">
        <ele>2391.9</ele>
        <time>2017-04-15T11:28:52Z</time>
      </trkpt>
      <trkpt lat="44.9046" lon="6.70687">
        <ele>2389.49</ele>
        <time>2017-04-15T11:29:04Z</time>
      </trkpt>
      <trkpt lat="44.90464" lon="6.70701">
        <ele>2388.05</ele>
        <time>2017-04-15T11:29:09Z</time>
      </trkpt>
      <trkpt lat="44.90467" lon="6.70711">
        <ele>2386.61</ele>
        <time>2017-04-15T11:29:19Z</time>
      </trkpt>
      <trkpt lat="44.90474" lon="6.7073">
        <ele>2384.21</ele>
        <time>2017-04-15T11:29:23Z</time>
      </trkpt>
      <trkpt lat="44.90478" lon="6.70791">
        <ele>2382.28</ele>
        <time>2017-04-15T11:29:36Z</time>
      </trkpt>
      <trkpt lat="44.90479" lon="6.70803">
        <ele>2382.28</ele>
        <time>2017-04-15T11:29:39Z</time>
      </trkpt>
      <trkpt lat="44.90477" lon="6.70809">
        <ele>2381.32</ele>
        <time>2017-04-15T11:29:41Z</time>
      </trkpt>
      <trkpt lat="44.90479" lon="6.70829">
        <ele>2379.88</ele>
        <time>2017-04-15T11:29:51Z</time>
      </trkpt>
      <trkpt lat="44.90479" lon="6.70828">
        <ele>2379.88</ele>
        <time>2017-04-15T11:29:58Z</time>
      </trkpt>
      <trkpt lat="44.90477" lon="6.70849">
        <ele>2377</ele>
        <time>2017-04-15T11:30:03Z</time>
      </trkpt>
      <trkpt lat="44.90472" lon="6.70893">
        <ele>2372.67</ele>
        <time>2017-04-15T11:30:08Z</time>
      </trkpt>
      <trkpt lat="44.90465" lon="6.7092">
        <ele>2371.23</ele>
        <time>2017-04-15T11:30:12Z</time>
      </trkpt>
      <trkpt lat="44.90459" lon="6.70937">
        <ele>2369.79</ele>
        <time>2017-04-15T11:30:15Z</time>
      </trkpt>
      <trkpt lat="44.90449" lon="6.70967">
        <ele>2367.86</ele>
        <time>2017-04-15T11:30:24Z</time>
      </trkpt>
      <trkpt lat="44.9046" lon="6.70993">
        <ele>2361.62</ele>
        <time>2017-04-15T11:30:28Z</time>
      </trkpt>
      <trkpt lat="44.90464" lon="6.71001">
        <ele>2362.1</ele>
        <time>2017-04-15T11:30:29Z</time>
      </trkpt>
      <trkpt lat="44.90471" lon="6.71015">
        <ele>2357.77</ele>
        <time>2017-04-15T11:30:31Z</time>
      </trkpt>
      <trkpt lat="44.90485" lon="6.71023">
        <ele>2356.81</ele>
        <time>2017-04-15T11:30:36Z</time>
      </trkpt>
      <trkpt lat="44.90484" lon="6.71026">
        <ele>2356.81</ele>
        <time>2017-04-15T11:30:37Z</time>
      </trkpt>
      <trkpt lat="44.9046" lon="6.71074">
        <ele>2352.48</ele>
        <time>2017-04-15T11:30:48Z</time>
      </trkpt>
      <trkpt lat="44.90455" lon="6.71091">
        <ele>2349.12</ele>
        <time>2017-04-15T11:30:50Z</time>
      </trkpt>
      <trkpt lat="44.90459" lon="6.71096">
        <ele>2347.68</ele>
        <time>2017-04-15T11:30:55Z</time>
      </trkpt>
      <trkpt lat="44.90456" lon="6.71095">
        <ele>2347.68</ele>
        <time>2017-04-15T11:31:13Z</time>
      </trkpt>
      <trkpt lat="44.90456" lon="6.71095">
        <ele>2347.68</ele>
        <time>2017-04-15T11:31:19Z</time>
      </trkpt>
      <trkpt lat="44.90462" lon="6.71112">
        <ele>2344.79</ele>
        <time>2017-04-15T11:31:23Z</time>
      </trkpt>
      <trkpt lat="44.90462" lon="6.71165">
        <ele>2341.91</ele>
        <time>2017-04-15T11:31:32Z</time>
      </trkpt>
      <trkpt lat="44.9046" lon="6.71168">
        <ele>2341.91</ele>
        <time>2017-04-15T11:31:45Z</time>
      </trkpt>
      <trkpt lat="44.90459" lon="6.71168">
        <ele>2341.91</ele>
        <time>2017-04-15T11:31:52Z</time>
      </trkpt>
      <trkpt lat="44.90451" lon="6.7119">
        <ele>2338.54</ele>
        <time>2017-04-15T11:31:57Z</time>
      </trkpt>
      <trkpt lat="44.90449" lon="6.71195">
        <ele>2338.06</ele>
        <time>2017-04-15T11:31:58Z</time>
      </trkpt>
      <trkpt lat="44.90444" lon="6.71258">
        <ele>2336.14</ele>
        <time>2017-04-15T11:32:09Z</time>
      </trkpt>
      <trkpt lat="44.90442" lon="6.71269">
        <ele>2335.18</ele>
        <time>2017-04-15T11:32:11Z</time>
      </trkpt>
      <trkpt lat="44.90436" lon="6.71289">
        <ele>2332.3</ele>
        <time>2017-04-15T11:32:14Z</time>
      </trkpt>
      <trkpt lat="44.90433" lon="6.71303">
        <ele>2331.33</ele>
        <time>2017-04-15T11:32:16Z</time>
      </trkpt>
      <trkpt lat="44.90427" lon="6.71328">
        <ele>2331.33</ele>
        <time>2017-04-15T11:32:24Z</time>
      </trkpt>
      <trkpt lat="44.90429" lon="6.7133">
        <ele>2329.89</ele>
        <time>2017-04-15T11:32:27Z</time>
      </trkpt>
      <trkpt lat="44.9043" lon="6.7133">
        <ele>2330.37</ele>
        <time>2017-04-15T11:32:41Z</time>
      </trkpt>
      <trkpt lat="44.90438" lon="6.71348">
        <ele>2326.53</ele>
        <time>2017-04-15T11:32:46Z</time>
      </trkpt>
      <trkpt lat="44.90448" lon="6.71368">
        <ele>2323.16</ele>
        <time>2017-04-15T11:32:49Z</time>
      </trkpt>
      <trkpt lat="44.90456" lon="6.7138">
        <ele>2321.72</ele>
        <time>2017-04-15T11:32:51Z</time>
      </trkpt>
      <trkpt lat="44.90467" lon="6.71397">
        <ele>2314.99</ele>
        <time>2017-04-15T11:32:54Z</time>
      </trkpt>
      <trkpt lat="44.90479" lon="6.71411">
        <ele>2312.11</ele>
        <time>2017-04-15T11:32:57Z</time>
      </trkpt>
      <trkpt lat="44.90485" lon="6.71416">
        <ele>2309.22</ele>
        <time>2017-04-15T11:32:59Z</time>
      </trkpt>
      <trkpt lat="44.90491" lon="6.71419">
        <ele>2308.74</ele>
        <time>2017-04-15T11:33:03Z</time>
      </trkpt>
      <trkpt lat="44.90487" lon="6.7142">
        <ele>2308.26</ele>
        <time>2017-04-15T11:33:19Z</time>
      </trkpt>
      <trkpt lat="44.90494" lon="6.71445">
        <ele>2306.34</ele>
        <time>2017-04-15T11:33:26Z</time>
      </trkpt>
      <trkpt lat="44.90496" lon="6.71459">
        <ele>2304.9</ele>
        <time>2017-04-15T11:33:29Z</time>
      </trkpt>
      <trkpt lat="44.90513" lon="6.71474">
        <ele>2301.05</ele>
        <time>2017-04-15T11:33:33Z</time>
      </trkpt>
      <trkpt lat="44.90517" lon="6.71484">
        <ele>2299.61</ele>
        <time>2017-04-15T11:33:35Z</time>
      </trkpt>
      <trkpt lat="44.90525" lon="6.71493">
        <ele>2295.77</ele>
        <time>2017-04-15T11:33:37Z</time>
      </trkpt>
      <trkpt lat="44.90538" lon="6.71507">
        <ele>2292.4</ele>
        <time>2017-04-15T11:33:40Z</time>
      </trkpt>
      <trkpt lat="44.90544" lon="6.71516">
        <ele>2289.04</ele>
        <time>2017-04-15T11:33:42Z</time>
      </trkpt>
      <trkpt lat="44.90549" lon="6.71519">
        <ele>2286.15</ele>
        <time>2017-04-15T11:33:43Z</time>
      </trkpt>
      <trkpt lat="44.90556" lon="6.71527">
        <ele>2281.35</ele>
        <time>2017-04-15T11:33:45Z</time>
      </trkpt>
      <trkpt lat="44.90568" lon="6.71545">
        <ele>2277.02</ele>
        <time>2017-04-15T11:33:49Z</time>
      </trkpt>
      <trkpt lat="44.90575" lon="6.71555">
        <ele>2272.69</ele>
        <time>2017-04-15T11:33:51Z</time>
      </trkpt>
      <trkpt lat="44.90578" lon="6.71561">
        <ele>2273.66</ele>
        <time>2017-04-15T11:33:52Z</time>
      </trkpt>
      <trkpt lat="44.90584" lon="6.71583">
        <ele>2272.21</ele>
        <time>2017-04-15T11:33:56Z</time>
      </trkpt>
      <trkpt lat="44.90589" lon="6.716">
        <ele>2267.89</ele>
        <time>2017-04-15T11:34:00Z</time>
      </trkpt>
      <trkpt lat="44.9059" lon="6.71601">
        <ele>2265.96</ele>
        <time>2017-04-15T11:34:02Z</time>
      </trkpt>
      <trkpt lat="44.90589" lon="6.716">
        <ele>2266.45</ele>
        <time>2017-04-15T11:34:04Z</time>
      </trkpt>
      <trkpt lat="44.90589" lon="6.71601">
        <ele>2263.08</ele>
        <time>2017-04-15T11:34:05Z</time>
      </trkpt>
      <trkpt lat="44.90593" lon="6.71614">
        <ele>2262.6</ele>
        <time>2017-04-15T11:34:09Z</time>
      </trkpt>
      <trkpt lat="44.90605" lon="6.71641">
        <ele>2256.83</ele>
        <time>2017-04-15T11:34:14Z</time>
      </trkpt>
      <trkpt lat="44.9061" lon="6.7165">
        <ele>2252.99</ele>
        <time>2017-04-15T11:34:16Z</time>
      </trkpt>
      <trkpt lat="44.90607" lon="6.71653">
        <ele>2252.03</ele>
        <time>2017-04-15T11:34:17Z</time>
      </trkpt>
      <trkpt lat="44.90604" lon="6.7166">
        <ele>2249.62</ele>
        <time>2017-04-15T11:34:27Z</time>
      </trkpt>
      <trkpt lat="44.90605" lon="6.71661">
        <ele>2249.14</ele>
        <time>2017-04-15T11:34:38Z</time>
      </trkpt>
      <trkpt lat="44.90607" lon="6.71672">
        <ele>2246.26</ele>
        <time>2017-04-15T11:34:42Z</time>
      </trkpt>
      <trkpt lat="44.90612" lon="6.71684">
        <ele>2242.41</ele>
        <time>2017-04-15T11:34:45Z</time>
      </trkpt>
      <trkpt lat="44.9062" lon="6.71695">
        <ele>2238.09</ele>
        <time>2017-04-15T11:34:48Z</time>
      </trkpt>
      <trkpt lat="44.9062" lon="6.71705">
        <ele>2235.2</ele>
        <time>2017-04-15T11:34:50Z</time>
      </trkpt>
      <trkpt lat="44.90622" lon="6.71709">
        <ele>2234.72</ele>
        <time>2017-04-15T11:34:51Z</time>
      </trkpt>
      <trkpt lat="44.90634" lon="6.71727">
        <ele>2230.88</ele>
        <time>2017-04-15T11:34:55Z</time>
      </trkpt>
      <trkpt lat="44.90635" lon="6.71732">
        <ele>2228.47</ele>
        <time>2017-04-15T11:34:56Z</time>
      </trkpt>
      <trkpt lat="44.90648" lon="6.71749">
        <ele>2222.71</ele>
        <time>2017-04-15T11:35:00Z</time>
      </trkpt>
      <trkpt lat="44.90655" lon="6.71764">
        <ele>2216.46</ele>
        <time>2017-04-15T11:35:02Z</time>
      </trkpt>
      <trkpt lat="44.9067" lon="6.71795">
        <ele>2213.57</ele>
        <time>2017-04-15T11:35:06Z</time>
      </trkpt>
      <trkpt lat="44.90688" lon="6.71822">
        <ele>2210.69</ele>
        <time>2017-04-15T11:35:11Z</time>
      </trkpt>
      <trkpt lat="44.90698" lon="6.71835">
        <ele>2211.17</ele>
        <time>2017-04-15T11:35:20Z</time>
      </trkpt>
      <trkpt lat="44.90696" lon="6.71834">
        <ele>2210.69</ele>
        <time>2017-04-15T11:35:44Z</time>
      </trkpt>
      <trkpt lat="44.90693" lon="6.71849">
        <ele>2207.32</ele>
        <time>2017-04-15T11:35:51Z</time>
      </trkpt>
      <trkpt lat="44.90698" lon="6.7186">
        <ele>2205.88</ele>
        <time>2017-04-15T11:35:54Z</time>
      </trkpt>
      <trkpt lat="44.90703" lon="6.71878">
        <ele>2203</ele>
        <time>2017-04-15T11:35:58Z</time>
      </trkpt>
      <trkpt lat="44.907" lon="6.71898">
        <ele>2198.19</ele>
        <time>2017-04-15T11:36:01Z</time>
      </trkpt>
      <trkpt lat="44.90707" lon="6.71917">
        <ele>2193.87</ele>
        <time>2017-04-15T11:36:04Z</time>
      </trkpt>
      <trkpt lat="44.90721" lon="6.71932">
        <ele>2191.94</ele>
        <time>2017-04-15T11:36:07Z</time>
      </trkpt>
      <trkpt lat="44.9074" lon="6.71952">
        <ele>2188.1</ele>
        <time>2017-04-15T11:36:11Z</time>
      </trkpt>
      <trkpt lat="44.90762" lon="6.71972">
        <ele>2184.25</ele>
        <time>2017-04-15T11:36:15Z</time>
      </trkpt>
      <trkpt lat="44.90768" lon="6.71977">
        <ele>2183.77</ele>
        <time>2017-04-15T11:36:16Z</time>
      </trkpt>
      <trkpt lat="44.90783" lon="6.71988">
        <ele>2186.66</ele>
        <time>2017-04-15T11:36:19Z</time>
      </trkpt>
      <trkpt lat="44.90792" lon="6.72003">
        <ele>2182.81</ele>
        <time>2017-04-15T11:36:22Z</time>
      </trkpt>
      <trkpt lat="44.90798" lon="6.7202">
        <ele>2179.45</ele>
        <time>2017-04-15T11:36:25Z</time>
      </trkpt>
      <trkpt lat="44.90801" lon="6.72025">
        <ele>2179.93</ele>
        <time>2017-04-15T11:36:26Z</time>
      </trkpt>
      <trkpt lat="44.90809" lon="6.72039">
        <ele>2176.08</ele>
        <time>2017-04-15T11:36:29Z</time>
      </trkpt>
      <trkpt lat="44.90811" lon="6.72043">
        <ele>2174.64</ele>
        <time>2017-04-15T11:36:30Z</time>
      </trkpt>
      <trkpt lat="44.90821" lon="6.72061">
        <ele>2169.35</ele>
        <time>2017-04-15T11:36:34Z</time>
      </trkpt>
      <trkpt lat="44.90835" lon="6.72078">
        <ele>2165.99</ele>
        <time>2017-04-15T11:36:39Z</time>
      </trkpt>
      <trkpt lat="44.90847" lon="6.72092">
        <ele>2161.66</ele>
        <time>2017-04-15T11:36:43Z</time>
      </trkpt>
      <trkpt lat="44.9086" lon="6.7211">
        <ele>2156.86</ele>
        <time>2017-04-15T11:36:47Z</time>
      </trkpt>
      <trkpt lat="44.90863" lon="6.72114">
        <ele>2156.86</ele>
        <time>2017-04-15T11:36:48Z</time>
      </trkpt>
      <trkpt lat="44.90874" lon="6.72129">
        <ele>2153.01</ele>
        <time>2017-04-15T11:36:52Z</time>
      </trkpt>
      <trkpt lat="44.9088" lon="6.72136">
        <ele>2152.05</ele>
        <time>2017-04-15T11:36:54Z</time>
      </trkpt>
      <trkpt lat="44.90884" lon="6.72149">
        <ele>2148.2</ele>
        <time>2017-04-15T11:36:57Z</time>
      </trkpt>
      <trkpt lat="44.90887" lon="6.72151">
        <ele>2148.2</ele>
        <time>2017-04-15T11:36:58Z</time>
      </trkpt>
      <trkpt lat="44.90896" lon="6.7216">
        <ele>2144.36</ele>
        <time>2017-04-15T11:37:01Z</time>
      </trkpt>
      <trkpt lat="44.90899" lon="6.72163">
        <ele>2145.8</ele>
        <time>2017-04-15T11:37:02Z</time>
      </trkpt>
      <trkpt lat="44.90903" lon="6.72167">
        <ele>2141.47</ele>
        <time>2017-04-15T11:37:03Z</time>
      </trkpt>
      <trkpt lat="44.9091" lon="6.72176">
        <ele>2140.03</ele>
        <time>2017-04-15T11:37:05Z</time>
      </trkpt>
      <trkpt lat="44.90917" lon="6.72191">
        <ele>2137.15</ele>
        <time>2017-04-15T11:37:08Z</time>
      </trkpt>
      <trkpt lat="44.90929" lon="6.72205">
        <ele>2133.78</ele>
        <time>2017-04-15T11:37:12Z</time>
      </trkpt>
      <trkpt lat="44.90933" lon="6.72205">
        <ele>2130.9</ele>
        <time>2017-04-15T11:37:13Z</time>
      </trkpt>
      <trkpt lat="44.90942" lon="6.72203">
        <ele>2128.5</ele>
        <time>2017-04-15T11:37:15Z</time>
      </trkpt>
      <trkpt lat="44.90967" lon="6.72217">
        <ele>2127.53</ele>
        <time>2017-04-15T11:37:21Z</time>
      </trkpt>
      <trkpt lat="44.90973" lon="6.72232">
        <ele>2122.25</ele>
        <time>2017-04-15T11:37:24Z</time>
      </trkpt>
      <trkpt lat="44.90975" lon="6.72236">
        <ele>2122.25</ele>
        <time>2017-04-15T11:37:25Z</time>
      </trkpt>
      <trkpt lat="44.90981" lon="6.72249">
        <ele>2118.88</ele>
        <time>2017-04-15T11:37:29Z</time>
      </trkpt>
      <trkpt lat="44.90981" lon="6.72248">
        <ele>2118.4</ele>
        <time>2017-04-15T11:37:43Z</time>
      </trkpt>
      <trkpt lat="44.90981" lon="6.72246">
        <ele>2118.4</ele>
        <time>2017-04-15T11:37:52Z</time>
      </trkpt>
      <trkpt lat="44.9099" lon="6.72248">
        <ele>2117.92</ele>
        <time>2017-04-15T11:37:57Z</time>
      </trkpt>
      <trkpt lat="44.91005" lon="6.72265">
        <ele>2113.12</ele>
        <time>2017-04-15T11:38:04Z</time>
      </trkpt>
      <trkpt lat="44.91014" lon="6.72278">
        <ele>2109.75</ele>
        <time>2017-04-15T11:38:06Z</time>
      </trkpt>
      <trkpt lat="44.91035" lon="6.72294">
        <ele>2105.42</ele>
        <time>2017-04-15T11:38:09Z</time>
      </trkpt>
      <trkpt lat="44.91058" lon="6.72298">
        <ele>2102.06</ele>
        <time>2017-04-15T11:38:12Z</time>
      </trkpt>
      <trkpt lat="44.91066" lon="6.72294">
        <ele>2102.06</ele>
        <time>2017-04-15T11:38:13Z</time>
      </trkpt>
      <trkpt lat="44.911" lon="6.72286">
        <ele>2100.62</ele>
        <time>2017-04-15T11:38:19Z</time>
      </trkpt>
      <trkpt lat="44.91148" lon="6.72299">
        <ele>2097.73</ele>
        <time>2017-04-15T11:38:28Z</time>
      </trkpt>
      <trkpt lat="44.91158" lon="6.72302">
        <ele>2096.77</ele>
        <time>2017-04-15T11:38:30Z</time>
      </trkpt>
      <trkpt lat="44.91188" lon="6.72313">
        <ele>2094.85</ele>
        <time>2017-04-15T11:38:36Z</time>
      </trkpt>
      <trkpt lat="44.91193" lon="6.72316">
        <ele>2094.37</ele>
        <time>2017-04-15T11:38:37Z</time>
      </trkpt>
      <trkpt lat="44.91222" lon="6.72316">
        <ele>2090.52</ele>
        <time>2017-04-15T11:38:47Z</time>
      </trkpt>
      <trkpt lat="44.91217" lon="6.72315">
        <ele>2092.45</ele>
        <time>2017-04-15T11:38:56Z</time>
      </trkpt>
      <trkpt lat="44.91223" lon="6.72327">
        <ele>2090.52</ele>
        <time>2017-04-15T11:39:01Z</time>
      </trkpt>
      <trkpt lat="44.91231" lon="6.72332">
        <ele>2089.56</ele>
        <time>2017-04-15T11:39:03Z</time>
      </trkpt>
      <trkpt lat="44.9126" lon="6.72345">
        <ele>2085.24</ele>
        <time>2017-04-15T11:39:08Z</time>
      </trkpt>
      <trkpt lat="44.91293" lon="6.72381">
        <ele>2077.07</ele>
        <time>2017-04-15T11:39:13Z</time>
      </trkpt>
      <trkpt lat="44.913" lon="6.72387">
        <ele>2078.51</ele>
        <time>2017-04-15T11:39:14Z</time>
      </trkpt>
      <trkpt lat="44.91308" lon="6.72394">
        <ele>2078.51</ele>
        <time>2017-04-15T11:39:15Z</time>
      </trkpt>
      <trkpt lat="44.91361" lon="6.72426">
        <ele>2068.41</ele>
        <time>2017-04-15T11:39:22Z</time>
      </trkpt>
      <trkpt lat="44.91375" lon="6.72429">
        <ele>2065.53</ele>
        <time>2017-04-15T11:39:24Z</time>
      </trkpt>
      <trkpt lat="44.91425" lon="6.7244">
        <ele>2061.68</ele>
        <time>2017-04-15T11:39:32Z</time>
      </trkpt>
      <trkpt lat="44.91437" lon="6.72441">
        <ele>2062.17</ele>
        <time>2017-04-15T11:39:34Z</time>
      </trkpt>
      <trkpt lat="44.91466" lon="6.72454">
        <ele>2059.76</ele>
        <time>2017-04-15T11:39:39Z</time>
      </trkpt>
      <trkpt lat="44.91496" lon="6.7247">
        <ele>2054.96</ele>
        <time>2017-04-15T11:39:45Z</time>
      </trkpt>
      <trkpt lat="44.91509" lon="6.72478">
        <ele>2053.51</ele>
        <time>2017-04-15T11:39:48Z</time>
      </trkpt>
      <trkpt lat="44.91532" lon="6.72491">
        <ele>2051.11</ele>
        <time>2017-04-15T11:39:54Z</time>
      </trkpt>
      <trkpt lat="44.91568" lon="6.7248">
        <ele>2046.3</ele>
        <time>2017-04-15T11:40:04Z</time>
      </trkpt>
      <trkpt lat="44.9158" lon="6.72478">
        <ele>2041.98</ele>
        <time>2017-04-15T11:40:06Z</time>
      </trkpt>
      <trkpt lat="44.91624" lon="6.72473">
        <ele>2038.61</ele>
        <time>2017-04-15T11:40:12Z</time>
      </trkpt>
      <trkpt lat="44.91631" lon="6.72472">
        <ele>2037.17</ele>
        <time>2017-04-15T11:40:13Z</time>
      </trkpt>
      <trkpt lat="44.91672" lon="6.72454">
        <ele>2030.92</ele>
        <time>2017-04-15T11:40:19Z</time>
      </trkpt>
      <trkpt lat="44.9169" lon="6.72447">
        <ele>2029.96</ele>
        <time>2017-04-15T11:40:21Z</time>
      </trkpt>
      <trkpt lat="44.91719" lon="6.72439">
        <ele>2028.52</ele>
        <time>2017-04-15T11:40:24Z</time>
      </trkpt>
      <trkpt lat="44.91756" lon="6.72434">
        <ele>2025.64</ele>
        <time>2017-04-15T11:40:28Z</time>
      </trkpt>
      <trkpt lat="44.91787" lon="6.72431">
        <ele>2022.27</ele>
        <time>2017-04-15T11:40:32Z</time>
      </trkpt>
      <trkpt lat="44.91843" lon="6.72421">
        <ele>2018.91</ele>
        <time>2017-04-15T11:40:40Z</time>
      </trkpt>
      <trkpt lat="44.91869" lon="6.72414">
        <ele>2016.02</ele>
        <time>2017-04-15T11:40:44Z</time>
      </trkpt>
      <trkpt lat="44.91896" lon="6.72409">
        <ele>2013.62</ele>
        <time>2017-04-15T11:40:48Z</time>
      </trkpt>
      <trkpt lat="44.91927" lon="6.724">
        <ele>2008.33</ele>
        <time>2017-04-15T11:40:53Z</time>
      </trkpt>
      <trkpt lat="44.91961" lon="6.72388">
        <ele>2004.97</ele>
        <time>2017-04-15T11:40:59Z</time>
      </trkpt>
      <trkpt lat="44.91996" lon="6.72372">
        <ele>2002.56</ele>
        <time>2017-04-15T11:41:06Z</time>
      </trkpt>
      <trkpt lat="44.92021" lon="6.7236">
        <ele>1999.68</ele>
        <time>2017-04-15T11:41:11Z</time>
      </trkpt>
      <trkpt lat="44.92037" lon="6.72366">
        <ele>1999.68</ele>
        <time>2017-04-15T11:41:17Z</time>
      </trkpt>
      <trkpt lat="44.92033" lon="6.72365">
        <ele>1999.68</ele>
        <time>2017-04-15T11:41:41Z</time>
      </trkpt>
      <trkpt lat="44.92034" lon="6.72364">
        <ele>1999.68</ele>
        <time>2017-04-15T11:41:42Z</time>
      </trkpt>
      <trkpt lat="44.9204" lon="6.72357">
        <ele>1999.2</ele>
        <time>2017-04-15T11:41:46Z</time>
      </trkpt>
      <trkpt lat="44.92061" lon="6.72348">
        <ele>1996.32</ele>
        <time>2017-04-15T11:41:51Z</time>
      </trkpt>
      <trkpt lat="44.92079" lon="6.7234">
        <ele>1991.99</ele>
        <time>2017-04-15T11:41:54Z</time>
      </trkpt>
      <trkpt lat="44.92115" lon="6.72314">
        <ele>1988.14</ele>
        <time>2017-04-15T11:42:00Z</time>
      </trkpt>
      <trkpt lat="44.92138" lon="6.723">
        <ele>1986.22</ele>
        <time>2017-04-15T11:42:04Z</time>
      </trkpt>
      <trkpt lat="44.92149" lon="6.72292">
        <ele>1985.26</ele>
        <time>2017-04-15T11:42:06Z</time>
      </trkpt>
      <trkpt lat="44.92176" lon="6.72275">
        <ele>1982.38</ele>
        <time>2017-04-15T11:42:12Z</time>
      </trkpt>
      <trkpt lat="44.92179" lon="6.72272">
        <ele>1982.38</ele>
        <time>2017-04-15T11:42:13Z</time>
      </trkpt>
      <trkpt lat="44.92182" lon="6.72269">
        <ele>1981.9</ele>
        <time>2017-04-15T11:42:14Z</time>
      </trkpt>
      <trkpt lat="44.92205" lon="6.72241">
        <ele>1979.01</ele>
        <time>2017-04-15T11:42:20Z</time>
      </trkpt>
      <trkpt lat="44.92222" lon="6.72224">
        <ele>1977.09</ele>
        <time>2017-04-15T11:42:24Z</time>
      </trkpt>
      <trkpt lat="44.9224" lon="6.7221">
        <ele>1972.76</ele>
        <time>2017-04-15T11:42:28Z</time>
      </trkpt>
      <trkpt lat="44.92268" lon="6.72193">
        <ele>1969.4</ele>
        <time>2017-04-15T11:42:33Z</time>
      </trkpt>
      <trkpt lat="44.92292" lon="6.72179">
        <ele>1966.03</ele>
        <time>2017-04-15T11:42:37Z</time>
      </trkpt>
      <trkpt lat="44.92302" lon="6.7217">
        <ele>1964.59</ele>
        <time>2017-04-15T11:42:39Z</time>
      </trkpt>
      <trkpt lat="44.9232" lon="6.72155">
        <ele>1960.75</ele>
        <time>2017-04-15T11:42:43Z</time>
      </trkpt>
      <trkpt lat="44.9233" lon="6.72152">
        <ele>1958.82</ele>
        <time>2017-04-15T11:42:46Z</time>
      </trkpt>
      <trkpt lat="44.92346" lon="6.72152">
        <ele>1954.98</ele>
        <time>2017-04-15T11:42:50Z</time>
      </trkpt>
      <trkpt lat="44.92352" lon="6.72151">
        <ele>1953.54</ele>
        <time>2017-04-15T11:42:52Z</time>
      </trkpt>
      <trkpt lat="44.92351" lon="6.72148">
        <ele>1954.02</ele>
        <time>2017-04-15T11:43:00Z</time>
      </trkpt>
      <trkpt lat="44.92352" lon="6.72146">
        <ele>1954.02</ele>
        <time>2017-04-15T11:43:20Z</time>
      </trkpt>
      <trkpt lat="44.92352" lon="6.72145">
        <ele>1954.02</ele>
        <time>2017-04-15T11:43:31Z</time>
      </trkpt>
      <trkpt lat="44.92376" lon="6.7216">
        <ele>1951.13</ele>
        <time>2017-04-15T11:43:41Z</time>
      </trkpt>
      <trkpt lat="44.92389" lon="6.72155">
        <ele>1948.25</ele>
        <time>2017-04-15T11:43:44Z</time>
      </trkpt>
      <trkpt lat="44.92399" lon="6.72153">
        <ele>1943.92</ele>
        <time>2017-04-15T11:43:46Z</time>
      </trkpt>
      <trkpt lat="44.92415" lon="6.72154">
        <ele>1941.04</ele>
        <time>2017-04-15T11:43:49Z</time>
      </trkpt>
      <trkpt lat="44.9244" lon="6.72153">
        <ele>1936.71</ele>
        <time>2017-04-15T11:43:53Z</time>
      </trkpt>
      <trkpt lat="44.92462" lon="6.72155">
        <ele>1931.43</ele>
        <time>2017-04-15T11:43:56Z</time>
      </trkpt>
      <trkpt lat="44.92483" lon="6.72151">
        <ele>1929.98</ele>
        <time>2017-04-15T11:43:59Z</time>
      </trkpt>
      <trkpt lat="44.92502" lon="6.72155">
        <ele>1927.1</ele>
        <time>2017-04-15T11:44:02Z</time>
      </trkpt>
      <trkpt lat="44.92514" lon="6.72153">
        <ele>1926.14</ele>
        <time>2017-04-15T11:44:04Z</time>
      </trkpt>
      <trkpt lat="44.9253" lon="6.72154">
        <ele>1923.25</ele>
        <time>2017-04-15T11:44:07Z</time>
      </trkpt>
      <trkpt lat="44.92543" lon="6.72153">
        <ele>1920.37</ele>
        <time>2017-04-15T11:44:10Z</time>
      </trkpt>
      <trkpt lat="44.92559" lon="6.72149">
        <ele>1917.01</ele>
        <time>2017-04-15T11:44:13Z</time>
      </trkpt>
      <trkpt lat="44.92573" lon="6.72156">
        <ele>1914.6</ele>
        <time>2017-04-15T11:44:16Z</time>
      </trkpt>
      <trkpt lat="44.92576" lon="6.72152">
        <ele>1914.6</ele>
        <time>2017-04-15T11:44:17Z</time>
      </trkpt>
      <trkpt lat="44.92591" lon="6.72128">
        <ele>1909.32</ele>
        <time>2017-04-15T11:44:22Z</time>
      </trkpt>
      <trkpt lat="44.92591" lon="6.72121">
        <ele>1908.83</ele>
        <time>2017-04-15T11:44:23Z</time>
      </trkpt>
      <trkpt lat="44.92598" lon="6.72103">
        <ele>1905.95</ele>
        <time>2017-04-15T11:44:26Z</time>
      </trkpt>
      <trkpt lat="44.92603" lon="6.72089">
        <ele>1904.99</ele>
        <time>2017-04-15T11:44:28Z</time>
      </trkpt>
      <trkpt lat="44.92613" lon="6.72073">
        <ele>1901.63</ele>
        <time>2017-04-15T11:44:31Z</time>
      </trkpt>
      <trkpt lat="44.92622" lon="6.72066">
        <ele>1900.66</ele>
        <time>2017-04-15T11:44:33Z</time>
      </trkpt>
      <trkpt lat="44.9263" lon="6.72069">
        <ele>1899.22</ele>
        <time>2017-04-15T11:44:35Z</time>
      </trkpt>
      <trkpt lat="44.92635" lon="6.72074">
        <ele>1898.74</ele>
        <time>2017-04-15T11:44:37Z</time>
      </trkpt>
      <trkpt lat="44.92646" lon="6.72074">
        <ele>1896.82</ele>
        <time>2017-04-15T11:44:45Z</time>
      </trkpt>
      <trkpt lat="44.92645" lon="6.72073">
        <ele>1896.34</ele>
        <time>2017-04-15T11:45:09Z</time>
      </trkpt>
      <trkpt lat="44.92646" lon="6.72073">
        <ele>1896.34</ele>
        <time>2017-04-15T11:45:12Z</time>
      </trkpt>
      <trkpt lat="44.92656" lon="6.72071">
        <ele>1894.9</ele>
        <time>2017-04-15T11:45:16Z</time>
      </trkpt>
      <trkpt lat="44.92667" lon="6.72057">
        <ele>1891.53</ele>
        <time>2017-04-15T11:45:19Z</time>
      </trkpt>
      <trkpt lat="44.92683" lon="6.72043">
        <ele>1888.17</ele>
        <time>2017-04-15T11:45:23Z</time>
      </trkpt>
      <trkpt lat="44.92687" lon="6.72041">
        <ele>1888.17</ele>
        <time>2017-04-15T11:45:24Z</time>
      </trkpt>
      <trkpt lat="44.92699" lon="6.72023">
        <ele>1885.28</ele>
        <time>2017-04-15T11:45:30Z</time>
      </trkpt>
      <trkpt lat="44.92699" lon="6.72026">
        <ele>1884.8</ele>
        <time>2017-04-15T11:45:43Z</time>
      </trkpt>
      <trkpt lat="44.92716" lon="6.72036">
        <ele>1882.88</ele>
        <time>2017-04-15T11:45:50Z</time>
      </trkpt>
      <trkpt lat="44.92739" lon="6.72039">
        <ele>1880</ele>
        <time>2017-04-15T11:45:56Z</time>
      </trkpt>
      <trkpt lat="44.92745" lon="6.72016">
        <ele>1878.07</ele>
        <time>2017-04-15T11:46:01Z</time>
      </trkpt>
      <trkpt lat="44.92742" lon="6.72004">
        <ele>1878.55</ele>
        <time>2017-04-15T11:46:10Z</time>
      </trkpt>
      <trkpt lat="44.9274" lon="6.71999">
        <ele>1877.59</ele>
        <time>2017-04-15T11:46:27Z</time>
      </trkpt>
      <trkpt lat="44.92741" lon="6.72001">
        <ele>1877.59</ele>
        <time>2017-04-15T11:46:46Z</time>
      </trkpt>
      <trkpt lat="44.9274" lon="6.72004">
        <ele>1876.63</ele>
        <time>2017-04-15T11:47:04Z</time>
      </trkpt>
      <trkpt lat="44.92739" lon="6.71997">
        <ele>1877.11</ele>
        <time>2017-04-15T11:47:19Z</time>
      </trkpt>
      <trkpt lat="44.92727" lon="6.72028">
        <ele>1880.96</ele>
        <time>2017-04-15T11:48:25Z</time>
      </trkpt>
      <trkpt lat="44.92728" lon="6.72011">
        <ele>1881.92</ele>
        <time>2017-04-15T11:48:49Z</time>
      </trkpt>
      <trkpt lat="44.92735" lon="6.72015">
        <ele>1881.44</ele>
        <time>2017-04-15T11:49:13Z</time>
      </trkpt>
      <trkpt lat="44.92741" lon="6.72007">
        <ele>1880.96</ele>
        <time>2017-04-15T11:49:39Z</time>
      </trkpt>
    </trkseg>
  </trk>
</gpx>